<?xml version="1.0" encoding="UTF-8" standalone="no" ?>
<gpx xmlns="http://www.topografix.com/GPX/1/1" xmlns:xsi="http://www.w3.org/2001/XMLSchema-instance" xsi:schemaLocation="http://www.topografix.com/GPX/1/1 http://www.topografix.com/GPX/1/1/gpx.xsd" version="1.1" creator="VisuGPX - https://www.visugpx.com">
  <metadata>
    <name>Rando VTT BAZAC 06/04/2014</name>
    <desc><![CDATA[La 16 210 Rando Nature de BAZAC
Le 06/04/2014]]></desc>
  </metadata>
  <trk>
    <name><![CDATA[Rando VTT BAZAC 06/04/2014_1]]></name>
    <trkseg>
      <trkpt lat="45.23186" lon="0.04972">
        <ele>79</ele>
        <time>2014-04-06T06:29:56Z</time>
      </trkpt>
      <trkpt lat="45.23187" lon="0.04972">
        <ele>79</ele>
        <time>2014-04-06T06:29:57Z</time>
      </trkpt>
      <trkpt lat="45.23196" lon="0.04972">
        <ele>79</ele>
        <time>2014-04-06T06:30:01Z</time>
      </trkpt>
      <trkpt lat="45.23254" lon="0.04983">
        <ele>81</ele>
        <time>2014-04-06T06:30:16Z</time>
      </trkpt>
      <trkpt lat="45.23271" lon="0.04982">
        <ele>81</ele>
        <time>2014-04-06T06:30:21Z</time>
      </trkpt>
      <trkpt lat="45.23275" lon="0.04981">
        <ele>81</ele>
        <time>2014-04-06T06:30:22Z</time>
      </trkpt>
      <trkpt lat="45.23301" lon="0.04972">
        <ele>81</ele>
        <time>2014-04-06T06:30:29Z</time>
      </trkpt>
      <trkpt lat="45.23305" lon="0.04971">
        <ele>82</ele>
        <time>2014-04-06T06:30:30Z</time>
      </trkpt>
      <trkpt lat="45.23329" lon="0.04965">
        <ele>82</ele>
        <time>2014-04-06T06:30:37Z</time>
      </trkpt>
      <trkpt lat="45.23332" lon="0.04965">
        <ele>82</ele>
        <time>2014-04-06T06:30:38Z</time>
      </trkpt>
      <trkpt lat="45.23351" lon="0.04971">
        <ele>83</ele>
        <time>2014-04-06T06:30:43Z</time>
      </trkpt>
      <trkpt lat="45.23369" lon="0.0498">
        <ele>83</ele>
        <time>2014-04-06T06:30:48Z</time>
      </trkpt>
      <trkpt lat="45.23381" lon="0.04983">
        <ele>83</ele>
        <time>2014-04-06T06:30:51Z</time>
      </trkpt>
      <trkpt lat="45.23508" lon="0.04969">
        <ele>85</ele>
        <time>2014-04-06T06:31:24Z</time>
      </trkpt>
      <trkpt lat="45.23509" lon="0.04966">
        <ele>85</ele>
        <time>2014-04-06T06:31:25Z</time>
      </trkpt>
      <trkpt lat="45.23508" lon="0.04955">
        <ele>84</ele>
        <time>2014-04-06T06:31:27Z</time>
      </trkpt>
      <trkpt lat="45.23498" lon="0.04929">
        <ele>84</ele>
        <time>2014-04-06T06:31:31Z</time>
      </trkpt>
      <trkpt lat="45.23495" lon="0.04923">
        <ele>84</ele>
        <time>2014-04-06T06:31:32Z</time>
      </trkpt>
      <trkpt lat="45.23455" lon="0.04872">
        <ele>82</ele>
        <time>2014-04-06T06:31:40Z</time>
      </trkpt>
      <trkpt lat="45.23451" lon="0.04864">
        <ele>82</ele>
        <time>2014-04-06T06:31:41Z</time>
      </trkpt>
      <trkpt lat="45.23448" lon="0.04854">
        <ele>81</ele>
        <time>2014-04-06T06:31:42Z</time>
      </trkpt>
      <trkpt lat="45.23445" lon="0.04834">
        <ele>81</ele>
        <time>2014-04-06T06:31:44Z</time>
      </trkpt>
      <trkpt lat="45.23445" lon="0.04793">
        <ele>79</ele>
        <time>2014-04-06T06:31:48Z</time>
      </trkpt>
      <trkpt lat="45.23441" lon="0.04764">
        <ele>79</ele>
        <time>2014-04-06T06:31:51Z</time>
      </trkpt>
      <trkpt lat="45.23434" lon="0.04742">
        <ele>78</ele>
        <time>2014-04-06T06:31:54Z</time>
      </trkpt>
      <trkpt lat="45.23433" lon="0.04738">
        <ele>78</ele>
        <time>2014-04-06T06:31:56Z</time>
      </trkpt>
      <trkpt lat="45.23433" lon="0.04737">
        <ele>77</ele>
        <time>2014-04-06T06:31:57Z</time>
      </trkpt>
      <trkpt lat="45.23432" lon="0.04736">
        <ele>77</ele>
        <time>2014-04-06T06:32:00Z</time>
      </trkpt>
      <trkpt lat="45.23431" lon="0.04737">
        <ele>78</ele>
        <time>2014-04-06T06:32:01Z</time>
      </trkpt>
      <trkpt lat="45.23431" lon="0.04738">
        <ele>78</ele>
        <time>2014-04-06T06:32:02Z</time>
      </trkpt>
      <trkpt lat="45.23438" lon="0.04756">
        <ele>79</ele>
        <time>2014-04-06T06:32:11Z</time>
      </trkpt>
      <trkpt lat="45.23439" lon="0.04756">
        <ele>79</ele>
        <time>2014-04-06T06:32:12Z</time>
      </trkpt>
      <trkpt lat="45.2344" lon="0.04755">
        <ele>79</ele>
        <time>2014-04-06T06:32:13Z</time>
      </trkpt>
      <trkpt lat="45.23441" lon="0.04754">
        <ele>79</ele>
        <time>2014-04-06T06:32:17Z</time>
      </trkpt>
      <trkpt lat="45.23441" lon="0.04754">
        <ele>79</ele>
        <time>2014-04-06T06:32:58Z</time>
      </trkpt>
      <trkpt lat="45.23465" lon="0.04738">
        <ele>75</ele>
        <time>2014-04-06T06:33:42Z</time>
      </trkpt>
      <trkpt lat="45.2347" lon="0.04735">
        <ele>75</ele>
        <time>2014-04-06T06:33:44Z</time>
      </trkpt>
      <trkpt lat="45.23475" lon="0.04731">
        <ele>74</ele>
        <time>2014-04-06T06:33:46Z</time>
      </trkpt>
      <trkpt lat="45.23552" lon="0.04667">
        <ele>62</ele>
        <time>2014-04-06T06:33:59Z</time>
      </trkpt>
      <trkpt lat="45.23565" lon="0.04658">
        <ele>57</ele>
        <time>2014-04-06T06:34:02Z</time>
      </trkpt>
      <trkpt lat="45.23567" lon="0.04658">
        <ele>57</ele>
        <time>2014-04-06T06:34:04Z</time>
      </trkpt>
      <trkpt lat="45.23566" lon="0.04658">
        <ele>57</ele>
        <time>2014-04-06T06:34:05Z</time>
      </trkpt>
      <trkpt lat="45.23568" lon="0.04657">
        <ele>57</ele>
        <time>2014-04-06T06:34:11Z</time>
      </trkpt>
      <trkpt lat="45.23569" lon="0.04654">
        <ele>57</ele>
        <time>2014-04-06T06:34:13Z</time>
      </trkpt>
      <trkpt lat="45.23571" lon="0.04654">
        <ele>57</ele>
        <time>2014-04-06T06:34:16Z</time>
      </trkpt>
      <trkpt lat="45.2357" lon="0.04652">
        <ele>57</ele>
        <time>2014-04-06T06:34:17Z</time>
      </trkpt>
      <trkpt lat="45.23533" lon="0.04567">
        <ele>55</ele>
        <time>2014-04-06T06:34:36Z</time>
      </trkpt>
      <trkpt lat="45.23528" lon="0.04552">
        <ele>55</ele>
        <time>2014-04-06T06:34:40Z</time>
      </trkpt>
      <trkpt lat="45.23527" lon="0.0455">
        <ele>55</ele>
        <time>2014-04-06T06:34:41Z</time>
      </trkpt>
      <trkpt lat="45.23486" lon="0.04432">
        <ele>53</ele>
        <time>2014-04-06T06:35:13Z</time>
      </trkpt>
      <trkpt lat="45.23475" lon="0.04415">
        <ele>51</ele>
        <time>2014-04-06T06:35:18Z</time>
      </trkpt>
      <trkpt lat="45.23422" lon="0.04284">
        <ele>49</ele>
        <time>2014-04-06T06:35:37Z</time>
      </trkpt>
      <trkpt lat="45.23394" lon="0.0415">
        <ele>48</ele>
        <time>2014-04-06T06:35:55Z</time>
      </trkpt>
      <trkpt lat="45.23394" lon="0.04136">
        <ele>48</ele>
        <time>2014-04-06T06:35:57Z</time>
      </trkpt>
      <trkpt lat="45.23391" lon="0.04114">
        <ele>48</ele>
        <time>2014-04-06T06:36:00Z</time>
      </trkpt>
      <trkpt lat="45.23362" lon="0.03992">
        <ele>47</ele>
        <time>2014-04-06T06:36:17Z</time>
      </trkpt>
      <trkpt lat="45.23358" lon="0.03961">
        <ele>47</ele>
        <time>2014-04-06T06:36:24Z</time>
      </trkpt>
      <trkpt lat="45.23359" lon="0.03961">
        <ele>47</ele>
        <time>2014-04-06T06:36:28Z</time>
      </trkpt>
      <trkpt lat="45.23359" lon="0.03959">
        <ele>47</ele>
        <time>2014-04-06T06:36:40Z</time>
      </trkpt>
      <trkpt lat="45.2336" lon="0.03954">
        <ele>47</ele>
        <time>2014-04-06T06:36:42Z</time>
      </trkpt>
      <trkpt lat="45.23362" lon="0.03884">
        <ele>46</ele>
        <time>2014-04-06T06:36:55Z</time>
      </trkpt>
      <trkpt lat="45.23365" lon="0.03866">
        <ele>46</ele>
        <time>2014-04-06T06:36:58Z</time>
      </trkpt>
      <trkpt lat="45.23385" lon="0.03816">
        <ele>44</ele>
        <time>2014-04-06T06:37:07Z</time>
      </trkpt>
      <trkpt lat="45.23395" lon="0.03821">
        <ele>44</ele>
        <time>2014-04-06T06:37:10Z</time>
      </trkpt>
      <trkpt lat="45.23398" lon="0.03824">
        <ele>44</ele>
        <time>2014-04-06T06:37:11Z</time>
      </trkpt>
      <trkpt lat="45.2342" lon="0.03837">
        <ele>47</ele>
        <time>2014-04-06T06:37:18Z</time>
      </trkpt>
      <trkpt lat="45.2343" lon="0.03845">
        <ele>50</ele>
        <time>2014-04-06T06:37:22Z</time>
      </trkpt>
      <trkpt lat="45.23434" lon="0.03847">
        <ele>51</ele>
        <time>2014-04-06T06:37:24Z</time>
      </trkpt>
      <trkpt lat="45.23441" lon="0.0385">
        <ele>52</ele>
        <time>2014-04-06T06:37:27Z</time>
      </trkpt>
      <trkpt lat="45.23443" lon="0.0385">
        <ele>52</ele>
        <time>2014-04-06T06:37:28Z</time>
      </trkpt>
      <trkpt lat="45.23456" lon="0.03847">
        <ele>54</ele>
        <time>2014-04-06T06:37:36Z</time>
      </trkpt>
      <trkpt lat="45.23484" lon="0.03849">
        <ele>57</ele>
        <time>2014-04-06T06:37:53Z</time>
      </trkpt>
      <trkpt lat="45.23487" lon="0.03848">
        <ele>57</ele>
        <time>2014-04-06T06:37:55Z</time>
      </trkpt>
      <trkpt lat="45.23491" lon="0.03849">
        <ele>58</ele>
        <time>2014-04-06T06:37:58Z</time>
      </trkpt>
      <trkpt lat="45.23493" lon="0.0385">
        <ele>58</ele>
        <time>2014-04-06T06:37:59Z</time>
      </trkpt>
      <trkpt lat="45.23497" lon="0.0385">
        <ele>58</ele>
        <time>2014-04-06T06:38:03Z</time>
      </trkpt>
      <trkpt lat="45.23499" lon="0.0385">
        <ele>58</ele>
        <time>2014-04-06T06:38:06Z</time>
      </trkpt>
      <trkpt lat="45.23502" lon="0.03849">
        <ele>64</ele>
        <time>2014-04-06T06:38:08Z</time>
      </trkpt>
      <trkpt lat="45.23508" lon="0.03849">
        <ele>64</ele>
        <time>2014-04-06T06:38:13Z</time>
      </trkpt>
      <trkpt lat="45.23512" lon="0.03848">
        <ele>64</ele>
        <time>2014-04-06T06:38:16Z</time>
      </trkpt>
      <trkpt lat="45.23513" lon="0.03847">
        <ele>64</ele>
        <time>2014-04-06T06:38:18Z</time>
      </trkpt>
      <trkpt lat="45.2352" lon="0.03846">
        <ele>65</ele>
        <time>2014-04-06T06:38:23Z</time>
      </trkpt>
      <trkpt lat="45.23522" lon="0.03845">
        <ele>65</ele>
        <time>2014-04-06T06:38:24Z</time>
      </trkpt>
      <trkpt lat="45.2353" lon="0.03842">
        <ele>66</ele>
        <time>2014-04-06T06:38:29Z</time>
      </trkpt>
      <trkpt lat="45.2353" lon="0.0384">
        <ele>66</ele>
        <time>2014-04-06T06:38:30Z</time>
      </trkpt>
      <trkpt lat="45.23534" lon="0.0384">
        <ele>66</ele>
        <time>2014-04-06T06:38:34Z</time>
      </trkpt>
      <trkpt lat="45.23536" lon="0.03841">
        <ele>67</ele>
        <time>2014-04-06T06:38:36Z</time>
      </trkpt>
      <trkpt lat="45.23541" lon="0.03845">
        <ele>67</ele>
        <time>2014-04-06T06:38:41Z</time>
      </trkpt>
      <trkpt lat="45.23544" lon="0.0385">
        <ele>67</ele>
        <time>2014-04-06T06:38:45Z</time>
      </trkpt>
      <trkpt lat="45.23544" lon="0.03856">
        <ele>68</ele>
        <time>2014-04-06T06:38:49Z</time>
      </trkpt>
      <trkpt lat="45.23546" lon="0.03866">
        <ele>68</ele>
        <time>2014-04-06T06:38:56Z</time>
      </trkpt>
      <trkpt lat="45.23546" lon="0.03873">
        <ele>68</ele>
        <time>2014-04-06T06:39:02Z</time>
      </trkpt>
      <trkpt lat="45.23548" lon="0.03879">
        <ele>69</ele>
        <time>2014-04-06T06:39:07Z</time>
      </trkpt>
      <trkpt lat="45.23551" lon="0.03888">
        <ele>69</ele>
        <time>2014-04-06T06:39:11Z</time>
      </trkpt>
      <trkpt lat="45.23552" lon="0.03892">
        <ele>70</ele>
        <time>2014-04-06T06:39:13Z</time>
      </trkpt>
      <trkpt lat="45.23559" lon="0.03904">
        <ele>71</ele>
        <time>2014-04-06T06:39:18Z</time>
      </trkpt>
      <trkpt lat="45.2356" lon="0.03905">
        <ele>71</ele>
        <time>2014-04-06T06:39:19Z</time>
      </trkpt>
      <trkpt lat="45.23567" lon="0.03916">
        <ele>73</ele>
        <time>2014-04-06T06:39:26Z</time>
      </trkpt>
      <trkpt lat="45.23568" lon="0.0392">
        <ele>74</ele>
        <time>2014-04-06T06:39:28Z</time>
      </trkpt>
      <trkpt lat="45.2357" lon="0.03928">
        <ele>74</ele>
        <time>2014-04-06T06:39:33Z</time>
      </trkpt>
      <trkpt lat="45.23576" lon="0.03975">
        <ele>74</ele>
        <time>2014-04-06T06:39:50Z</time>
      </trkpt>
      <trkpt lat="45.23583" lon="0.04003">
        <ele>76</ele>
        <time>2014-04-06T06:39:59Z</time>
      </trkpt>
      <trkpt lat="45.23595" lon="0.04022">
        <ele>78</ele>
        <time>2014-04-06T06:40:06Z</time>
      </trkpt>
      <trkpt lat="45.23643" lon="0.04201">
        <ele>77</ele>
        <time>2014-04-06T06:40:56Z</time>
      </trkpt>
      <trkpt lat="45.2366" lon="0.04234">
        <ele>79</ele>
        <time>2014-04-06T06:41:05Z</time>
      </trkpt>
      <trkpt lat="45.23663" lon="0.04239">
        <ele>80</ele>
        <time>2014-04-06T06:41:07Z</time>
      </trkpt>
      <trkpt lat="45.23672" lon="0.04258">
        <ele>82</ele>
        <time>2014-04-06T06:41:13Z</time>
      </trkpt>
      <trkpt lat="45.23679" lon="0.04268">
        <ele>83</ele>
        <time>2014-04-06T06:41:18Z</time>
      </trkpt>
      <trkpt lat="45.23681" lon="0.04269">
        <ele>83</ele>
        <time>2014-04-06T06:41:19Z</time>
      </trkpt>
      <trkpt lat="45.23688" lon="0.04269">
        <ele>83</ele>
        <time>2014-04-06T06:41:25Z</time>
      </trkpt>
      <trkpt lat="45.23695" lon="0.04268">
        <ele>83</ele>
        <time>2014-04-06T06:41:29Z</time>
      </trkpt>
      <trkpt lat="45.237" lon="0.04262">
        <ele>84</ele>
        <time>2014-04-06T06:41:33Z</time>
      </trkpt>
      <trkpt lat="45.23704" lon="0.04256">
        <ele>84</ele>
        <time>2014-04-06T06:41:37Z</time>
      </trkpt>
      <trkpt lat="45.23707" lon="0.04254">
        <ele>84</ele>
        <time>2014-04-06T06:41:39Z</time>
      </trkpt>
      <trkpt lat="45.23714" lon="0.04246">
        <ele>86</ele>
        <time>2014-04-06T06:41:47Z</time>
      </trkpt>
      <trkpt lat="45.23717" lon="0.04241">
        <ele>87</ele>
        <time>2014-04-06T06:41:50Z</time>
      </trkpt>
      <trkpt lat="45.23723" lon="0.04239">
        <ele>87</ele>
        <time>2014-04-06T06:41:55Z</time>
      </trkpt>
      <trkpt lat="45.23729" lon="0.04237">
        <ele>87</ele>
        <time>2014-04-06T06:42:00Z</time>
      </trkpt>
      <trkpt lat="45.23738" lon="0.04232">
        <ele>88</ele>
        <time>2014-04-06T06:42:07Z</time>
      </trkpt>
      <trkpt lat="45.23743" lon="0.0423">
        <ele>88</ele>
        <time>2014-04-06T06:42:11Z</time>
      </trkpt>
      <trkpt lat="45.2375" lon="0.04229">
        <ele>90</ele>
        <time>2014-04-06T06:42:15Z</time>
      </trkpt>
      <trkpt lat="45.23762" lon="0.04229">
        <ele>90</ele>
        <time>2014-04-06T06:42:21Z</time>
      </trkpt>
      <trkpt lat="45.2379" lon="0.04224">
        <ele>91</ele>
        <time>2014-04-06T06:42:36Z</time>
      </trkpt>
      <trkpt lat="45.23818" lon="0.04222">
        <ele>91</ele>
        <time>2014-04-06T06:42:50Z</time>
      </trkpt>
      <trkpt lat="45.23835" lon="0.04222">
        <ele>92</ele>
        <time>2014-04-06T06:42:56Z</time>
      </trkpt>
      <trkpt lat="45.23897" lon="0.04213">
        <ele>92</ele>
        <time>2014-04-06T06:43:16Z</time>
      </trkpt>
      <trkpt lat="45.23909" lon="0.04213">
        <ele>92</ele>
        <time>2014-04-06T06:43:20Z</time>
      </trkpt>
      <trkpt lat="45.23923" lon="0.04215">
        <ele>93</ele>
        <time>2014-04-06T06:43:25Z</time>
      </trkpt>
      <trkpt lat="45.23947" lon="0.04214">
        <ele>93</ele>
        <time>2014-04-06T06:43:33Z</time>
      </trkpt>
      <trkpt lat="45.23963" lon="0.04208">
        <ele>94</ele>
        <time>2014-04-06T06:43:40Z</time>
      </trkpt>
      <trkpt lat="45.24017" lon="0.04174">
        <ele>96</ele>
        <time>2014-04-06T06:44:02Z</time>
      </trkpt>
      <trkpt lat="45.24037" lon="0.04168">
        <ele>96</ele>
        <time>2014-04-06T06:44:09Z</time>
      </trkpt>
      <trkpt lat="45.24058" lon="0.04166">
        <ele>97</ele>
        <time>2014-04-06T06:44:16Z</time>
      </trkpt>
      <trkpt lat="45.24075" lon="0.04169">
        <ele>97</ele>
        <time>2014-04-06T06:44:22Z</time>
      </trkpt>
      <trkpt lat="45.24116" lon="0.04164">
        <ele>99</ele>
        <time>2014-04-06T06:44:36Z</time>
      </trkpt>
      <trkpt lat="45.24118" lon="0.04162">
        <ele>99</ele>
        <time>2014-04-06T06:44:37Z</time>
      </trkpt>
      <trkpt lat="45.24121" lon="0.04159">
        <ele>100</ele>
        <time>2014-04-06T06:44:38Z</time>
      </trkpt>
      <trkpt lat="45.24124" lon="0.0415">
        <ele>100</ele>
        <time>2014-04-06T06:44:41Z</time>
      </trkpt>
      <trkpt lat="45.24126" lon="0.04128">
        <ele>100</ele>
        <time>2014-04-06T06:44:47Z</time>
      </trkpt>
      <trkpt lat="45.24127" lon="0.04125">
        <ele>100</ele>
        <time>2014-04-06T06:44:48Z</time>
      </trkpt>
      <trkpt lat="45.24132" lon="0.04118">
        <ele>100</ele>
        <time>2014-04-06T06:44:51Z</time>
      </trkpt>
      <trkpt lat="45.24139" lon="0.04116">
        <ele>100</ele>
        <time>2014-04-06T06:44:54Z</time>
      </trkpt>
      <trkpt lat="45.24147" lon="0.04118">
        <ele>100</ele>
        <time>2014-04-06T06:44:57Z</time>
      </trkpt>
      <trkpt lat="45.2416" lon="0.04125">
        <ele>100</ele>
        <time>2014-04-06T06:45:02Z</time>
      </trkpt>
      <trkpt lat="45.24175" lon="0.04137">
        <ele>100</ele>
        <time>2014-04-06T06:45:07Z</time>
      </trkpt>
      <trkpt lat="45.24206" lon="0.04173">
        <ele>99</ele>
        <time>2014-04-06T06:45:18Z</time>
      </trkpt>
      <trkpt lat="45.24225" lon="0.04187">
        <ele>98</ele>
        <time>2014-04-06T06:45:23Z</time>
      </trkpt>
      <trkpt lat="45.24232" lon="0.042">
        <ele>98</ele>
        <time>2014-04-06T06:45:26Z</time>
      </trkpt>
      <trkpt lat="45.24233" lon="0.04241">
        <ele>98</ele>
        <time>2014-04-06T06:45:36Z</time>
      </trkpt>
      <trkpt lat="45.24233" lon="0.04245">
        <ele>98</ele>
        <time>2014-04-06T06:45:37Z</time>
      </trkpt>
      <trkpt lat="45.24231" lon="0.04264">
        <ele>97</ele>
        <time>2014-04-06T06:45:42Z</time>
      </trkpt>
      <trkpt lat="45.2423" lon="0.04267">
        <ele>97</ele>
        <time>2014-04-06T06:45:43Z</time>
      </trkpt>
      <trkpt lat="45.24225" lon="0.04269">
        <ele>97</ele>
        <time>2014-04-06T06:45:45Z</time>
      </trkpt>
      <trkpt lat="45.24211" lon="0.04271">
        <ele>97</ele>
        <time>2014-04-06T06:45:48Z</time>
      </trkpt>
      <trkpt lat="45.24206" lon="0.04274">
        <ele>97</ele>
        <time>2014-04-06T06:45:49Z</time>
      </trkpt>
      <trkpt lat="45.24202" lon="0.04279">
        <ele>97</ele>
        <time>2014-04-06T06:45:50Z</time>
      </trkpt>
      <trkpt lat="45.24193" lon="0.04294">
        <ele>96</ele>
        <time>2014-04-06T06:45:53Z</time>
      </trkpt>
      <trkpt lat="45.24189" lon="0.04307">
        <ele>96</ele>
        <time>2014-04-06T06:45:55Z</time>
      </trkpt>
      <trkpt lat="45.24182" lon="0.04338">
        <ele>94</ele>
        <time>2014-04-06T06:45:59Z</time>
      </trkpt>
      <trkpt lat="45.24172" lon="0.044">
        <ele>94</ele>
        <time>2014-04-06T06:46:06Z</time>
      </trkpt>
      <trkpt lat="45.24159" lon="0.04447">
        <ele>87</ele>
        <time>2014-04-06T06:46:10Z</time>
      </trkpt>
      <trkpt lat="45.24155" lon="0.04476">
        <ele>86</ele>
        <time>2014-04-06T06:46:13Z</time>
      </trkpt>
      <trkpt lat="45.24155" lon="0.0449">
        <ele>86</ele>
        <time>2014-04-06T06:46:15Z</time>
      </trkpt>
      <trkpt lat="45.24157" lon="0.04495">
        <ele>86</ele>
        <time>2014-04-06T06:46:16Z</time>
      </trkpt>
      <trkpt lat="45.24176" lon="0.0451">
        <ele>86</ele>
        <time>2014-04-06T06:46:22Z</time>
      </trkpt>
      <trkpt lat="45.24208" lon="0.04528">
        <ele>84</ele>
        <time>2014-04-06T06:46:29Z</time>
      </trkpt>
      <trkpt lat="45.24229" lon="0.04544">
        <ele>83</ele>
        <time>2014-04-06T06:46:34Z</time>
      </trkpt>
      <trkpt lat="45.24233" lon="0.04548">
        <ele>83</ele>
        <time>2014-04-06T06:46:35Z</time>
      </trkpt>
      <trkpt lat="45.2428" lon="0.04605">
        <ele>79</ele>
        <time>2014-04-06T06:46:47Z</time>
      </trkpt>
      <trkpt lat="45.24302" lon="0.04625">
        <ele>79</ele>
        <time>2014-04-06T06:46:53Z</time>
      </trkpt>
      <trkpt lat="45.24321" lon="0.04646">
        <ele>79</ele>
        <time>2014-04-06T06:46:59Z</time>
      </trkpt>
      <trkpt lat="45.24336" lon="0.04669">
        <ele>78</ele>
        <time>2014-04-06T06:47:05Z</time>
      </trkpt>
      <trkpt lat="45.24355" lon="0.0469">
        <ele>78</ele>
        <time>2014-04-06T06:47:12Z</time>
      </trkpt>
      <trkpt lat="45.24374" lon="0.04706">
        <ele>79</ele>
        <time>2014-04-06T06:47:19Z</time>
      </trkpt>
      <trkpt lat="45.24391" lon="0.04724">
        <ele>78</ele>
        <time>2014-04-06T06:47:27Z</time>
      </trkpt>
      <trkpt lat="45.24408" lon="0.04734">
        <ele>78</ele>
        <time>2014-04-06T06:47:33Z</time>
      </trkpt>
      <trkpt lat="45.24511" lon="0.04774">
        <ele>82</ele>
        <time>2014-04-06T06:48:11Z</time>
      </trkpt>
      <trkpt lat="45.24527" lon="0.0477">
        <ele>82</ele>
        <time>2014-04-06T06:48:18Z</time>
      </trkpt>
      <trkpt lat="45.24545" lon="0.04755">
        <ele>83</ele>
        <time>2014-04-06T06:48:26Z</time>
      </trkpt>
      <trkpt lat="45.24548" lon="0.04754">
        <ele>83</ele>
        <time>2014-04-06T06:48:27Z</time>
      </trkpt>
      <trkpt lat="45.24568" lon="0.04754">
        <ele>83</ele>
        <time>2014-04-06T06:48:34Z</time>
      </trkpt>
      <trkpt lat="45.2459" lon="0.04762">
        <ele>83</ele>
        <time>2014-04-06T06:48:41Z</time>
      </trkpt>
      <trkpt lat="45.24612" lon="0.04772">
        <ele>84</ele>
        <time>2014-04-06T06:48:48Z</time>
      </trkpt>
      <trkpt lat="45.24662" lon="0.04814">
        <ele>85</ele>
        <time>2014-04-06T06:49:08Z</time>
      </trkpt>
      <trkpt lat="45.24687" lon="0.04838">
        <ele>87</ele>
        <time>2014-04-06T06:49:19Z</time>
      </trkpt>
      <trkpt lat="45.24691" lon="0.04852">
        <ele>87</ele>
        <time>2014-04-06T06:49:23Z</time>
      </trkpt>
      <trkpt lat="45.24691" lon="0.04855">
        <ele>87</ele>
        <time>2014-04-06T06:49:24Z</time>
      </trkpt>
      <trkpt lat="45.24679" lon="0.04894">
        <ele>88</ele>
        <time>2014-04-06T06:49:34Z</time>
      </trkpt>
      <trkpt lat="45.24682" lon="0.04904">
        <ele>88</ele>
        <time>2014-04-06T06:49:37Z</time>
      </trkpt>
      <trkpt lat="45.24683" lon="0.04907">
        <ele>88</ele>
        <time>2014-04-06T06:49:38Z</time>
      </trkpt>
      <trkpt lat="45.24698" lon="0.04918">
        <ele>89</ele>
        <time>2014-04-06T06:49:44Z</time>
      </trkpt>
      <trkpt lat="45.24777" lon="0.04962">
        <ele>93</ele>
        <time>2014-04-06T06:50:17Z</time>
      </trkpt>
      <trkpt lat="45.24788" lon="0.04969">
        <ele>94</ele>
        <time>2014-04-06T06:50:22Z</time>
      </trkpt>
      <trkpt lat="45.24799" lon="0.04975">
        <ele>94</ele>
        <time>2014-04-06T06:50:27Z</time>
      </trkpt>
      <trkpt lat="45.24803" lon="0.04979">
        <ele>94</ele>
        <time>2014-04-06T06:50:29Z</time>
      </trkpt>
      <trkpt lat="45.24806" lon="0.04986">
        <ele>95</ele>
        <time>2014-04-06T06:50:32Z</time>
      </trkpt>
      <trkpt lat="45.24805" lon="0.04988">
        <ele>95</ele>
        <time>2014-04-06T06:50:33Z</time>
      </trkpt>
      <trkpt lat="45.24791" lon="0.05">
        <ele>94</ele>
        <time>2014-04-06T06:50:38Z</time>
      </trkpt>
      <trkpt lat="45.24768" lon="0.05027">
        <ele>97</ele>
        <time>2014-04-06T06:50:45Z</time>
      </trkpt>
      <trkpt lat="45.24682" lon="0.05177">
        <ele>95</ele>
        <time>2014-04-06T06:51:07Z</time>
      </trkpt>
      <trkpt lat="45.24679" lon="0.05185">
        <ele>96</ele>
        <time>2014-04-06T06:51:08Z</time>
      </trkpt>
      <trkpt lat="45.24675" lon="0.05218">
        <ele>97</ele>
        <time>2014-04-06T06:51:12Z</time>
      </trkpt>
      <trkpt lat="45.24679" lon="0.05262">
        <ele>97</ele>
        <time>2014-04-06T06:51:18Z</time>
      </trkpt>
      <trkpt lat="45.24705" lon="0.05361">
        <ele>104</ele>
        <time>2014-04-06T06:51:36Z</time>
      </trkpt>
      <trkpt lat="45.24708" lon="0.05365">
        <ele>105</ele>
        <time>2014-04-06T06:51:38Z</time>
      </trkpt>
      <trkpt lat="45.24713" lon="0.05368">
        <ele>105</ele>
        <time>2014-04-06T06:51:42Z</time>
      </trkpt>
      <trkpt lat="45.24716" lon="0.05368">
        <ele>106</ele>
        <time>2014-04-06T06:51:44Z</time>
      </trkpt>
      <trkpt lat="45.24723" lon="0.05364">
        <ele>106</ele>
        <time>2014-04-06T06:51:49Z</time>
      </trkpt>
      <trkpt lat="45.24723" lon="0.05367">
        <ele>106</ele>
        <time>2014-04-06T06:51:51Z</time>
      </trkpt>
      <trkpt lat="45.24723" lon="0.05369">
        <ele>106</ele>
        <time>2014-04-06T06:51:53Z</time>
      </trkpt>
      <trkpt lat="45.24723" lon="0.05369">
        <ele>106</ele>
        <time>2014-04-06T06:51:59Z</time>
      </trkpt>
      <trkpt lat="45.24726" lon="0.05372">
        <ele>107</ele>
        <time>2014-04-06T06:52:06Z</time>
      </trkpt>
      <trkpt lat="45.24729" lon="0.05372">
        <ele>107</ele>
        <time>2014-04-06T06:52:08Z</time>
      </trkpt>
      <trkpt lat="45.24736" lon="0.05374">
        <ele>107</ele>
        <time>2014-04-06T06:52:13Z</time>
      </trkpt>
      <trkpt lat="45.24737" lon="0.05374">
        <ele>107</ele>
        <time>2014-04-06T06:52:14Z</time>
      </trkpt>
      <trkpt lat="45.24742" lon="0.05375">
        <ele>108</ele>
        <time>2014-04-06T06:52:18Z</time>
      </trkpt>
      <trkpt lat="45.24748" lon="0.05376">
        <ele>108</ele>
        <time>2014-04-06T06:52:23Z</time>
      </trkpt>
      <trkpt lat="45.2475" lon="0.05377">
        <ele>119</ele>
        <time>2014-04-06T06:52:27Z</time>
      </trkpt>
      <trkpt lat="45.24752" lon="0.05379">
        <ele>119</ele>
        <time>2014-04-06T06:52:29Z</time>
      </trkpt>
      <trkpt lat="45.24754" lon="0.05381">
        <ele>119</ele>
        <time>2014-04-06T06:52:31Z</time>
      </trkpt>
      <trkpt lat="45.24757" lon="0.05386">
        <ele>119</ele>
        <time>2014-04-06T06:52:35Z</time>
      </trkpt>
      <trkpt lat="45.2476" lon="0.05391">
        <ele>119</ele>
        <time>2014-04-06T06:52:38Z</time>
      </trkpt>
      <trkpt lat="45.24766" lon="0.05409">
        <ele>118</ele>
        <time>2014-04-06T06:52:49Z</time>
      </trkpt>
      <trkpt lat="45.24767" lon="0.05416">
        <ele>118</ele>
        <time>2014-04-06T06:52:53Z</time>
      </trkpt>
      <trkpt lat="45.24768" lon="0.05424">
        <ele>119</ele>
        <time>2014-04-06T06:52:57Z</time>
      </trkpt>
      <trkpt lat="45.24767" lon="0.05436">
        <ele>120</ele>
        <time>2014-04-06T06:53:05Z</time>
      </trkpt>
      <trkpt lat="45.24767" lon="0.05437">
        <ele>120</ele>
        <time>2014-04-06T06:53:09Z</time>
      </trkpt>
      <trkpt lat="45.24768" lon="0.05438">
        <ele>120</ele>
        <time>2014-04-06T06:53:11Z</time>
      </trkpt>
      <trkpt lat="45.24771" lon="0.05443">
        <ele>121</ele>
        <time>2014-04-06T06:53:27Z</time>
      </trkpt>
      <trkpt lat="45.24773" lon="0.05448">
        <ele>121</ele>
        <time>2014-04-06T06:53:28Z</time>
      </trkpt>
      <trkpt lat="45.24775" lon="0.05462">
        <ele>122</ele>
        <time>2014-04-06T06:53:34Z</time>
      </trkpt>
      <trkpt lat="45.24776" lon="0.05463">
        <ele>122</ele>
        <time>2014-04-06T06:53:35Z</time>
      </trkpt>
      <trkpt lat="45.24774" lon="0.05484">
        <ele>122</ele>
        <time>2014-04-06T06:53:47Z</time>
      </trkpt>
      <trkpt lat="45.24772" lon="0.0549">
        <ele>122</ele>
        <time>2014-04-06T06:53:50Z</time>
      </trkpt>
      <trkpt lat="45.24772" lon="0.05496">
        <ele>122</ele>
        <time>2014-04-06T06:53:54Z</time>
      </trkpt>
      <trkpt lat="45.24769" lon="0.05515">
        <ele>123</ele>
        <time>2014-04-06T06:54:04Z</time>
      </trkpt>
      <trkpt lat="45.24768" lon="0.05531">
        <ele>124</ele>
        <time>2014-04-06T06:54:11Z</time>
      </trkpt>
      <trkpt lat="45.24763" lon="0.05557">
        <ele>125</ele>
        <time>2014-04-06T06:54:25Z</time>
      </trkpt>
      <trkpt lat="45.2476" lon="0.05564">
        <ele>126</ele>
        <time>2014-04-06T06:54:29Z</time>
      </trkpt>
      <trkpt lat="45.24756" lon="0.05572">
        <ele>126</ele>
        <time>2014-04-06T06:54:34Z</time>
      </trkpt>
      <trkpt lat="45.24752" lon="0.05581">
        <ele>127</ele>
        <time>2014-04-06T06:54:38Z</time>
      </trkpt>
      <trkpt lat="45.24751" lon="0.05584">
        <ele>127</ele>
        <time>2014-04-06T06:54:39Z</time>
      </trkpt>
      <trkpt lat="45.2475" lon="0.05597">
        <ele>127</ele>
        <time>2014-04-06T06:54:45Z</time>
      </trkpt>
      <trkpt lat="45.2475" lon="0.05598">
        <ele>127</ele>
        <time>2014-04-06T06:54:46Z</time>
      </trkpt>
      <trkpt lat="45.24747" lon="0.0561">
        <ele>127</ele>
        <time>2014-04-06T06:54:52Z</time>
      </trkpt>
      <trkpt lat="45.24745" lon="0.05627">
        <ele>127</ele>
        <time>2014-04-06T06:54:59Z</time>
      </trkpt>
      <trkpt lat="45.24739" lon="0.0564">
        <ele>128</ele>
        <time>2014-04-06T06:55:05Z</time>
      </trkpt>
      <trkpt lat="45.24737" lon="0.05649">
        <ele>128</ele>
        <time>2014-04-06T06:55:11Z</time>
      </trkpt>
      <trkpt lat="45.24732" lon="0.05659">
        <ele>128</ele>
        <time>2014-04-06T06:55:16Z</time>
      </trkpt>
      <trkpt lat="45.2473" lon="0.0566">
        <ele>128</ele>
        <time>2014-04-06T06:55:17Z</time>
      </trkpt>
      <trkpt lat="45.24722" lon="0.0566">
        <ele>128</ele>
        <time>2014-04-06T06:55:21Z</time>
      </trkpt>
      <trkpt lat="45.24699" lon="0.05658">
        <ele>128</ele>
        <time>2014-04-06T06:55:28Z</time>
      </trkpt>
      <trkpt lat="45.24669" lon="0.05659">
        <ele>129</ele>
        <time>2014-04-06T06:55:35Z</time>
      </trkpt>
      <trkpt lat="45.24623" lon="0.05674">
        <ele>126</ele>
        <time>2014-04-06T06:55:44Z</time>
      </trkpt>
      <trkpt lat="45.24611" lon="0.05675">
        <ele>125</ele>
        <time>2014-04-06T06:55:46Z</time>
      </trkpt>
      <trkpt lat="45.24605" lon="0.05674">
        <ele>124</ele>
        <time>2014-04-06T06:55:47Z</time>
      </trkpt>
      <trkpt lat="45.24583" lon="0.05677">
        <ele>121</ele>
        <time>2014-04-06T06:55:51Z</time>
      </trkpt>
      <trkpt lat="45.24578" lon="0.05678">
        <ele>121</ele>
        <time>2014-04-06T06:55:52Z</time>
      </trkpt>
      <trkpt lat="45.24558" lon="0.0568">
        <ele>121</ele>
        <time>2014-04-06T06:55:57Z</time>
      </trkpt>
      <trkpt lat="45.24553" lon="0.05681">
        <ele>120</ele>
        <time>2014-04-06T06:56:01Z</time>
      </trkpt>
      <trkpt lat="45.24552" lon="0.0569">
        <ele>120</ele>
        <time>2014-04-06T06:56:08Z</time>
      </trkpt>
      <trkpt lat="45.24547" lon="0.05696">
        <ele>120</ele>
        <time>2014-04-06T06:56:13Z</time>
      </trkpt>
      <trkpt lat="45.24532" lon="0.05693">
        <ele>120</ele>
        <time>2014-04-06T06:56:18Z</time>
      </trkpt>
      <trkpt lat="45.24523" lon="0.05696">
        <ele>120</ele>
        <time>2014-04-06T06:56:22Z</time>
      </trkpt>
      <trkpt lat="45.24512" lon="0.05697">
        <ele>120</ele>
        <time>2014-04-06T06:56:27Z</time>
      </trkpt>
      <trkpt lat="45.24504" lon="0.05712">
        <ele>119</ele>
        <time>2014-04-06T06:56:31Z</time>
      </trkpt>
      <trkpt lat="45.24502" lon="0.05718">
        <ele>118</ele>
        <time>2014-04-06T06:56:32Z</time>
      </trkpt>
      <trkpt lat="45.245" lon="0.05726">
        <ele>118</ele>
        <time>2014-04-06T06:56:33Z</time>
      </trkpt>
      <trkpt lat="45.245" lon="0.0574">
        <ele>116</ele>
        <time>2014-04-06T06:56:35Z</time>
      </trkpt>
      <trkpt lat="45.24501" lon="0.05754">
        <ele>114</ele>
        <time>2014-04-06T06:56:37Z</time>
      </trkpt>
      <trkpt lat="45.24504" lon="0.05767">
        <ele>114</ele>
        <time>2014-04-06T06:56:39Z</time>
      </trkpt>
      <trkpt lat="45.24499" lon="0.05779">
        <ele>112</ele>
        <time>2014-04-06T06:56:42Z</time>
      </trkpt>
      <trkpt lat="45.24486" lon="0.05784">
        <ele>112</ele>
        <time>2014-04-06T06:56:47Z</time>
      </trkpt>
      <trkpt lat="45.24474" lon="0.05784">
        <ele>111</ele>
        <time>2014-04-06T06:56:52Z</time>
      </trkpt>
      <trkpt lat="45.24462" lon="0.0579">
        <ele>111</ele>
        <time>2014-04-06T06:56:55Z</time>
      </trkpt>
      <trkpt lat="45.24451" lon="0.05797">
        <ele>111</ele>
        <time>2014-04-06T06:56:58Z</time>
      </trkpt>
      <trkpt lat="45.24408" lon="0.05866">
        <ele>103</ele>
        <time>2014-04-06T06:57:15Z</time>
      </trkpt>
      <trkpt lat="45.24401" lon="0.05857">
        <ele>104</ele>
        <time>2014-04-06T06:57:19Z</time>
      </trkpt>
      <trkpt lat="45.24398" lon="0.05851">
        <ele>104</ele>
        <time>2014-04-06T06:57:21Z</time>
      </trkpt>
      <trkpt lat="45.24396" lon="0.05847">
        <ele>105</ele>
        <time>2014-04-06T06:57:23Z</time>
      </trkpt>
      <trkpt lat="45.24394" lon="0.05846">
        <ele>105</ele>
        <time>2014-04-06T06:57:24Z</time>
      </trkpt>
      <trkpt lat="45.24395" lon="0.05846">
        <ele>105</ele>
        <time>2014-04-06T06:57:25Z</time>
      </trkpt>
      <trkpt lat="45.24392" lon="0.05849">
        <ele>104</ele>
        <time>2014-04-06T06:57:27Z</time>
      </trkpt>
      <trkpt lat="45.24389" lon="0.05856">
        <ele>104</ele>
        <time>2014-04-06T06:57:29Z</time>
      </trkpt>
      <trkpt lat="45.24379" lon="0.05861">
        <ele>104</ele>
        <time>2014-04-06T06:57:33Z</time>
      </trkpt>
      <trkpt lat="45.24376" lon="0.0586">
        <ele>104</ele>
        <time>2014-04-06T06:57:35Z</time>
      </trkpt>
      <trkpt lat="45.24371" lon="0.05856">
        <ele>104</ele>
        <time>2014-04-06T06:57:38Z</time>
      </trkpt>
      <trkpt lat="45.24366" lon="0.05855">
        <ele>105</ele>
        <time>2014-04-06T06:57:40Z</time>
      </trkpt>
      <trkpt lat="45.24357" lon="0.05856">
        <ele>105</ele>
        <time>2014-04-06T06:57:43Z</time>
      </trkpt>
      <trkpt lat="45.24344" lon="0.05861">
        <ele>105</ele>
        <time>2014-04-06T06:57:47Z</time>
      </trkpt>
      <trkpt lat="45.24341" lon="0.0586">
        <ele>105</ele>
        <time>2014-04-06T06:57:48Z</time>
      </trkpt>
      <trkpt lat="45.24333" lon="0.05859">
        <ele>106</ele>
        <time>2014-04-06T06:57:51Z</time>
      </trkpt>
      <trkpt lat="45.24331" lon="0.0586">
        <ele>107</ele>
        <time>2014-04-06T06:57:52Z</time>
      </trkpt>
      <trkpt lat="45.24329" lon="0.05862">
        <ele>107</ele>
        <time>2014-04-06T06:57:53Z</time>
      </trkpt>
      <trkpt lat="45.24324" lon="0.0587">
        <ele>106</ele>
        <time>2014-04-06T06:57:56Z</time>
      </trkpt>
      <trkpt lat="45.2432" lon="0.05888">
        <ele>105</ele>
        <time>2014-04-06T06:58:03Z</time>
      </trkpt>
      <trkpt lat="45.24319" lon="0.05891">
        <ele>105</ele>
        <time>2014-04-06T06:58:04Z</time>
      </trkpt>
      <trkpt lat="45.24311" lon="0.05897">
        <ele>104</ele>
        <time>2014-04-06T06:58:07Z</time>
      </trkpt>
      <trkpt lat="45.24293" lon="0.05908">
        <ele>105</ele>
        <time>2014-04-06T06:58:14Z</time>
      </trkpt>
      <trkpt lat="45.24248" lon="0.0595">
        <ele>99</ele>
        <time>2014-04-06T06:58:28Z</time>
      </trkpt>
      <trkpt lat="45.24247" lon="0.05953">
        <ele>99</ele>
        <time>2014-04-06T06:58:29Z</time>
      </trkpt>
      <trkpt lat="45.24249" lon="0.05961">
        <ele>98</ele>
        <time>2014-04-06T06:58:32Z</time>
      </trkpt>
      <trkpt lat="45.24254" lon="0.05961">
        <ele>95</ele>
        <time>2014-04-06T06:58:33Z</time>
      </trkpt>
      <trkpt lat="45.24262" lon="0.05964">
        <ele>94</ele>
        <time>2014-04-06T06:58:34Z</time>
      </trkpt>
      <trkpt lat="45.24268" lon="0.05968">
        <ele>94</ele>
        <time>2014-04-06T06:58:35Z</time>
      </trkpt>
      <trkpt lat="45.24286" lon="0.0599">
        <ele>92</ele>
        <time>2014-04-06T06:58:38Z</time>
      </trkpt>
      <trkpt lat="45.24291" lon="0.06">
        <ele>92</ele>
        <time>2014-04-06T06:58:39Z</time>
      </trkpt>
      <trkpt lat="45.24346" lon="0.06165">
        <ele>73</ele>
        <time>2014-04-06T06:58:51Z</time>
      </trkpt>
      <trkpt lat="45.24349" lon="0.0618">
        <ele>71</ele>
        <time>2014-04-06T06:58:52Z</time>
      </trkpt>
      <trkpt lat="45.24367" lon="0.06328">
        <ele>69</ele>
        <time>2014-04-06T06:59:04Z</time>
      </trkpt>
      <trkpt lat="45.2437" lon="0.06331">
        <ele>69</ele>
        <time>2014-04-06T06:59:08Z</time>
      </trkpt>
      <trkpt lat="45.24373" lon="0.06332">
        <ele>69</ele>
        <time>2014-04-06T06:59:11Z</time>
      </trkpt>
      <trkpt lat="45.24375" lon="0.0633">
        <ele>68</ele>
        <time>2014-04-06T06:59:13Z</time>
      </trkpt>
      <trkpt lat="45.24375" lon="0.06329">
        <ele>68</ele>
        <time>2014-04-06T06:59:18Z</time>
      </trkpt>
      <trkpt lat="45.24375" lon="0.06329">
        <ele>68</ele>
        <time>2014-04-06T07:00:01Z</time>
      </trkpt>
      <trkpt lat="45.24376" lon="0.06329">
        <ele>68</ele>
        <time>2014-04-06T07:00:34Z</time>
      </trkpt>
      <trkpt lat="45.24376" lon="0.06328">
        <ele>68</ele>
        <time>2014-04-06T07:01:14Z</time>
      </trkpt>
      <trkpt lat="45.24376" lon="0.06328">
        <ele>68</ele>
        <time>2014-04-06T07:01:58Z</time>
      </trkpt>
      <trkpt lat="45.24376" lon="0.06328">
        <ele>68</ele>
        <time>2014-04-06T07:02:34Z</time>
      </trkpt>
      <trkpt lat="45.24376" lon="0.06328">
        <ele>68</ele>
        <time>2014-04-06T07:03:16Z</time>
      </trkpt>
      <trkpt lat="45.24376" lon="0.06327">
        <ele>68</ele>
        <time>2014-04-06T07:03:56Z</time>
      </trkpt>
      <trkpt lat="45.24376" lon="0.06329">
        <ele>68</ele>
        <time>2014-04-06T07:04:33Z</time>
      </trkpt>
      <trkpt lat="45.24377" lon="0.0633">
        <ele>68</ele>
        <time>2014-04-06T07:04:37Z</time>
      </trkpt>
      <trkpt lat="45.24377" lon="0.0633">
        <ele>68</ele>
        <time>2014-04-06T07:04:48Z</time>
      </trkpt>
      <trkpt lat="45.24381" lon="0.06333">
        <ele>68</ele>
        <time>2014-04-06T07:04:50Z</time>
      </trkpt>
      <trkpt lat="45.24403" lon="0.06336">
        <ele>67</ele>
        <time>2014-04-06T07:04:57Z</time>
      </trkpt>
      <trkpt lat="45.2445" lon="0.06348">
        <ele>69</ele>
        <time>2014-04-06T07:05:12Z</time>
      </trkpt>
      <trkpt lat="45.24459" lon="0.06349">
        <ele>70</ele>
        <time>2014-04-06T07:05:16Z</time>
      </trkpt>
      <trkpt lat="45.24465" lon="0.0635">
        <ele>70</ele>
        <time>2014-04-06T07:05:19Z</time>
      </trkpt>
      <trkpt lat="45.24472" lon="0.06353">
        <ele>70</ele>
        <time>2014-04-06T07:05:22Z</time>
      </trkpt>
      <trkpt lat="45.24523" lon="0.06363">
        <ele>74</ele>
        <time>2014-04-06T07:05:42Z</time>
      </trkpt>
      <trkpt lat="45.24545" lon="0.06364">
        <ele>74</ele>
        <time>2014-04-06T07:05:50Z</time>
      </trkpt>
      <trkpt lat="45.24575" lon="0.06371">
        <ele>75</ele>
        <time>2014-04-06T07:06:03Z</time>
      </trkpt>
      <trkpt lat="45.24579" lon="0.06383">
        <ele>75</ele>
        <time>2014-04-06T07:06:07Z</time>
      </trkpt>
      <trkpt lat="45.24573" lon="0.06452">
        <ele>72</ele>
        <time>2014-04-06T07:06:17Z</time>
      </trkpt>
      <trkpt lat="45.24578" lon="0.06522">
        <ele>66</ele>
        <time>2014-04-06T07:06:27Z</time>
      </trkpt>
      <trkpt lat="45.24576" lon="0.06693">
        <ele>61</ele>
        <time>2014-04-06T07:06:56Z</time>
      </trkpt>
      <trkpt lat="45.24578" lon="0.06702">
        <ele>62</ele>
        <time>2014-04-06T07:06:59Z</time>
      </trkpt>
      <trkpt lat="45.2458" lon="0.06703">
        <ele>62</ele>
        <time>2014-04-06T07:07:00Z</time>
      </trkpt>
      <trkpt lat="45.24591" lon="0.06705">
        <ele>63</ele>
        <time>2014-04-06T07:07:04Z</time>
      </trkpt>
      <trkpt lat="45.24594" lon="0.06705">
        <ele>63</ele>
        <time>2014-04-06T07:07:05Z</time>
      </trkpt>
      <trkpt lat="45.24617" lon="0.06707">
        <ele>63</ele>
        <time>2014-04-06T07:07:12Z</time>
      </trkpt>
      <trkpt lat="45.24659" lon="0.06716">
        <ele>63</ele>
        <time>2014-04-06T07:07:24Z</time>
      </trkpt>
      <trkpt lat="45.24668" lon="0.06725">
        <ele>64</ele>
        <time>2014-04-06T07:07:27Z</time>
      </trkpt>
      <trkpt lat="45.24669" lon="0.06741">
        <ele>64</ele>
        <time>2014-04-06T07:07:31Z</time>
      </trkpt>
      <trkpt lat="45.24667" lon="0.06772">
        <ele>68</ele>
        <time>2014-04-06T07:07:39Z</time>
      </trkpt>
      <trkpt lat="45.24667" lon="0.06889">
        <ele>76</ele>
        <time>2014-04-06T07:08:11Z</time>
      </trkpt>
      <trkpt lat="45.24671" lon="0.06915">
        <ele>76</ele>
        <time>2014-04-06T07:08:19Z</time>
      </trkpt>
      <trkpt lat="45.24682" lon="0.06935">
        <ele>80</ele>
        <time>2014-04-06T07:08:27Z</time>
      </trkpt>
      <trkpt lat="45.24696" lon="0.06947">
        <ele>82</ele>
        <time>2014-04-06T07:08:35Z</time>
      </trkpt>
      <trkpt lat="45.24711" lon="0.06953">
        <ele>83</ele>
        <time>2014-04-06T07:08:43Z</time>
      </trkpt>
      <trkpt lat="45.24723" lon="0.06955">
        <ele>83</ele>
        <time>2014-04-06T07:08:50Z</time>
      </trkpt>
      <trkpt lat="45.24741" lon="0.06952">
        <ele>84</ele>
        <time>2014-04-06T07:08:59Z</time>
      </trkpt>
      <trkpt lat="45.24757" lon="0.06946">
        <ele>87</ele>
        <time>2014-04-06T07:09:08Z</time>
      </trkpt>
      <trkpt lat="45.24773" lon="0.06948">
        <ele>87</ele>
        <time>2014-04-06T07:09:17Z</time>
      </trkpt>
      <trkpt lat="45.24782" lon="0.06956">
        <ele>87</ele>
        <time>2014-04-06T07:09:23Z</time>
      </trkpt>
      <trkpt lat="45.24825" lon="0.06999">
        <ele>91</ele>
        <time>2014-04-06T07:09:50Z</time>
      </trkpt>
      <trkpt lat="45.24905" lon="0.07068">
        <ele>94</ele>
        <time>2014-04-06T07:10:34Z</time>
      </trkpt>
      <trkpt lat="45.2495" lon="0.07116">
        <ele>95</ele>
        <time>2014-04-06T07:10:52Z</time>
      </trkpt>
      <trkpt lat="45.24954" lon="0.0712">
        <ele>95</ele>
        <time>2014-04-06T07:10:53Z</time>
      </trkpt>
      <trkpt lat="45.24969" lon="0.07128">
        <ele>95</ele>
        <time>2014-04-06T07:10:57Z</time>
      </trkpt>
      <trkpt lat="45.24972" lon="0.07131">
        <ele>95</ele>
        <time>2014-04-06T07:10:58Z</time>
      </trkpt>
      <trkpt lat="45.25044" lon="0.07162">
        <ele>96</ele>
        <time>2014-04-06T07:11:21Z</time>
      </trkpt>
      <trkpt lat="45.25067" lon="0.07178">
        <ele>98</ele>
        <time>2014-04-06T07:11:30Z</time>
      </trkpt>
      <trkpt lat="45.25075" lon="0.07186">
        <ele>98</ele>
        <time>2014-04-06T07:11:34Z</time>
      </trkpt>
      <trkpt lat="45.2508" lon="0.07186">
        <ele>98</ele>
        <time>2014-04-06T07:11:36Z</time>
      </trkpt>
      <trkpt lat="45.25082" lon="0.07183">
        <ele>98</ele>
        <time>2014-04-06T07:11:37Z</time>
      </trkpt>
      <trkpt lat="45.25111" lon="0.07146">
        <ele>94</ele>
        <time>2014-04-06T07:11:49Z</time>
      </trkpt>
      <trkpt lat="45.2511" lon="0.07146">
        <ele>94</ele>
        <time>2014-04-06T07:11:54Z</time>
      </trkpt>
      <trkpt lat="45.2511" lon="0.07146">
        <ele>94</ele>
        <time>2014-04-06T07:12:33Z</time>
      </trkpt>
      <trkpt lat="45.25111" lon="0.07144">
        <ele>94</ele>
        <time>2014-04-06T07:13:10Z</time>
      </trkpt>
      <trkpt lat="45.25129" lon="0.07123">
        <ele>94</ele>
        <time>2014-04-06T07:13:18Z</time>
      </trkpt>
      <trkpt lat="45.2514" lon="0.07112">
        <ele>93</ele>
        <time>2014-04-06T07:13:21Z</time>
      </trkpt>
      <trkpt lat="45.25152" lon="0.07101">
        <ele>93</ele>
        <time>2014-04-06T07:13:24Z</time>
      </trkpt>
      <trkpt lat="45.25177" lon="0.0709">
        <ele>91</ele>
        <time>2014-04-06T07:13:29Z</time>
      </trkpt>
      <trkpt lat="45.25183" lon="0.07089">
        <ele>91</ele>
        <time>2014-04-06T07:13:30Z</time>
      </trkpt>
      <trkpt lat="45.25211" lon="0.07094">
        <ele>90</ele>
        <time>2014-04-06T07:13:34Z</time>
      </trkpt>
      <trkpt lat="45.25284" lon="0.07126">
        <ele>91</ele>
        <time>2014-04-06T07:13:45Z</time>
      </trkpt>
      <trkpt lat="45.253" lon="0.07131">
        <ele>91</ele>
        <time>2014-04-06T07:13:49Z</time>
      </trkpt>
      <trkpt lat="45.25312" lon="0.07133">
        <ele>92</ele>
        <time>2014-04-06T07:13:53Z</time>
      </trkpt>
      <trkpt lat="45.25316" lon="0.07132">
        <ele>92</ele>
        <time>2014-04-06T07:13:55Z</time>
      </trkpt>
      <trkpt lat="45.2532" lon="0.0713">
        <ele>92</ele>
        <time>2014-04-06T07:13:57Z</time>
      </trkpt>
      <trkpt lat="45.25325" lon="0.07129">
        <ele>92</ele>
        <time>2014-04-06T07:13:59Z</time>
      </trkpt>
      <trkpt lat="45.25334" lon="0.07125">
        <ele>96</ele>
        <time>2014-04-06T07:14:03Z</time>
      </trkpt>
      <trkpt lat="45.25359" lon="0.07119">
        <ele>97</ele>
        <time>2014-04-06T07:14:14Z</time>
      </trkpt>
      <trkpt lat="45.25415" lon="0.07115">
        <ele>99</ele>
        <time>2014-04-06T07:14:40Z</time>
      </trkpt>
      <trkpt lat="45.25424" lon="0.07113">
        <ele>104</ele>
        <time>2014-04-06T07:14:45Z</time>
      </trkpt>
      <trkpt lat="45.25426" lon="0.07108">
        <ele>103</ele>
        <time>2014-04-06T07:14:47Z</time>
      </trkpt>
      <trkpt lat="45.25436" lon="0.06915">
        <ele>90</ele>
        <time>2014-04-06T07:15:12Z</time>
      </trkpt>
      <trkpt lat="45.2544" lon="0.06894">
        <ele>90</ele>
        <time>2014-04-06T07:15:14Z</time>
      </trkpt>
      <trkpt lat="45.25451" lon="0.06876">
        <ele>89</ele>
        <time>2014-04-06T07:15:16Z</time>
      </trkpt>
      <trkpt lat="45.25474" lon="0.06861">
        <ele>89</ele>
        <time>2014-04-06T07:15:19Z</time>
      </trkpt>
      <trkpt lat="45.25579" lon="0.06853">
        <ele>88</ele>
        <time>2014-04-06T07:15:31Z</time>
      </trkpt>
      <trkpt lat="45.25624" lon="0.06839">
        <ele>90</ele>
        <time>2014-04-06T07:15:37Z</time>
      </trkpt>
      <trkpt lat="45.25702" lon="0.06807">
        <ele>84</ele>
        <time>2014-04-06T07:15:49Z</time>
      </trkpt>
      <trkpt lat="45.2572" lon="0.06802">
        <ele>84</ele>
        <time>2014-04-06T07:15:52Z</time>
      </trkpt>
      <trkpt lat="45.25733" lon="0.068">
        <ele>84</ele>
        <time>2014-04-06T07:15:54Z</time>
      </trkpt>
      <trkpt lat="45.25751" lon="0.06803">
        <ele>84</ele>
        <time>2014-04-06T07:15:57Z</time>
      </trkpt>
      <trkpt lat="45.25767" lon="0.06813">
        <ele>84</ele>
        <time>2014-04-06T07:16:00Z</time>
      </trkpt>
      <trkpt lat="45.25778" lon="0.06823">
        <ele>84</ele>
        <time>2014-04-06T07:16:02Z</time>
      </trkpt>
      <trkpt lat="45.25788" lon="0.06836">
        <ele>86</ele>
        <time>2014-04-06T07:16:04Z</time>
      </trkpt>
      <trkpt lat="45.25805" lon="0.06852">
        <ele>86</ele>
        <time>2014-04-06T07:16:07Z</time>
      </trkpt>
      <trkpt lat="45.25812" lon="0.06853">
        <ele>85</ele>
        <time>2014-04-06T07:16:08Z</time>
      </trkpt>
      <trkpt lat="45.25832" lon="0.0685">
        <ele>84</ele>
        <time>2014-04-06T07:16:11Z</time>
      </trkpt>
      <trkpt lat="45.25909" lon="0.06828">
        <ele>82</ele>
        <time>2014-04-06T07:16:22Z</time>
      </trkpt>
      <trkpt lat="45.25914" lon="0.06826">
        <ele>82</ele>
        <time>2014-04-06T07:16:23Z</time>
      </trkpt>
      <trkpt lat="45.25931" lon="0.06814">
        <ele>85</ele>
        <time>2014-04-06T07:16:27Z</time>
      </trkpt>
      <trkpt lat="45.25943" lon="0.06824">
        <ele>86</ele>
        <time>2014-04-06T07:16:30Z</time>
      </trkpt>
      <trkpt lat="45.25954" lon="0.06837">
        <ele>86</ele>
        <time>2014-04-06T07:16:33Z</time>
      </trkpt>
      <trkpt lat="45.25962" lon="0.06845">
        <ele>86</ele>
        <time>2014-04-06T07:16:35Z</time>
      </trkpt>
      <trkpt lat="45.26001" lon="0.06871">
        <ele>93</ele>
        <time>2014-04-06T07:16:49Z</time>
      </trkpt>
      <trkpt lat="45.26008" lon="0.06879">
        <ele>93</ele>
        <time>2014-04-06T07:16:52Z</time>
      </trkpt>
      <trkpt lat="45.2601" lon="0.06882">
        <ele>93</ele>
        <time>2014-04-06T07:16:53Z</time>
      </trkpt>
      <trkpt lat="45.26147" lon="0.07099">
        <ele>90</ele>
        <time>2014-04-06T07:17:41Z</time>
      </trkpt>
      <trkpt lat="45.26148" lon="0.07106">
        <ele>89</ele>
        <time>2014-04-06T07:17:42Z</time>
      </trkpt>
      <trkpt lat="45.26139" lon="0.07127">
        <ele>89</ele>
        <time>2014-04-06T07:17:45Z</time>
      </trkpt>
      <trkpt lat="45.26125" lon="0.07149">
        <ele>88</ele>
        <time>2014-04-06T07:17:48Z</time>
      </trkpt>
      <trkpt lat="45.26121" lon="0.07158">
        <ele>88</ele>
        <time>2014-04-06T07:17:49Z</time>
      </trkpt>
      <trkpt lat="45.26119" lon="0.07167">
        <ele>90</ele>
        <time>2014-04-06T07:17:50Z</time>
      </trkpt>
      <trkpt lat="45.26114" lon="0.07193">
        <ele>91</ele>
        <time>2014-04-06T07:17:53Z</time>
      </trkpt>
      <trkpt lat="45.26114" lon="0.072">
        <ele>92</ele>
        <time>2014-04-06T07:17:54Z</time>
      </trkpt>
      <trkpt lat="45.2612" lon="0.07222">
        <ele>93</ele>
        <time>2014-04-06T07:17:58Z</time>
      </trkpt>
      <trkpt lat="45.26126" lon="0.07235">
        <ele>93</ele>
        <time>2014-04-06T07:18:03Z</time>
      </trkpt>
      <trkpt lat="45.26126" lon="0.07234">
        <ele>93</ele>
        <time>2014-04-06T07:18:04Z</time>
      </trkpt>
      <trkpt lat="45.26129" lon="0.07247">
        <ele>93</ele>
        <time>2014-04-06T07:18:09Z</time>
      </trkpt>
      <trkpt lat="45.26133" lon="0.07274">
        <ele>99</ele>
        <time>2014-04-06T07:18:22Z</time>
      </trkpt>
      <trkpt lat="45.26133" lon="0.07291">
        <ele>100</ele>
        <time>2014-04-06T07:18:28Z</time>
      </trkpt>
      <trkpt lat="45.26132" lon="0.07297">
        <ele>101</ele>
        <time>2014-04-06T07:18:30Z</time>
      </trkpt>
      <trkpt lat="45.26132" lon="0.07313">
        <ele>102</ele>
        <time>2014-04-06T07:18:37Z</time>
      </trkpt>
      <trkpt lat="45.26128" lon="0.07331">
        <ele>103</ele>
        <time>2014-04-06T07:18:46Z</time>
      </trkpt>
      <trkpt lat="45.26123" lon="0.07344">
        <ele>108</ele>
        <time>2014-04-06T07:18:54Z</time>
      </trkpt>
      <trkpt lat="45.26123" lon="0.07346">
        <ele>108</ele>
        <time>2014-04-06T07:18:55Z</time>
      </trkpt>
      <trkpt lat="45.26116" lon="0.07362">
        <ele>109</ele>
        <time>2014-04-06T07:19:02Z</time>
      </trkpt>
      <trkpt lat="45.26113" lon="0.07368">
        <ele>110</ele>
        <time>2014-04-06T07:19:05Z</time>
      </trkpt>
      <trkpt lat="45.26109" lon="0.07371">
        <ele>110</ele>
        <time>2014-04-06T07:19:07Z</time>
      </trkpt>
      <trkpt lat="45.26103" lon="0.07379">
        <ele>110</ele>
        <time>2014-04-06T07:19:11Z</time>
      </trkpt>
      <trkpt lat="45.26084" lon="0.0741">
        <ele>115</ele>
        <time>2014-04-06T07:19:26Z</time>
      </trkpt>
      <trkpt lat="45.26083" lon="0.07412">
        <ele>117</ele>
        <time>2014-04-06T07:19:27Z</time>
      </trkpt>
      <trkpt lat="45.2608" lon="0.07418">
        <ele>117</ele>
        <time>2014-04-06T07:19:30Z</time>
      </trkpt>
      <trkpt lat="45.26075" lon="0.07433">
        <ele>118</ele>
        <time>2014-04-06T07:19:35Z</time>
      </trkpt>
      <trkpt lat="45.26073" lon="0.07491">
        <ele>120</ele>
        <time>2014-04-06T07:19:52Z</time>
      </trkpt>
      <trkpt lat="45.26069" lon="0.07508">
        <ele>121</ele>
        <time>2014-04-06T07:19:58Z</time>
      </trkpt>
      <trkpt lat="45.26042" lon="0.07568">
        <ele>121</ele>
        <time>2014-04-06T07:20:18Z</time>
      </trkpt>
      <trkpt lat="45.26033" lon="0.07581">
        <ele>122</ele>
        <time>2014-04-06T07:20:23Z</time>
      </trkpt>
      <trkpt lat="45.26014" lon="0.07601">
        <ele>122</ele>
        <time>2014-04-06T07:20:33Z</time>
      </trkpt>
      <trkpt lat="45.25994" lon="0.0762">
        <ele>125</ele>
        <time>2014-04-06T07:20:41Z</time>
      </trkpt>
      <trkpt lat="45.2598" lon="0.07636">
        <ele>125</ele>
        <time>2014-04-06T07:20:48Z</time>
      </trkpt>
      <trkpt lat="45.25977" lon="0.07642">
        <ele>125</ele>
        <time>2014-04-06T07:20:50Z</time>
      </trkpt>
      <trkpt lat="45.25947" lon="0.07736">
        <ele>128</ele>
        <time>2014-04-06T07:21:14Z</time>
      </trkpt>
      <trkpt lat="45.25934" lon="0.07765">
        <ele>129</ele>
        <time>2014-04-06T07:21:20Z</time>
      </trkpt>
      <trkpt lat="45.25921" lon="0.07782">
        <ele>129</ele>
        <time>2014-04-06T07:21:24Z</time>
      </trkpt>
      <trkpt lat="45.2589" lon="0.07812">
        <ele>131</ele>
        <time>2014-04-06T07:21:35Z</time>
      </trkpt>
      <trkpt lat="45.25884" lon="0.0782">
        <ele>131</ele>
        <time>2014-04-06T07:21:38Z</time>
      </trkpt>
      <trkpt lat="45.25827" lon="0.07878">
        <ele>133</ele>
        <time>2014-04-06T07:21:56Z</time>
      </trkpt>
      <trkpt lat="45.25814" lon="0.07904">
        <ele>133</ele>
        <time>2014-04-06T07:22:02Z</time>
      </trkpt>
      <trkpt lat="45.25813" lon="0.07924">
        <ele>134</ele>
        <time>2014-04-06T07:22:06Z</time>
      </trkpt>
      <trkpt lat="45.25818" lon="0.07937">
        <ele>134</ele>
        <time>2014-04-06T07:22:09Z</time>
      </trkpt>
      <trkpt lat="45.25841" lon="0.07984">
        <ele>134</ele>
        <time>2014-04-06T07:22:18Z</time>
      </trkpt>
      <trkpt lat="45.25844" lon="0.08009">
        <ele>135</ele>
        <time>2014-04-06T07:22:23Z</time>
      </trkpt>
      <trkpt lat="45.25836" lon="0.08046">
        <ele>135</ele>
        <time>2014-04-06T07:22:32Z</time>
      </trkpt>
      <trkpt lat="45.25831" lon="0.08063">
        <ele>135</ele>
        <time>2014-04-06T07:22:36Z</time>
      </trkpt>
      <trkpt lat="45.25815" lon="0.08092">
        <ele>134</ele>
        <time>2014-04-06T07:22:43Z</time>
      </trkpt>
      <trkpt lat="45.25807" lon="0.08129">
        <ele>134</ele>
        <time>2014-04-06T07:22:51Z</time>
      </trkpt>
      <trkpt lat="45.25812" lon="0.08147">
        <ele>134</ele>
        <time>2014-04-06T07:22:55Z</time>
      </trkpt>
      <trkpt lat="45.25814" lon="0.08149">
        <ele>134</ele>
        <time>2014-04-06T07:22:56Z</time>
      </trkpt>
      <trkpt lat="45.2582" lon="0.08151">
        <ele>134</ele>
        <time>2014-04-06T07:22:58Z</time>
      </trkpt>
      <trkpt lat="45.25833" lon="0.08156">
        <ele>136</ele>
        <time>2014-04-06T07:23:02Z</time>
      </trkpt>
      <trkpt lat="45.2584" lon="0.08157">
        <ele>136</ele>
        <time>2014-04-06T07:23:04Z</time>
      </trkpt>
      <trkpt lat="45.25845" lon="0.0816">
        <ele>136</ele>
        <time>2014-04-06T07:23:06Z</time>
      </trkpt>
      <trkpt lat="45.25855" lon="0.08252">
        <ele>133</ele>
        <time>2014-04-06T07:23:21Z</time>
      </trkpt>
      <trkpt lat="45.25866" lon="0.08309">
        <ele>132</ele>
        <time>2014-04-06T07:23:30Z</time>
      </trkpt>
      <trkpt lat="45.25874" lon="0.08329">
        <ele>131</ele>
        <time>2014-04-06T07:23:34Z</time>
      </trkpt>
      <trkpt lat="45.25878" lon="0.0833">
        <ele>132</ele>
        <time>2014-04-06T07:23:35Z</time>
      </trkpt>
      <trkpt lat="45.25888" lon="0.0833">
        <ele>132</ele>
        <time>2014-04-06T07:23:38Z</time>
      </trkpt>
      <trkpt lat="45.25891" lon="0.08329">
        <ele>132</ele>
        <time>2014-04-06T07:23:39Z</time>
      </trkpt>
      <trkpt lat="45.259" lon="0.0833">
        <ele>132</ele>
        <time>2014-04-06T07:23:42Z</time>
      </trkpt>
      <trkpt lat="45.25904" lon="0.08335">
        <ele>131</ele>
        <time>2014-04-06T07:23:44Z</time>
      </trkpt>
      <trkpt lat="45.25967" lon="0.0848">
        <ele>132</ele>
        <time>2014-04-06T07:24:20Z</time>
      </trkpt>
      <trkpt lat="45.25979" lon="0.08489">
        <ele>133</ele>
        <time>2014-04-06T07:24:25Z</time>
      </trkpt>
      <trkpt lat="45.25993" lon="0.08485">
        <ele>133</ele>
        <time>2014-04-06T07:24:31Z</time>
      </trkpt>
      <trkpt lat="45.26002" lon="0.08484">
        <ele>136</ele>
        <time>2014-04-06T07:24:35Z</time>
      </trkpt>
      <trkpt lat="45.26011" lon="0.08486">
        <ele>136</ele>
        <time>2014-04-06T07:24:39Z</time>
      </trkpt>
      <trkpt lat="45.26019" lon="0.08501">
        <ele>136</ele>
        <time>2014-04-06T07:24:44Z</time>
      </trkpt>
      <trkpt lat="45.26097" lon="0.08743">
        <ele>139</ele>
        <time>2014-04-06T07:25:47Z</time>
      </trkpt>
      <trkpt lat="45.26097" lon="0.08768">
        <ele>139</ele>
        <time>2014-04-06T07:25:52Z</time>
      </trkpt>
      <trkpt lat="45.26072" lon="0.08871">
        <ele>134</ele>
        <time>2014-04-06T07:26:10Z</time>
      </trkpt>
      <trkpt lat="45.26069" lon="0.08928">
        <ele>133</ele>
        <time>2014-04-06T07:26:19Z</time>
      </trkpt>
      <trkpt lat="45.26066" lon="0.0894">
        <ele>131</ele>
        <time>2014-04-06T07:26:21Z</time>
      </trkpt>
      <trkpt lat="45.2606" lon="0.08994">
        <ele>129</ele>
        <time>2014-04-06T07:26:29Z</time>
      </trkpt>
      <trkpt lat="45.26059" lon="0.09019">
        <ele>125</ele>
        <time>2014-04-06T07:26:32Z</time>
      </trkpt>
      <trkpt lat="45.26068" lon="0.0911">
        <ele>119</ele>
        <time>2014-04-06T07:26:42Z</time>
      </trkpt>
      <trkpt lat="45.2607" lon="0.0912">
        <ele>119</ele>
        <time>2014-04-06T07:26:44Z</time>
      </trkpt>
      <trkpt lat="45.26097" lon="0.09172">
        <ele>116</ele>
        <time>2014-04-06T07:26:55Z</time>
      </trkpt>
      <trkpt lat="45.26103" lon="0.09189">
        <ele>115</ele>
        <time>2014-04-06T07:26:57Z</time>
      </trkpt>
      <trkpt lat="45.26107" lon="0.09205">
        <ele>114</ele>
        <time>2014-04-06T07:26:59Z</time>
      </trkpt>
      <trkpt lat="45.2612" lon="0.09239">
        <ele>114</ele>
        <time>2014-04-06T07:27:03Z</time>
      </trkpt>
      <trkpt lat="45.26124" lon="0.09254">
        <ele>112</ele>
        <time>2014-04-06T07:27:05Z</time>
      </trkpt>
      <trkpt lat="45.26125" lon="0.09267">
        <ele>111</ele>
        <time>2014-04-06T07:27:07Z</time>
      </trkpt>
      <trkpt lat="45.2613" lon="0.09278">
        <ele>111</ele>
        <time>2014-04-06T07:27:09Z</time>
      </trkpt>
      <trkpt lat="45.26156" lon="0.09304">
        <ele>111</ele>
        <time>2014-04-06T07:27:15Z</time>
      </trkpt>
      <trkpt lat="45.26166" lon="0.09313">
        <ele>110</ele>
        <time>2014-04-06T07:27:17Z</time>
      </trkpt>
      <trkpt lat="45.26183" lon="0.09323">
        <ele>106</ele>
        <time>2014-04-06T07:27:20Z</time>
      </trkpt>
      <trkpt lat="45.26188" lon="0.09326">
        <ele>105</ele>
        <time>2014-04-06T07:27:21Z</time>
      </trkpt>
      <trkpt lat="45.26193" lon="0.09327">
        <ele>104</ele>
        <time>2014-04-06T07:27:22Z</time>
      </trkpt>
      <trkpt lat="45.26198" lon="0.09327">
        <ele>104</ele>
        <time>2014-04-06T07:27:23Z</time>
      </trkpt>
      <trkpt lat="45.26203" lon="0.09328">
        <ele>103</ele>
        <time>2014-04-06T07:27:24Z</time>
      </trkpt>
      <trkpt lat="45.26208" lon="0.09332">
        <ele>102</ele>
        <time>2014-04-06T07:27:25Z</time>
      </trkpt>
      <trkpt lat="45.26311" lon="0.09426">
        <ele>80</ele>
        <time>2014-04-06T07:27:39Z</time>
      </trkpt>
      <trkpt lat="45.26319" lon="0.09434">
        <ele>80</ele>
        <time>2014-04-06T07:27:41Z</time>
      </trkpt>
      <trkpt lat="45.26322" lon="0.09441">
        <ele>80</ele>
        <time>2014-04-06T07:27:43Z</time>
      </trkpt>
      <trkpt lat="45.26321" lon="0.09444">
        <ele>80</ele>
        <time>2014-04-06T07:27:44Z</time>
      </trkpt>
      <trkpt lat="45.2632" lon="0.09447">
        <ele>80</ele>
        <time>2014-04-06T07:27:45Z</time>
      </trkpt>
      <trkpt lat="45.26317" lon="0.0945">
        <ele>80</ele>
        <time>2014-04-06T07:27:47Z</time>
      </trkpt>
      <trkpt lat="45.26314" lon="0.09449">
        <ele>80</ele>
        <time>2014-04-06T07:27:48Z</time>
      </trkpt>
      <trkpt lat="45.26311" lon="0.0945">
        <ele>80</ele>
        <time>2014-04-06T07:27:49Z</time>
      </trkpt>
      <trkpt lat="45.26299" lon="0.09454">
        <ele>80</ele>
        <time>2014-04-06T07:27:53Z</time>
      </trkpt>
      <trkpt lat="45.26069" lon="0.0959">
        <ele>73</ele>
        <time>2014-04-06T07:28:38Z</time>
      </trkpt>
      <trkpt lat="45.26045" lon="0.096">
        <ele>71</ele>
        <time>2014-04-06T07:28:43Z</time>
      </trkpt>
      <trkpt lat="45.26037" lon="0.09603">
        <ele>71</ele>
        <time>2014-04-06T07:28:45Z</time>
      </trkpt>
      <trkpt lat="45.26036" lon="0.0962">
        <ele>70</ele>
        <time>2014-04-06T07:28:48Z</time>
      </trkpt>
      <trkpt lat="45.26047" lon="0.09638">
        <ele>70</ele>
        <time>2014-04-06T07:28:51Z</time>
      </trkpt>
      <trkpt lat="45.26074" lon="0.09723">
        <ele>66</ele>
        <time>2014-04-06T07:29:01Z</time>
      </trkpt>
      <trkpt lat="45.26075" lon="0.09731">
        <ele>67</ele>
        <time>2014-04-06T07:29:02Z</time>
      </trkpt>
      <trkpt lat="45.26076" lon="0.09756">
        <ele>67</ele>
        <time>2014-04-06T07:29:06Z</time>
      </trkpt>
      <trkpt lat="45.26073" lon="0.09832">
        <ele>70</ele>
        <time>2014-04-06T07:29:29Z</time>
      </trkpt>
      <trkpt lat="45.26076" lon="0.09857">
        <ele>73</ele>
        <time>2014-04-06T07:29:39Z</time>
      </trkpt>
      <trkpt lat="45.26087" lon="0.09891">
        <ele>77</ele>
        <time>2014-04-06T07:29:56Z</time>
      </trkpt>
      <trkpt lat="45.26088" lon="0.09899">
        <ele>77</ele>
        <time>2014-04-06T07:30:00Z</time>
      </trkpt>
      <trkpt lat="45.26102" lon="0.09939">
        <ele>84</ele>
        <time>2014-04-06T07:30:37Z</time>
      </trkpt>
      <trkpt lat="45.26103" lon="0.09945">
        <ele>84</ele>
        <time>2014-04-06T07:30:40Z</time>
      </trkpt>
      <trkpt lat="45.26113" lon="0.09969">
        <ele>86</ele>
        <time>2014-04-06T07:30:54Z</time>
      </trkpt>
      <trkpt lat="45.26115" lon="0.09971">
        <ele>87</ele>
        <time>2014-04-06T07:30:56Z</time>
      </trkpt>
      <trkpt lat="45.26115" lon="0.09973">
        <ele>87</ele>
        <time>2014-04-06T07:30:57Z</time>
      </trkpt>
      <trkpt lat="45.26116" lon="0.09978">
        <ele>87</ele>
        <time>2014-04-06T07:31:00Z</time>
      </trkpt>
      <trkpt lat="45.26121" lon="0.09991">
        <ele>87</ele>
        <time>2014-04-06T07:31:09Z</time>
      </trkpt>
      <trkpt lat="45.26125" lon="0.10006">
        <ele>94</ele>
        <time>2014-04-06T07:31:20Z</time>
      </trkpt>
      <trkpt lat="45.26129" lon="0.10016">
        <ele>95</ele>
        <time>2014-04-06T07:31:28Z</time>
      </trkpt>
      <trkpt lat="45.26131" lon="0.10023">
        <ele>95</ele>
        <time>2014-04-06T07:31:34Z</time>
      </trkpt>
      <trkpt lat="45.26131" lon="0.10023">
        <ele>95</ele>
        <time>2014-04-06T07:31:35Z</time>
      </trkpt>
      <trkpt lat="45.26137" lon="0.10043">
        <ele>96</ele>
        <time>2014-04-06T07:31:52Z</time>
      </trkpt>
      <trkpt lat="45.26139" lon="0.10048">
        <ele>97</ele>
        <time>2014-04-06T07:31:58Z</time>
      </trkpt>
      <trkpt lat="45.26147" lon="0.10068">
        <ele>98</ele>
        <time>2014-04-06T07:32:16Z</time>
      </trkpt>
      <trkpt lat="45.26149" lon="0.10082">
        <ele>99</ele>
        <time>2014-04-06T07:32:27Z</time>
      </trkpt>
      <trkpt lat="45.26155" lon="0.10095">
        <ele>104</ele>
        <time>2014-04-06T07:32:39Z</time>
      </trkpt>
      <trkpt lat="45.2616" lon="0.10111">
        <ele>106</ele>
        <time>2014-04-06T07:32:52Z</time>
      </trkpt>
      <trkpt lat="45.26162" lon="0.10122">
        <ele>107</ele>
        <time>2014-04-06T07:33:01Z</time>
      </trkpt>
      <trkpt lat="45.26164" lon="0.10128">
        <ele>107</ele>
        <time>2014-04-06T07:33:06Z</time>
      </trkpt>
      <trkpt lat="45.26164" lon="0.1013">
        <ele>108</ele>
        <time>2014-04-06T07:33:08Z</time>
      </trkpt>
      <trkpt lat="45.26169" lon="0.10145">
        <ele>112</ele>
        <time>2014-04-06T07:33:19Z</time>
      </trkpt>
      <trkpt lat="45.26182" lon="0.102">
        <ele>116</ele>
        <time>2014-04-06T07:33:52Z</time>
      </trkpt>
      <trkpt lat="45.26185" lon="0.10201">
        <ele>117</ele>
        <time>2014-04-06T07:33:54Z</time>
      </trkpt>
      <trkpt lat="45.26212" lon="0.10204">
        <ele>118</ele>
        <time>2014-04-06T07:34:09Z</time>
      </trkpt>
      <trkpt lat="45.26239" lon="0.1021">
        <ele>119</ele>
        <time>2014-04-06T07:34:24Z</time>
      </trkpt>
      <trkpt lat="45.26257" lon="0.1022">
        <ele>123</ele>
        <time>2014-04-06T07:34:34Z</time>
      </trkpt>
      <trkpt lat="45.26264" lon="0.10224">
        <ele>123</ele>
        <time>2014-04-06T07:34:38Z</time>
      </trkpt>
      <trkpt lat="45.26277" lon="0.10231">
        <ele>124</ele>
        <time>2014-04-06T07:34:46Z</time>
      </trkpt>
      <trkpt lat="45.26289" lon="0.10236">
        <ele>124</ele>
        <time>2014-04-06T07:34:53Z</time>
      </trkpt>
      <trkpt lat="45.26302" lon="0.10249">
        <ele>125</ele>
        <time>2014-04-06T07:35:01Z</time>
      </trkpt>
      <trkpt lat="45.26326" lon="0.10266">
        <ele>126</ele>
        <time>2014-04-06T07:35:14Z</time>
      </trkpt>
      <trkpt lat="45.2634" lon="0.10275">
        <ele>129</ele>
        <time>2014-04-06T07:35:21Z</time>
      </trkpt>
      <trkpt lat="45.26375" lon="0.10285">
        <ele>130</ele>
        <time>2014-04-06T07:35:38Z</time>
      </trkpt>
      <trkpt lat="45.26391" lon="0.10289">
        <ele>130</ele>
        <time>2014-04-06T07:35:46Z</time>
      </trkpt>
      <trkpt lat="45.26401" lon="0.1029">
        <ele>130</ele>
        <time>2014-04-06T07:35:51Z</time>
      </trkpt>
      <trkpt lat="45.26423" lon="0.10297">
        <ele>134</ele>
        <time>2014-04-06T07:36:03Z</time>
      </trkpt>
      <trkpt lat="45.26425" lon="0.10298">
        <ele>134</ele>
        <time>2014-04-06T07:36:04Z</time>
      </trkpt>
      <trkpt lat="45.26455" lon="0.10306">
        <ele>135</ele>
        <time>2014-04-06T07:36:21Z</time>
      </trkpt>
      <trkpt lat="45.26468" lon="0.10308">
        <ele>135</ele>
        <time>2014-04-06T07:36:27Z</time>
      </trkpt>
      <trkpt lat="45.26479" lon="0.10307">
        <ele>136</ele>
        <time>2014-04-06T07:36:32Z</time>
      </trkpt>
      <trkpt lat="45.26504" lon="0.10299">
        <ele>139</ele>
        <time>2014-04-06T07:36:44Z</time>
      </trkpt>
      <trkpt lat="45.26587" lon="0.10297">
        <ele>143</ele>
        <time>2014-04-06T07:37:23Z</time>
      </trkpt>
      <trkpt lat="45.26601" lon="0.10298">
        <ele>143</ele>
        <time>2014-04-06T07:37:30Z</time>
      </trkpt>
      <trkpt lat="45.26709" lon="0.1036">
        <ele>152</ele>
        <time>2014-04-06T07:38:24Z</time>
      </trkpt>
      <trkpt lat="45.26726" lon="0.10373">
        <ele>153</ele>
        <time>2014-04-06T07:38:33Z</time>
      </trkpt>
      <trkpt lat="45.26733" lon="0.10382">
        <ele>153</ele>
        <time>2014-04-06T07:38:38Z</time>
      </trkpt>
      <trkpt lat="45.2675" lon="0.10406">
        <ele>155</ele>
        <time>2014-04-06T07:38:49Z</time>
      </trkpt>
      <trkpt lat="45.2676" lon="0.10424">
        <ele>159</ele>
        <time>2014-04-06T07:38:57Z</time>
      </trkpt>
      <trkpt lat="45.26761" lon="0.10426">
        <ele>159</ele>
        <time>2014-04-06T07:38:58Z</time>
      </trkpt>
      <trkpt lat="45.2678" lon="0.10457">
        <ele>160</ele>
        <time>2014-04-06T07:39:13Z</time>
      </trkpt>
      <trkpt lat="45.26791" lon="0.10466">
        <ele>161</ele>
        <time>2014-04-06T07:39:19Z</time>
      </trkpt>
      <trkpt lat="45.26801" lon="0.10471">
        <ele>161</ele>
        <time>2014-04-06T07:39:24Z</time>
      </trkpt>
      <trkpt lat="45.26839" lon="0.10498">
        <ele>166</ele>
        <time>2014-04-06T07:39:43Z</time>
      </trkpt>
      <trkpt lat="45.26901" lon="0.10535">
        <ele>168</ele>
        <time>2014-04-06T07:40:06Z</time>
      </trkpt>
      <trkpt lat="45.26912" lon="0.10539">
        <ele>168</ele>
        <time>2014-04-06T07:40:09Z</time>
      </trkpt>
      <trkpt lat="45.26926" lon="0.1054">
        <ele>164</ele>
        <time>2014-04-06T07:40:13Z</time>
      </trkpt>
      <trkpt lat="45.26947" lon="0.10539">
        <ele>163</ele>
        <time>2014-04-06T07:40:19Z</time>
      </trkpt>
      <trkpt lat="45.26956" lon="0.1054">
        <ele>163</ele>
        <time>2014-04-06T07:40:22Z</time>
      </trkpt>
      <trkpt lat="45.26963" lon="0.10539">
        <ele>163</ele>
        <time>2014-04-06T07:40:24Z</time>
      </trkpt>
      <trkpt lat="45.26983" lon="0.10532">
        <ele>162</ele>
        <time>2014-04-06T07:40:29Z</time>
      </trkpt>
      <trkpt lat="45.26987" lon="0.10532">
        <ele>161</ele>
        <time>2014-04-06T07:40:30Z</time>
      </trkpt>
      <trkpt lat="45.26994" lon="0.10535">
        <ele>161</ele>
        <time>2014-04-06T07:40:32Z</time>
      </trkpt>
      <trkpt lat="45.26996" lon="0.10538">
        <ele>162</ele>
        <time>2014-04-06T07:40:33Z</time>
      </trkpt>
      <trkpt lat="45.26997" lon="0.10548">
        <ele>162</ele>
        <time>2014-04-06T07:40:37Z</time>
      </trkpt>
      <trkpt lat="45.26997" lon="0.1055">
        <ele>162</ele>
        <time>2014-04-06T07:40:38Z</time>
      </trkpt>
      <trkpt lat="45.26998" lon="0.10553">
        <ele>162</ele>
        <time>2014-04-06T07:40:41Z</time>
      </trkpt>
      <trkpt lat="45.26998" lon="0.10553">
        <ele>162</ele>
        <time>2014-04-06T07:40:53Z</time>
      </trkpt>
      <trkpt lat="45.26998" lon="0.10553">
        <ele>162</ele>
        <time>2014-04-06T07:41:25Z</time>
      </trkpt>
      <trkpt lat="45.26999" lon="0.1055">
        <ele>162</ele>
        <time>2014-04-06T07:41:32Z</time>
      </trkpt>
      <trkpt lat="45.26999" lon="0.10547">
        <ele>162</ele>
        <time>2014-04-06T07:41:37Z</time>
      </trkpt>
      <trkpt lat="45.27" lon="0.10545">
        <ele>157</ele>
        <time>2014-04-06T07:41:38Z</time>
      </trkpt>
      <trkpt lat="45.27" lon="0.10541">
        <ele>157</ele>
        <time>2014-04-06T07:41:43Z</time>
      </trkpt>
      <trkpt lat="45.27" lon="0.10538">
        <ele>161</ele>
        <time>2014-04-06T07:41:47Z</time>
      </trkpt>
      <trkpt lat="45.26999" lon="0.10537">
        <ele>161</ele>
        <time>2014-04-06T07:41:53Z</time>
      </trkpt>
      <trkpt lat="45.26999" lon="0.10537">
        <ele>161</ele>
        <time>2014-04-06T07:41:58Z</time>
      </trkpt>
      <trkpt lat="45.26999" lon="0.10538">
        <ele>161</ele>
        <time>2014-04-06T07:42:13Z</time>
      </trkpt>
      <trkpt lat="45.27" lon="0.10543">
        <ele>162</ele>
        <time>2014-04-06T07:42:21Z</time>
      </trkpt>
      <trkpt lat="45.27" lon="0.10544">
        <ele>162</ele>
        <time>2014-04-06T07:42:49Z</time>
      </trkpt>
      <trkpt lat="45.26999" lon="0.10544">
        <ele>162</ele>
        <time>2014-04-06T07:42:52Z</time>
      </trkpt>
      <trkpt lat="45.26999" lon="0.10545">
        <ele>162</ele>
        <time>2014-04-06T07:42:53Z</time>
      </trkpt>
      <trkpt lat="45.26999" lon="0.10546">
        <ele>162</ele>
        <time>2014-04-06T07:42:55Z</time>
      </trkpt>
      <trkpt lat="45.26998" lon="0.10547">
        <ele>162</ele>
        <time>2014-04-06T07:42:56Z</time>
      </trkpt>
      <trkpt lat="45.26997" lon="0.10597">
        <ele>163</ele>
        <time>2014-04-06T07:43:09Z</time>
      </trkpt>
      <trkpt lat="45.26994" lon="0.10605">
        <ele>163</ele>
        <time>2014-04-06T07:43:11Z</time>
      </trkpt>
      <trkpt lat="45.26992" lon="0.10607">
        <ele>163</ele>
        <time>2014-04-06T07:43:12Z</time>
      </trkpt>
      <trkpt lat="45.26986" lon="0.10613">
        <ele>163</ele>
        <time>2014-04-06T07:43:14Z</time>
      </trkpt>
      <trkpt lat="45.26979" lon="0.10617">
        <ele>163</ele>
        <time>2014-04-06T07:43:16Z</time>
      </trkpt>
      <trkpt lat="45.26933" lon="0.10649">
        <ele>165</ele>
        <time>2014-04-06T07:43:29Z</time>
      </trkpt>
      <trkpt lat="45.26929" lon="0.10652">
        <ele>165</ele>
        <time>2014-04-06T07:43:30Z</time>
      </trkpt>
      <trkpt lat="45.26905" lon="0.10681">
        <ele>165</ele>
        <time>2014-04-06T07:43:41Z</time>
      </trkpt>
      <trkpt lat="45.26889" lon="0.10703">
        <ele>165</ele>
        <time>2014-04-06T07:43:47Z</time>
      </trkpt>
      <trkpt lat="45.26873" lon="0.10721">
        <ele>165</ele>
        <time>2014-04-06T07:43:52Z</time>
      </trkpt>
      <trkpt lat="45.26856" lon="0.10755">
        <ele>161</ele>
        <time>2014-04-06T07:44:00Z</time>
      </trkpt>
      <trkpt lat="45.26854" lon="0.10772">
        <ele>161</ele>
        <time>2014-04-06T07:44:04Z</time>
      </trkpt>
      <trkpt lat="45.26869" lon="0.10828">
        <ele>158</ele>
        <time>2014-04-06T07:44:14Z</time>
      </trkpt>
      <trkpt lat="45.2687" lon="0.10833">
        <ele>156</ele>
        <time>2014-04-06T07:44:15Z</time>
      </trkpt>
      <trkpt lat="45.26867" lon="0.10851">
        <ele>156</ele>
        <time>2014-04-06T07:44:19Z</time>
      </trkpt>
      <trkpt lat="45.26864" lon="0.10857">
        <ele>156</ele>
        <time>2014-04-06T07:44:21Z</time>
      </trkpt>
      <trkpt lat="45.26858" lon="0.10866">
        <ele>156</ele>
        <time>2014-04-06T07:44:24Z</time>
      </trkpt>
      <trkpt lat="45.26849" lon="0.10876">
        <ele>156</ele>
        <time>2014-04-06T07:44:29Z</time>
      </trkpt>
      <trkpt lat="45.26845" lon="0.10891">
        <ele>155</ele>
        <time>2014-04-06T07:44:34Z</time>
      </trkpt>
      <trkpt lat="45.26848" lon="0.10899">
        <ele>155</ele>
        <time>2014-04-06T07:44:37Z</time>
      </trkpt>
      <trkpt lat="45.26902" lon="0.11001">
        <ele>140</ele>
        <time>2014-04-06T07:44:53Z</time>
      </trkpt>
      <trkpt lat="45.26944" lon="0.11055">
        <ele>131</ele>
        <time>2014-04-06T07:45:02Z</time>
      </trkpt>
      <trkpt lat="45.26956" lon="0.11068">
        <ele>130</ele>
        <time>2014-04-06T07:45:05Z</time>
      </trkpt>
      <trkpt lat="45.26965" lon="0.11071">
        <ele>130</ele>
        <time>2014-04-06T07:45:07Z</time>
      </trkpt>
      <trkpt lat="45.26976" lon="0.11065">
        <ele>130</ele>
        <time>2014-04-06T07:45:10Z</time>
      </trkpt>
      <trkpt lat="45.26979" lon="0.11065">
        <ele>130</ele>
        <time>2014-04-06T07:45:13Z</time>
      </trkpt>
      <trkpt lat="45.26978" lon="0.11066">
        <ele>130</ele>
        <time>2014-04-06T07:45:14Z</time>
      </trkpt>
      <trkpt lat="45.26949" lon="0.11163">
        <ele>121</ele>
        <time>2014-04-06T07:45:28Z</time>
      </trkpt>
      <trkpt lat="45.26947" lon="0.1118">
        <ele>115</ele>
        <time>2014-04-06T07:45:30Z</time>
      </trkpt>
      <trkpt lat="45.26948" lon="0.1119">
        <ele>115</ele>
        <time>2014-04-06T07:45:31Z</time>
      </trkpt>
      <trkpt lat="45.26969" lon="0.1133">
        <ele>109</ele>
        <time>2014-04-06T07:45:45Z</time>
      </trkpt>
      <trkpt lat="45.26969" lon="0.11341">
        <ele>110</ele>
        <time>2014-04-06T07:45:46Z</time>
      </trkpt>
      <trkpt lat="45.26968" lon="0.11361">
        <ele>110</ele>
        <time>2014-04-06T07:45:48Z</time>
      </trkpt>
      <trkpt lat="45.26966" lon="0.1137">
        <ele>110</ele>
        <time>2014-04-06T07:45:49Z</time>
      </trkpt>
      <trkpt lat="45.26899" lon="0.11557">
        <ele>118</ele>
        <time>2014-04-06T07:46:57Z</time>
      </trkpt>
      <trkpt lat="45.26885" lon="0.11623">
        <ele>122</ele>
        <time>2014-04-06T07:47:18Z</time>
      </trkpt>
      <trkpt lat="45.26881" lon="0.11689">
        <ele>122</ele>
        <time>2014-04-06T07:47:43Z</time>
      </trkpt>
      <trkpt lat="45.26881" lon="0.11692">
        <ele>122</ele>
        <time>2014-04-06T07:47:44Z</time>
      </trkpt>
      <trkpt lat="45.26891" lon="0.1172">
        <ele>123</ele>
        <time>2014-04-06T07:47:53Z</time>
      </trkpt>
      <trkpt lat="45.26906" lon="0.11751">
        <ele>122</ele>
        <time>2014-04-06T07:47:59Z</time>
      </trkpt>
      <trkpt lat="45.2691" lon="0.11765">
        <ele>121</ele>
        <time>2014-04-06T07:48:01Z</time>
      </trkpt>
      <trkpt lat="45.26918" lon="0.11835">
        <ele>117</ele>
        <time>2014-04-06T07:48:09Z</time>
      </trkpt>
      <trkpt lat="45.26919" lon="0.1186">
        <ele>115</ele>
        <time>2014-04-06T07:48:15Z</time>
      </trkpt>
      <trkpt lat="45.26932" lon="0.11914">
        <ele>112</ele>
        <time>2014-04-06T07:48:24Z</time>
      </trkpt>
      <trkpt lat="45.26936" lon="0.11922">
        <ele>110</ele>
        <time>2014-04-06T07:48:26Z</time>
      </trkpt>
      <trkpt lat="45.2694" lon="0.11925">
        <ele>109</ele>
        <time>2014-04-06T07:48:30Z</time>
      </trkpt>
      <trkpt lat="45.26939" lon="0.11922">
        <ele>109</ele>
        <time>2014-04-06T07:48:35Z</time>
      </trkpt>
      <trkpt lat="45.26939" lon="0.11923">
        <ele>109</ele>
        <time>2014-04-06T07:49:16Z</time>
      </trkpt>
      <trkpt lat="45.26939" lon="0.11923">
        <ele>109</ele>
        <time>2014-04-06T07:49:26Z</time>
      </trkpt>
      <trkpt lat="45.26939" lon="0.11922">
        <ele>109</ele>
        <time>2014-04-06T07:50:01Z</time>
      </trkpt>
      <trkpt lat="45.26939" lon="0.11923">
        <ele>109</ele>
        <time>2014-04-06T07:50:11Z</time>
      </trkpt>
      <trkpt lat="45.26939" lon="0.11924">
        <ele>109</ele>
        <time>2014-04-06T07:50:17Z</time>
      </trkpt>
      <trkpt lat="45.26936" lon="0.11925">
        <ele>109</ele>
        <time>2014-04-06T07:50:38Z</time>
      </trkpt>
      <trkpt lat="45.26935" lon="0.11927">
        <ele>109</ele>
        <time>2014-04-06T07:50:40Z</time>
      </trkpt>
      <trkpt lat="45.26935" lon="0.11933">
        <ele>109</ele>
        <time>2014-04-06T07:50:43Z</time>
      </trkpt>
      <trkpt lat="45.26942" lon="0.11962">
        <ele>108</ele>
        <time>2014-04-06T07:50:48Z</time>
      </trkpt>
      <trkpt lat="45.27038" lon="0.12212">
        <ele>100</ele>
        <time>2014-04-06T07:51:27Z</time>
      </trkpt>
      <trkpt lat="45.27054" lon="0.12279">
        <ele>99</ele>
        <time>2014-04-06T07:51:38Z</time>
      </trkpt>
      <trkpt lat="45.27058" lon="0.12313">
        <ele>99</ele>
        <time>2014-04-06T07:51:44Z</time>
      </trkpt>
      <trkpt lat="45.27058" lon="0.12319">
        <ele>99</ele>
        <time>2014-04-06T07:51:45Z</time>
      </trkpt>
      <trkpt lat="45.27054" lon="0.12336">
        <ele>97</ele>
        <time>2014-04-06T07:51:48Z</time>
      </trkpt>
      <trkpt lat="45.27035" lon="0.12358">
        <ele>96</ele>
        <time>2014-04-06T07:51:53Z</time>
      </trkpt>
      <trkpt lat="45.27021" lon="0.12365">
        <ele>96</ele>
        <time>2014-04-06T07:51:56Z</time>
      </trkpt>
      <trkpt lat="45.27015" lon="0.12367">
        <ele>96</ele>
        <time>2014-04-06T07:51:57Z</time>
      </trkpt>
      <trkpt lat="45.2701" lon="0.12368">
        <ele>96</ele>
        <time>2014-04-06T07:51:58Z</time>
      </trkpt>
      <trkpt lat="45.26994" lon="0.12374">
        <ele>94</ele>
        <time>2014-04-06T07:52:01Z</time>
      </trkpt>
      <trkpt lat="45.26989" lon="0.12378">
        <ele>94</ele>
        <time>2014-04-06T07:52:02Z</time>
      </trkpt>
      <trkpt lat="45.26985" lon="0.12383">
        <ele>93</ele>
        <time>2014-04-06T07:52:03Z</time>
      </trkpt>
      <trkpt lat="45.26982" lon="0.12388">
        <ele>93</ele>
        <time>2014-04-06T07:52:04Z</time>
      </trkpt>
      <trkpt lat="45.26976" lon="0.12408">
        <ele>93</ele>
        <time>2014-04-06T07:52:07Z</time>
      </trkpt>
      <trkpt lat="45.26972" lon="0.12452">
        <ele>91</ele>
        <time>2014-04-06T07:52:13Z</time>
      </trkpt>
      <trkpt lat="45.26962" lon="0.12581">
        <ele>88</ele>
        <time>2014-04-06T07:52:30Z</time>
      </trkpt>
      <trkpt lat="45.26961" lon="0.12588">
        <ele>86</ele>
        <time>2014-04-06T07:52:31Z</time>
      </trkpt>
      <trkpt lat="45.26952" lon="0.12619">
        <ele>85</ele>
        <time>2014-04-06T07:52:36Z</time>
      </trkpt>
      <trkpt lat="45.26877" lon="0.1281">
        <ele>80</ele>
        <time>2014-04-06T07:53:04Z</time>
      </trkpt>
      <trkpt lat="45.26871" lon="0.12843">
        <ele>81</ele>
        <time>2014-04-06T07:53:09Z</time>
      </trkpt>
      <trkpt lat="45.26871" lon="0.13002">
        <ele>84</ele>
        <time>2014-04-06T07:53:36Z</time>
      </trkpt>
      <trkpt lat="45.26877" lon="0.1303">
        <ele>84</ele>
        <time>2014-04-06T07:53:41Z</time>
      </trkpt>
      <trkpt lat="45.26874" lon="0.13042">
        <ele>83</ele>
        <time>2014-04-06T07:53:44Z</time>
      </trkpt>
      <trkpt lat="45.26868" lon="0.13048">
        <ele>83</ele>
        <time>2014-04-06T07:53:46Z</time>
      </trkpt>
      <trkpt lat="45.26858" lon="0.13059">
        <ele>83</ele>
        <time>2014-04-06T07:53:49Z</time>
      </trkpt>
      <trkpt lat="45.26827" lon="0.13084">
        <ele>83</ele>
        <time>2014-04-06T07:53:57Z</time>
      </trkpt>
      <trkpt lat="45.26817" lon="0.1309">
        <ele>83</ele>
        <time>2014-04-06T07:54:00Z</time>
      </trkpt>
      <trkpt lat="45.26794" lon="0.1311">
        <ele>84</ele>
        <time>2014-04-06T07:54:07Z</time>
      </trkpt>
      <trkpt lat="45.26776" lon="0.13129">
        <ele>85</ele>
        <time>2014-04-06T07:54:12Z</time>
      </trkpt>
      <trkpt lat="45.26695" lon="0.13255">
        <ele>89</ele>
        <time>2014-04-06T07:54:42Z</time>
      </trkpt>
      <trkpt lat="45.26674" lon="0.13297">
        <ele>89</ele>
        <time>2014-04-06T07:54:51Z</time>
      </trkpt>
      <trkpt lat="45.26666" lon="0.1333">
        <ele>90</ele>
        <time>2014-04-06T07:54:57Z</time>
      </trkpt>
      <trkpt lat="45.26666" lon="0.13337">
        <ele>90</ele>
        <time>2014-04-06T07:54:58Z</time>
      </trkpt>
      <trkpt lat="45.26658" lon="0.13366">
        <ele>92</ele>
        <time>2014-04-06T07:55:03Z</time>
      </trkpt>
      <trkpt lat="45.26655" lon="0.13371">
        <ele>92</ele>
        <time>2014-04-06T07:55:04Z</time>
      </trkpt>
      <trkpt lat="45.26643" lon="0.13389">
        <ele>92</ele>
        <time>2014-04-06T07:55:08Z</time>
      </trkpt>
      <trkpt lat="45.26494" lon="0.13551">
        <ele>98</ele>
        <time>2014-04-06T07:55:56Z</time>
      </trkpt>
      <trkpt lat="45.26457" lon="0.13577">
        <ele>98</ele>
        <time>2014-04-06T07:56:07Z</time>
      </trkpt>
      <trkpt lat="45.26446" lon="0.13589">
        <ele>99</ele>
        <time>2014-04-06T07:56:10Z</time>
      </trkpt>
      <trkpt lat="45.26428" lon="0.13625">
        <ele>99</ele>
        <time>2014-04-06T07:56:16Z</time>
      </trkpt>
      <trkpt lat="45.26312" lon="0.13939">
        <ele>101</ele>
        <time>2014-04-06T07:57:05Z</time>
      </trkpt>
      <trkpt lat="45.26309" lon="0.13952">
        <ele>100</ele>
        <time>2014-04-06T07:57:07Z</time>
      </trkpt>
      <trkpt lat="45.26312" lon="0.13965">
        <ele>100</ele>
        <time>2014-04-06T07:57:09Z</time>
      </trkpt>
      <trkpt lat="45.26359" lon="0.14024">
        <ele>103</ele>
        <time>2014-04-06T07:57:22Z</time>
      </trkpt>
      <trkpt lat="45.26396" lon="0.14061">
        <ele>103</ele>
        <time>2014-04-06T07:57:31Z</time>
      </trkpt>
      <trkpt lat="45.26444" lon="0.14099">
        <ele>104</ele>
        <time>2014-04-06T07:57:41Z</time>
      </trkpt>
      <trkpt lat="45.26458" lon="0.14132">
        <ele>104</ele>
        <time>2014-04-06T07:57:46Z</time>
      </trkpt>
      <trkpt lat="45.26471" lon="0.14189">
        <ele>101</ele>
        <time>2014-04-06T07:57:54Z</time>
      </trkpt>
      <trkpt lat="45.26477" lon="0.14202">
        <ele>101</ele>
        <time>2014-04-06T07:57:56Z</time>
      </trkpt>
      <trkpt lat="45.26569" lon="0.14361">
        <ele>102</ele>
        <time>2014-04-06T07:58:23Z</time>
      </trkpt>
      <trkpt lat="45.26577" lon="0.14381">
        <ele>102</ele>
        <time>2014-04-06T07:58:26Z</time>
      </trkpt>
      <trkpt lat="45.2659" lon="0.14447">
        <ele>105</ele>
        <time>2014-04-06T07:58:35Z</time>
      </trkpt>
      <trkpt lat="45.26598" lon="0.14506">
        <ele>106</ele>
        <time>2014-04-06T07:58:44Z</time>
      </trkpt>
      <trkpt lat="45.26611" lon="0.14553">
        <ele>107</ele>
        <time>2014-04-06T07:58:52Z</time>
      </trkpt>
      <trkpt lat="45.26677" lon="0.14709">
        <ele>113</ele>
        <time>2014-04-06T07:59:21Z</time>
      </trkpt>
      <trkpt lat="45.26685" lon="0.14744">
        <ele>114</ele>
        <time>2014-04-06T07:59:27Z</time>
      </trkpt>
      <trkpt lat="45.26722" lon="0.15038">
        <ele>108</ele>
        <time>2014-04-06T08:00:02Z</time>
      </trkpt>
      <trkpt lat="45.26751" lon="0.15123">
        <ele>111</ele>
        <time>2014-04-06T08:00:11Z</time>
      </trkpt>
      <trkpt lat="45.2676" lon="0.15169">
        <ele>108</ele>
        <time>2014-04-06T08:00:16Z</time>
      </trkpt>
      <trkpt lat="45.26757" lon="0.15183">
        <ele>108</ele>
        <time>2014-04-06T08:00:18Z</time>
      </trkpt>
      <trkpt lat="45.26753" lon="0.15188">
        <ele>108</ele>
        <time>2014-04-06T08:00:19Z</time>
      </trkpt>
      <trkpt lat="45.26742" lon="0.15195">
        <ele>105</ele>
        <time>2014-04-06T08:00:21Z</time>
      </trkpt>
      <trkpt lat="45.26736" lon="0.15199">
        <ele>104</ele>
        <time>2014-04-06T08:00:22Z</time>
      </trkpt>
      <trkpt lat="45.26718" lon="0.15217">
        <ele>104</ele>
        <time>2014-04-06T08:00:25Z</time>
      </trkpt>
      <trkpt lat="45.26704" lon="0.15229">
        <ele>103</ele>
        <time>2014-04-06T08:00:27Z</time>
      </trkpt>
      <trkpt lat="45.26687" lon="0.15232">
        <ele>102</ele>
        <time>2014-04-06T08:00:29Z</time>
      </trkpt>
      <trkpt lat="45.26649" lon="0.15224">
        <ele>97</ele>
        <time>2014-04-06T08:00:33Z</time>
      </trkpt>
      <trkpt lat="45.26606" lon="0.15203">
        <ele>95</ele>
        <time>2014-04-06T08:00:38Z</time>
      </trkpt>
      <trkpt lat="45.26576" lon="0.15186">
        <ele>91</ele>
        <time>2014-04-06T08:00:42Z</time>
      </trkpt>
      <trkpt lat="45.26492" lon="0.15154">
        <ele>87</ele>
        <time>2014-04-06T08:00:55Z</time>
      </trkpt>
      <trkpt lat="45.26485" lon="0.15155">
        <ele>86</ele>
        <time>2014-04-06T08:00:56Z</time>
      </trkpt>
      <trkpt lat="45.26471" lon="0.15161">
        <ele>86</ele>
        <time>2014-04-06T08:00:58Z</time>
      </trkpt>
      <trkpt lat="45.26451" lon="0.15178">
        <ele>87</ele>
        <time>2014-04-06T08:01:01Z</time>
      </trkpt>
      <trkpt lat="45.26427" lon="0.152">
        <ele>87</ele>
        <time>2014-04-06T08:01:05Z</time>
      </trkpt>
      <trkpt lat="45.26379" lon="0.15255">
        <ele>85</ele>
        <time>2014-04-06T08:01:14Z</time>
      </trkpt>
      <trkpt lat="45.26323" lon="0.15349">
        <ele>81</ele>
        <time>2014-04-06T08:01:26Z</time>
      </trkpt>
      <trkpt lat="45.26317" lon="0.15353">
        <ele>81</ele>
        <time>2014-04-06T08:01:28Z</time>
      </trkpt>
      <trkpt lat="45.26314" lon="0.15351">
        <ele>81</ele>
        <time>2014-04-06T08:01:29Z</time>
      </trkpt>
      <trkpt lat="45.26311" lon="0.15347">
        <ele>81</ele>
        <time>2014-04-06T08:01:30Z</time>
      </trkpt>
      <trkpt lat="45.26305" lon="0.15337">
        <ele>81</ele>
        <time>2014-04-06T08:01:32Z</time>
      </trkpt>
      <trkpt lat="45.26283" lon="0.15307">
        <ele>81</ele>
        <time>2014-04-06T08:01:37Z</time>
      </trkpt>
      <trkpt lat="45.26245" lon="0.15271">
        <ele>76</ele>
        <time>2014-04-06T08:01:43Z</time>
      </trkpt>
      <trkpt lat="45.2624" lon="0.15263">
        <ele>76</ele>
        <time>2014-04-06T08:01:44Z</time>
      </trkpt>
      <trkpt lat="45.26238" lon="0.15254">
        <ele>76</ele>
        <time>2014-04-06T08:01:45Z</time>
      </trkpt>
      <trkpt lat="45.26235" lon="0.15238">
        <ele>74</ele>
        <time>2014-04-06T08:01:47Z</time>
      </trkpt>
      <trkpt lat="45.26231" lon="0.15233">
        <ele>73</ele>
        <time>2014-04-06T08:01:48Z</time>
      </trkpt>
      <trkpt lat="45.26226" lon="0.15231">
        <ele>73</ele>
        <time>2014-04-06T08:01:49Z</time>
      </trkpt>
      <trkpt lat="45.26219" lon="0.15231">
        <ele>73</ele>
        <time>2014-04-06T08:01:50Z</time>
      </trkpt>
      <trkpt lat="45.26198" lon="0.15236">
        <ele>71</ele>
        <time>2014-04-06T08:01:53Z</time>
      </trkpt>
      <trkpt lat="45.26182" lon="0.15241">
        <ele>70</ele>
        <time>2014-04-06T08:01:55Z</time>
      </trkpt>
      <trkpt lat="45.2615" lon="0.15257">
        <ele>69</ele>
        <time>2014-04-06T08:01:59Z</time>
      </trkpt>
      <trkpt lat="45.26093" lon="0.15293">
        <ele>68</ele>
        <time>2014-04-06T08:02:06Z</time>
      </trkpt>
      <trkpt lat="45.26078" lon="0.15299">
        <ele>66</ele>
        <time>2014-04-06T08:02:08Z</time>
      </trkpt>
      <trkpt lat="45.26063" lon="0.15296">
        <ele>65</ele>
        <time>2014-04-06T08:02:10Z</time>
      </trkpt>
      <trkpt lat="45.26049" lon="0.1528">
        <ele>65</ele>
        <time>2014-04-06T08:02:12Z</time>
      </trkpt>
      <trkpt lat="45.26037" lon="0.15259">
        <ele>65</ele>
        <time>2014-04-06T08:02:14Z</time>
      </trkpt>
      <trkpt lat="45.26032" lon="0.15248">
        <ele>64</ele>
        <time>2014-04-06T08:02:15Z</time>
      </trkpt>
      <trkpt lat="45.25969" lon="0.15069">
        <ele>67</ele>
        <time>2014-04-06T08:02:37Z</time>
      </trkpt>
      <trkpt lat="45.25957" lon="0.15042">
        <ele>67</ele>
        <time>2014-04-06T08:02:42Z</time>
      </trkpt>
      <trkpt lat="45.25953" lon="0.15039">
        <ele>68</ele>
        <time>2014-04-06T08:02:43Z</time>
      </trkpt>
      <trkpt lat="45.2595" lon="0.15039">
        <ele>68</ele>
        <time>2014-04-06T08:02:44Z</time>
      </trkpt>
      <trkpt lat="45.25938" lon="0.15046">
        <ele>68</ele>
        <time>2014-04-06T08:02:47Z</time>
      </trkpt>
      <trkpt lat="45.25934" lon="0.15049">
        <ele>68</ele>
        <time>2014-04-06T08:02:48Z</time>
      </trkpt>
      <trkpt lat="45.25899" lon="0.15094">
        <ele>69</ele>
        <time>2014-04-06T08:03:01Z</time>
      </trkpt>
      <trkpt lat="45.25877" lon="0.15109">
        <ele>70</ele>
        <time>2014-04-06T08:03:08Z</time>
      </trkpt>
      <trkpt lat="45.25824" lon="0.15133">
        <ele>72</ele>
        <time>2014-04-06T08:03:23Z</time>
      </trkpt>
      <trkpt lat="45.25812" lon="0.15125">
        <ele>72</ele>
        <time>2014-04-06T08:03:26Z</time>
      </trkpt>
      <trkpt lat="45.2574" lon="0.14881">
        <ele>78</ele>
        <time>2014-04-06T08:04:11Z</time>
      </trkpt>
      <trkpt lat="45.25725" lon="0.14846">
        <ele>78</ele>
        <time>2014-04-06T08:04:18Z</time>
      </trkpt>
      <trkpt lat="45.25723" lon="0.14841">
        <ele>78</ele>
        <time>2014-04-06T08:04:19Z</time>
      </trkpt>
      <trkpt lat="45.25706" lon="0.14819">
        <ele>76</ele>
        <time>2014-04-06T08:04:24Z</time>
      </trkpt>
      <trkpt lat="45.25702" lon="0.14818">
        <ele>76</ele>
        <time>2014-04-06T08:04:25Z</time>
      </trkpt>
      <trkpt lat="45.25692" lon="0.14826">
        <ele>76</ele>
        <time>2014-04-06T08:04:27Z</time>
      </trkpt>
      <trkpt lat="45.25689" lon="0.14829">
        <ele>76</ele>
        <time>2014-04-06T08:04:28Z</time>
      </trkpt>
      <trkpt lat="45.25683" lon="0.14834">
        <ele>76</ele>
        <time>2014-04-06T08:04:30Z</time>
      </trkpt>
      <trkpt lat="45.25681" lon="0.14835">
        <ele>76</ele>
        <time>2014-04-06T08:04:31Z</time>
      </trkpt>
      <trkpt lat="45.25672" lon="0.14834">
        <ele>75</ele>
        <time>2014-04-06T08:04:34Z</time>
      </trkpt>
      <trkpt lat="45.25668" lon="0.14834">
        <ele>75</ele>
        <time>2014-04-06T08:04:35Z</time>
      </trkpt>
      <trkpt lat="45.25663" lon="0.14832">
        <ele>74</ele>
        <time>2014-04-06T08:04:36Z</time>
      </trkpt>
      <trkpt lat="45.25601" lon="0.14798">
        <ele>71</ele>
        <time>2014-04-06T08:04:47Z</time>
      </trkpt>
      <trkpt lat="45.2558" lon="0.14791">
        <ele>69</ele>
        <time>2014-04-06T08:04:50Z</time>
      </trkpt>
      <trkpt lat="45.25572" lon="0.1479">
        <ele>69</ele>
        <time>2014-04-06T08:04:51Z</time>
      </trkpt>
      <trkpt lat="45.25522" lon="0.1479">
        <ele>68</ele>
        <time>2014-04-06T08:04:57Z</time>
      </trkpt>
      <trkpt lat="45.2548" lon="0.14794">
        <ele>65</ele>
        <time>2014-04-06T08:05:02Z</time>
      </trkpt>
      <trkpt lat="45.25475" lon="0.14794">
        <ele>65</ele>
        <time>2014-04-06T08:05:03Z</time>
      </trkpt>
      <trkpt lat="45.25468" lon="0.14786">
        <ele>64</ele>
        <time>2014-04-06T08:05:05Z</time>
      </trkpt>
      <trkpt lat="45.25462" lon="0.14772">
        <ele>63</ele>
        <time>2014-04-06T08:05:07Z</time>
      </trkpt>
      <trkpt lat="45.25462" lon="0.14761">
        <ele>63</ele>
        <time>2014-04-06T08:05:08Z</time>
      </trkpt>
      <trkpt lat="45.25453" lon="0.14659">
        <ele>62</ele>
        <time>2014-04-06T08:05:19Z</time>
      </trkpt>
      <trkpt lat="45.25471" lon="0.1455">
        <ele>67</ele>
        <time>2014-04-06T08:05:36Z</time>
      </trkpt>
      <trkpt lat="45.25472" lon="0.14535">
        <ele>67</ele>
        <time>2014-04-06T08:05:39Z</time>
      </trkpt>
      <trkpt lat="45.25468" lon="0.14524">
        <ele>67</ele>
        <time>2014-04-06T08:05:42Z</time>
      </trkpt>
      <trkpt lat="45.25466" lon="0.14521">
        <ele>67</ele>
        <time>2014-04-06T08:05:43Z</time>
      </trkpt>
      <trkpt lat="45.25463" lon="0.1452">
        <ele>67</ele>
        <time>2014-04-06T08:05:44Z</time>
      </trkpt>
      <trkpt lat="45.25454" lon="0.14518">
        <ele>67</ele>
        <time>2014-04-06T08:05:47Z</time>
      </trkpt>
      <trkpt lat="45.2545" lon="0.14518">
        <ele>67</ele>
        <time>2014-04-06T08:05:48Z</time>
      </trkpt>
      <trkpt lat="45.25432" lon="0.14514">
        <ele>68</ele>
        <time>2014-04-06T08:05:52Z</time>
      </trkpt>
      <trkpt lat="45.25403" lon="0.14495">
        <ele>69</ele>
        <time>2014-04-06T08:05:58Z</time>
      </trkpt>
      <trkpt lat="45.25369" lon="0.14459">
        <ele>68</ele>
        <time>2014-04-06T08:06:06Z</time>
      </trkpt>
      <trkpt lat="45.25288" lon="0.14319">
        <ele>66</ele>
        <time>2014-04-06T08:06:30Z</time>
      </trkpt>
      <trkpt lat="45.25271" lon="0.143">
        <ele>66</ele>
        <time>2014-04-06T08:06:33Z</time>
      </trkpt>
      <trkpt lat="45.25262" lon="0.14291">
        <ele>66</ele>
        <time>2014-04-06T08:06:35Z</time>
      </trkpt>
      <trkpt lat="45.25259" lon="0.1429">
        <ele>66</ele>
        <time>2014-04-06T08:06:36Z</time>
      </trkpt>
      <trkpt lat="45.25251" lon="0.14292">
        <ele>66</ele>
        <time>2014-04-06T08:06:38Z</time>
      </trkpt>
      <trkpt lat="45.25203" lon="0.14384">
        <ele>65</ele>
        <time>2014-04-06T08:06:56Z</time>
      </trkpt>
      <trkpt lat="45.25187" lon="0.14398">
        <ele>65</ele>
        <time>2014-04-06T08:07:02Z</time>
      </trkpt>
      <trkpt lat="45.25178" lon="0.14399">
        <ele>65</ele>
        <time>2014-04-06T08:07:05Z</time>
      </trkpt>
      <trkpt lat="45.25168" lon="0.14397">
        <ele>65</ele>
        <time>2014-04-06T08:07:08Z</time>
      </trkpt>
      <trkpt lat="45.25144" lon="0.14381">
        <ele>66</ele>
        <time>2014-04-06T08:07:16Z</time>
      </trkpt>
      <trkpt lat="45.25136" lon="0.14377">
        <ele>66</ele>
        <time>2014-04-06T08:07:18Z</time>
      </trkpt>
      <trkpt lat="45.2512" lon="0.14379">
        <ele>65</ele>
        <time>2014-04-06T08:07:21Z</time>
      </trkpt>
      <trkpt lat="45.25114" lon="0.14383">
        <ele>65</ele>
        <time>2014-04-06T08:07:22Z</time>
      </trkpt>
      <trkpt lat="45.25064" lon="0.14435">
        <ele>62</ele>
        <time>2014-04-06T08:07:31Z</time>
      </trkpt>
      <trkpt lat="45.25058" lon="0.14445">
        <ele>62</ele>
        <time>2014-04-06T08:07:33Z</time>
      </trkpt>
      <trkpt lat="45.25056" lon="0.14457">
        <ele>62</ele>
        <time>2014-04-06T08:07:35Z</time>
      </trkpt>
      <trkpt lat="45.25058" lon="0.14465">
        <ele>62</ele>
        <time>2014-04-06T08:07:36Z</time>
      </trkpt>
      <trkpt lat="45.25062" lon="0.14482">
        <ele>62</ele>
        <time>2014-04-06T08:07:38Z</time>
      </trkpt>
      <trkpt lat="45.25067" lon="0.14508">
        <ele>61</ele>
        <time>2014-04-06T08:07:41Z</time>
      </trkpt>
      <trkpt lat="45.2506" lon="0.14532">
        <ele>62</ele>
        <time>2014-04-06T08:07:44Z</time>
      </trkpt>
      <trkpt lat="45.25046" lon="0.14547">
        <ele>62</ele>
        <time>2014-04-06T08:07:47Z</time>
      </trkpt>
      <trkpt lat="45.25032" lon="0.14569">
        <ele>64</ele>
        <time>2014-04-06T08:07:51Z</time>
      </trkpt>
      <trkpt lat="45.25028" lon="0.14571">
        <ele>64</ele>
        <time>2014-04-06T08:07:52Z</time>
      </trkpt>
      <trkpt lat="45.25022" lon="0.14567">
        <ele>64</ele>
        <time>2014-04-06T08:07:55Z</time>
      </trkpt>
      <trkpt lat="45.25019" lon="0.14564">
        <ele>64</ele>
        <time>2014-04-06T08:07:57Z</time>
      </trkpt>
      <trkpt lat="45.25017" lon="0.14561">
        <ele>64</ele>
        <time>2014-04-06T08:07:59Z</time>
      </trkpt>
      <trkpt lat="45.25014" lon="0.14558">
        <ele>64</ele>
        <time>2014-04-06T08:08:01Z</time>
      </trkpt>
      <trkpt lat="45.25013" lon="0.14557">
        <ele>64</ele>
        <time>2014-04-06T08:08:02Z</time>
      </trkpt>
      <trkpt lat="45.2501" lon="0.14552">
        <ele>64</ele>
        <time>2014-04-06T08:08:05Z</time>
      </trkpt>
      <trkpt lat="45.25006" lon="0.14542">
        <ele>64</ele>
        <time>2014-04-06T08:08:09Z</time>
      </trkpt>
      <trkpt lat="45.24996" lon="0.14503">
        <ele>67</ele>
        <time>2014-04-06T08:08:21Z</time>
      </trkpt>
      <trkpt lat="45.24987" lon="0.14483">
        <ele>68</ele>
        <time>2014-04-06T08:08:26Z</time>
      </trkpt>
      <trkpt lat="45.24977" lon="0.14477">
        <ele>68</ele>
        <time>2014-04-06T08:08:30Z</time>
      </trkpt>
      <trkpt lat="45.24967" lon="0.1448">
        <ele>69</ele>
        <time>2014-04-06T08:08:35Z</time>
      </trkpt>
      <trkpt lat="45.24959" lon="0.14486">
        <ele>70</ele>
        <time>2014-04-06T08:08:43Z</time>
      </trkpt>
      <trkpt lat="45.24957" lon="0.14488">
        <ele>70</ele>
        <time>2014-04-06T08:08:45Z</time>
      </trkpt>
      <trkpt lat="45.2495" lon="0.14492">
        <ele>71</ele>
        <time>2014-04-06T08:08:51Z</time>
      </trkpt>
      <trkpt lat="45.24946" lon="0.14495">
        <ele>71</ele>
        <time>2014-04-06T08:08:54Z</time>
      </trkpt>
      <trkpt lat="45.24943" lon="0.14497">
        <ele>72</ele>
        <time>2014-04-06T08:08:57Z</time>
      </trkpt>
      <trkpt lat="45.24938" lon="0.14499">
        <ele>72</ele>
        <time>2014-04-06T08:09:01Z</time>
      </trkpt>
      <trkpt lat="45.24937" lon="0.14499">
        <ele>73</ele>
        <time>2014-04-06T08:09:02Z</time>
      </trkpt>
      <trkpt lat="45.24934" lon="0.14502">
        <ele>74</ele>
        <time>2014-04-06T08:09:05Z</time>
      </trkpt>
      <trkpt lat="45.24929" lon="0.14505">
        <ele>75</ele>
        <time>2014-04-06T08:09:09Z</time>
      </trkpt>
      <trkpt lat="45.24924" lon="0.14506">
        <ele>75</ele>
        <time>2014-04-06T08:09:13Z</time>
      </trkpt>
      <trkpt lat="45.24923" lon="0.14506">
        <ele>75</ele>
        <time>2014-04-06T08:09:14Z</time>
      </trkpt>
      <trkpt lat="45.24919" lon="0.14506">
        <ele>76</ele>
        <time>2014-04-06T08:09:17Z</time>
      </trkpt>
      <trkpt lat="45.24914" lon="0.14502">
        <ele>77</ele>
        <time>2014-04-06T08:09:20Z</time>
      </trkpt>
      <trkpt lat="45.24908" lon="0.14496">
        <ele>77</ele>
        <time>2014-04-06T08:09:24Z</time>
      </trkpt>
      <trkpt lat="45.24903" lon="0.14485">
        <ele>76</ele>
        <time>2014-04-06T08:09:28Z</time>
      </trkpt>
      <trkpt lat="45.24892" lon="0.14456">
        <ele>76</ele>
        <time>2014-04-06T08:09:37Z</time>
      </trkpt>
      <trkpt lat="45.24878" lon="0.14432">
        <ele>76</ele>
        <time>2014-04-06T08:09:44Z</time>
      </trkpt>
      <trkpt lat="45.24855" lon="0.14364">
        <ele>78</ele>
        <time>2014-04-06T08:10:16Z</time>
      </trkpt>
      <trkpt lat="45.24852" lon="0.14359">
        <ele>79</ele>
        <time>2014-04-06T08:10:19Z</time>
      </trkpt>
      <trkpt lat="45.24844" lon="0.14352">
        <ele>80</ele>
        <time>2014-04-06T08:10:24Z</time>
      </trkpt>
      <trkpt lat="45.24836" lon="0.14351">
        <ele>81</ele>
        <time>2014-04-06T08:10:29Z</time>
      </trkpt>
      <trkpt lat="45.24832" lon="0.14353">
        <ele>85</ele>
        <time>2014-04-06T08:10:31Z</time>
      </trkpt>
      <trkpt lat="45.24816" lon="0.14355">
        <ele>85</ele>
        <time>2014-04-06T08:10:36Z</time>
      </trkpt>
      <trkpt lat="45.24733" lon="0.14386">
        <ele>85</ele>
        <time>2014-04-06T08:10:55Z</time>
      </trkpt>
      <trkpt lat="45.2473" lon="0.14386">
        <ele>85</ele>
        <time>2014-04-06T08:10:56Z</time>
      </trkpt>
      <trkpt lat="45.24717" lon="0.14379">
        <ele>85</ele>
        <time>2014-04-06T08:11:01Z</time>
      </trkpt>
      <trkpt lat="45.24716" lon="0.14376">
        <ele>85</ele>
        <time>2014-04-06T08:11:02Z</time>
      </trkpt>
      <trkpt lat="45.24707" lon="0.14355">
        <ele>86</ele>
        <time>2014-04-06T08:11:08Z</time>
      </trkpt>
      <trkpt lat="45.24673" lon="0.142">
        <ele>90</ele>
        <time>2014-04-06T08:11:38Z</time>
      </trkpt>
      <trkpt lat="45.24641" lon="0.14103">
        <ele>89</ele>
        <time>2014-04-06T08:12:01Z</time>
      </trkpt>
      <trkpt lat="45.2464" lon="0.14078">
        <ele>91</ele>
        <time>2014-04-06T08:12:06Z</time>
      </trkpt>
      <trkpt lat="45.24645" lon="0.14064">
        <ele>91</ele>
        <time>2014-04-06T08:12:10Z</time>
      </trkpt>
      <trkpt lat="45.24673" lon="0.14054">
        <ele>89</ele>
        <time>2014-04-06T08:12:16Z</time>
      </trkpt>
      <trkpt lat="45.24723" lon="0.14037">
        <ele>87</ele>
        <time>2014-04-06T08:12:22Z</time>
      </trkpt>
      <trkpt lat="45.24739" lon="0.1403">
        <ele>86</ele>
        <time>2014-04-06T08:12:24Z</time>
      </trkpt>
      <trkpt lat="45.24745" lon="0.14023">
        <ele>86</ele>
        <time>2014-04-06T08:12:25Z</time>
      </trkpt>
      <trkpt lat="45.24749" lon="0.14015">
        <ele>85</ele>
        <time>2014-04-06T08:12:26Z</time>
      </trkpt>
      <trkpt lat="45.24816" lon="0.13741">
        <ele>90</ele>
        <time>2014-04-06T08:13:08Z</time>
      </trkpt>
      <trkpt lat="45.24833" lon="0.13698">
        <ele>93</ele>
        <time>2014-04-06T08:13:24Z</time>
      </trkpt>
      <trkpt lat="45.24838" lon="0.13687">
        <ele>91</ele>
        <time>2014-04-06T08:13:28Z</time>
      </trkpt>
      <trkpt lat="45.24846" lon="0.1368">
        <ele>91</ele>
        <time>2014-04-06T08:13:32Z</time>
      </trkpt>
      <trkpt lat="45.24849" lon="0.1368">
        <ele>91</ele>
        <time>2014-04-06T08:13:33Z</time>
      </trkpt>
      <trkpt lat="45.24865" lon="0.13674">
        <ele>90</ele>
        <time>2014-04-06T08:13:36Z</time>
      </trkpt>
      <trkpt lat="45.24873" lon="0.13673">
        <ele>90</ele>
        <time>2014-04-06T08:13:37Z</time>
      </trkpt>
      <trkpt lat="45.24947" lon="0.13649">
        <ele>89</ele>
        <time>2014-04-06T08:13:48Z</time>
      </trkpt>
      <trkpt lat="45.24957" lon="0.13644">
        <ele>89</ele>
        <time>2014-04-06T08:13:52Z</time>
      </trkpt>
      <trkpt lat="45.24958" lon="0.13641">
        <ele>89</ele>
        <time>2014-04-06T08:13:53Z</time>
      </trkpt>
      <trkpt lat="45.24958" lon="0.13629">
        <ele>90</ele>
        <time>2014-04-06T08:13:56Z</time>
      </trkpt>
      <trkpt lat="45.2496" lon="0.13618">
        <ele>90</ele>
        <time>2014-04-06T08:13:59Z</time>
      </trkpt>
      <trkpt lat="45.24953" lon="0.13592">
        <ele>91</ele>
        <time>2014-04-06T08:14:06Z</time>
      </trkpt>
      <trkpt lat="45.24935" lon="0.13542">
        <ele>97</ele>
        <time>2014-04-06T08:14:26Z</time>
      </trkpt>
      <trkpt lat="45.24931" lon="0.13532">
        <ele>98</ele>
        <time>2014-04-06T08:14:32Z</time>
      </trkpt>
      <trkpt lat="45.24904" lon="0.13501">
        <ele>104</ele>
        <time>2014-04-06T08:14:59Z</time>
      </trkpt>
      <trkpt lat="45.24896" lon="0.13496">
        <ele>109</ele>
        <time>2014-04-06T08:15:04Z</time>
      </trkpt>
      <trkpt lat="45.24884" lon="0.13491">
        <ele>111</ele>
        <time>2014-04-06T08:15:13Z</time>
      </trkpt>
      <trkpt lat="45.24883" lon="0.1349">
        <ele>111</ele>
        <time>2014-04-06T08:15:14Z</time>
      </trkpt>
      <trkpt lat="45.2488" lon="0.13486">
        <ele>112</ele>
        <time>2014-04-06T08:15:17Z</time>
      </trkpt>
      <trkpt lat="45.24877" lon="0.13477">
        <ele>112</ele>
        <time>2014-04-06T08:15:22Z</time>
      </trkpt>
      <trkpt lat="45.24877" lon="0.13475">
        <ele>113</ele>
        <time>2014-04-06T08:15:23Z</time>
      </trkpt>
      <trkpt lat="45.24876" lon="0.1343">
        <ele>116</ele>
        <time>2014-04-06T08:15:52Z</time>
      </trkpt>
      <trkpt lat="45.24874" lon="0.13422">
        <ele>116</ele>
        <time>2014-04-06T08:15:57Z</time>
      </trkpt>
      <trkpt lat="45.24873" lon="0.13415">
        <ele>124</ele>
        <time>2014-04-06T08:16:02Z</time>
      </trkpt>
      <trkpt lat="45.24873" lon="0.13404">
        <ele>125</ele>
        <time>2014-04-06T08:16:08Z</time>
      </trkpt>
      <trkpt lat="45.24872" lon="0.13402">
        <ele>125</ele>
        <time>2014-04-06T08:16:09Z</time>
      </trkpt>
      <trkpt lat="45.24873" lon="0.13392">
        <ele>125</ele>
        <time>2014-04-06T08:16:14Z</time>
      </trkpt>
      <trkpt lat="45.24871" lon="0.13366">
        <ele>127</ele>
        <time>2014-04-06T08:16:28Z</time>
      </trkpt>
      <trkpt lat="45.24877" lon="0.13338">
        <ele>128</ele>
        <time>2014-04-06T08:16:42Z</time>
      </trkpt>
      <trkpt lat="45.24877" lon="0.13336">
        <ele>128</ele>
        <time>2014-04-06T08:16:44Z</time>
      </trkpt>
      <trkpt lat="45.24881" lon="0.13305">
        <ele>133</ele>
        <time>2014-04-06T08:17:06Z</time>
      </trkpt>
      <trkpt lat="45.24899" lon="0.13268">
        <ele>133</ele>
        <time>2014-04-06T08:17:24Z</time>
      </trkpt>
      <trkpt lat="45.24957" lon="0.1319">
        <ele>126</ele>
        <time>2014-04-06T08:17:41Z</time>
      </trkpt>
      <trkpt lat="45.24959" lon="0.13183">
        <ele>126</ele>
        <time>2014-04-06T08:17:42Z</time>
      </trkpt>
      <trkpt lat="45.24961" lon="0.13156">
        <ele>122</ele>
        <time>2014-04-06T08:17:45Z</time>
      </trkpt>
      <trkpt lat="45.24963" lon="0.13123">
        <ele>121</ele>
        <time>2014-04-06T08:17:49Z</time>
      </trkpt>
      <trkpt lat="45.24961" lon="0.13118">
        <ele>121</ele>
        <time>2014-04-06T08:17:50Z</time>
      </trkpt>
      <trkpt lat="45.24955" lon="0.13114">
        <ele>120</ele>
        <time>2014-04-06T08:17:52Z</time>
      </trkpt>
      <trkpt lat="45.24899" lon="0.13095">
        <ele>120</ele>
        <time>2014-04-06T08:18:04Z</time>
      </trkpt>
      <trkpt lat="45.24891" lon="0.13094">
        <ele>120</ele>
        <time>2014-04-06T08:18:06Z</time>
      </trkpt>
      <trkpt lat="45.24888" lon="0.13093">
        <ele>121</ele>
        <time>2014-04-06T08:18:07Z</time>
      </trkpt>
      <trkpt lat="45.24872" lon="0.1309">
        <ele>121</ele>
        <time>2014-04-06T08:18:11Z</time>
      </trkpt>
      <trkpt lat="45.24832" lon="0.1309">
        <ele>121</ele>
        <time>2014-04-06T08:18:21Z</time>
      </trkpt>
      <trkpt lat="45.24707" lon="0.13102">
        <ele>115</ele>
        <time>2014-04-06T08:18:45Z</time>
      </trkpt>
      <trkpt lat="45.24676" lon="0.1311">
        <ele>113</ele>
        <time>2014-04-06T08:18:51Z</time>
      </trkpt>
      <trkpt lat="45.24635" lon="0.1313">
        <ele>110</ele>
        <time>2014-04-06T08:18:59Z</time>
      </trkpt>
      <trkpt lat="45.24625" lon="0.13137">
        <ele>109</ele>
        <time>2014-04-06T08:19:01Z</time>
      </trkpt>
      <trkpt lat="45.24601" lon="0.13161">
        <ele>109</ele>
        <time>2014-04-06T08:19:06Z</time>
      </trkpt>
      <trkpt lat="45.24577" lon="0.13199">
        <ele>106</ele>
        <time>2014-04-06T08:19:12Z</time>
      </trkpt>
      <trkpt lat="45.2454" lon="0.13269">
        <ele>106</ele>
        <time>2014-04-06T08:19:23Z</time>
      </trkpt>
      <trkpt lat="45.24528" lon="0.13287">
        <ele>105</ele>
        <time>2014-04-06T08:19:26Z</time>
      </trkpt>
      <trkpt lat="45.24407" lon="0.13431">
        <ele>104</ele>
        <time>2014-04-06T08:20:04Z</time>
      </trkpt>
      <trkpt lat="45.24405" lon="0.13433">
        <ele>104</ele>
        <time>2014-04-06T08:20:05Z</time>
      </trkpt>
      <trkpt lat="45.24384" lon="0.13452">
        <ele>105</ele>
        <time>2014-04-06T08:20:13Z</time>
      </trkpt>
      <trkpt lat="45.24368" lon="0.13463">
        <ele>106</ele>
        <time>2014-04-06T08:20:18Z</time>
      </trkpt>
      <trkpt lat="45.24351" lon="0.13471">
        <ele>106</ele>
        <time>2014-04-06T08:20:23Z</time>
      </trkpt>
      <trkpt lat="45.24319" lon="0.13478">
        <ele>106</ele>
        <time>2014-04-06T08:20:32Z</time>
      </trkpt>
      <trkpt lat="45.24242" lon="0.13473">
        <ele>104</ele>
        <time>2014-04-06T08:20:47Z</time>
      </trkpt>
      <trkpt lat="45.24112" lon="0.1348">
        <ele>98</ele>
        <time>2014-04-06T08:21:04Z</time>
      </trkpt>
      <trkpt lat="45.23934" lon="0.1356">
        <ele>99</ele>
        <time>2014-04-06T08:21:31Z</time>
      </trkpt>
      <trkpt lat="45.23927" lon="0.13561">
        <ele>99</ele>
        <time>2014-04-06T08:21:32Z</time>
      </trkpt>
      <trkpt lat="45.23908" lon="0.13559">
        <ele>100</ele>
        <time>2014-04-06T08:21:35Z</time>
      </trkpt>
      <trkpt lat="45.2387" lon="0.13546">
        <ele>100</ele>
        <time>2014-04-06T08:21:42Z</time>
      </trkpt>
      <trkpt lat="45.23826" lon="0.13526">
        <ele>101</ele>
        <time>2014-04-06T08:21:51Z</time>
      </trkpt>
      <trkpt lat="45.23796" lon="0.13501">
        <ele>100</ele>
        <time>2014-04-06T08:21:57Z</time>
      </trkpt>
      <trkpt lat="45.23723" lon="0.13429">
        <ele>97</ele>
        <time>2014-04-06T08:22:12Z</time>
      </trkpt>
      <trkpt lat="45.23684" lon="0.13396">
        <ele>96</ele>
        <time>2014-04-06T08:22:21Z</time>
      </trkpt>
      <trkpt lat="45.23658" lon="0.13366">
        <ele>94</ele>
        <time>2014-04-06T08:22:27Z</time>
      </trkpt>
      <trkpt lat="45.23586" lon="0.13256">
        <ele>94</ele>
        <time>2014-04-06T08:22:48Z</time>
      </trkpt>
      <trkpt lat="45.23563" lon="0.13237">
        <ele>97</ele>
        <time>2014-04-06T08:22:55Z</time>
      </trkpt>
      <trkpt lat="45.23504" lon="0.13197">
        <ele>100</ele>
        <time>2014-04-06T08:23:15Z</time>
      </trkpt>
      <trkpt lat="45.23462" lon="0.13176">
        <ele>105</ele>
        <time>2014-04-06T08:23:33Z</time>
      </trkpt>
      <trkpt lat="45.23414" lon="0.13161">
        <ele>113</ele>
        <time>2014-04-06T08:24:00Z</time>
      </trkpt>
      <trkpt lat="45.23413" lon="0.1316">
        <ele>113</ele>
        <time>2014-04-06T08:24:01Z</time>
      </trkpt>
      <trkpt lat="45.23405" lon="0.13152">
        <ele>114</ele>
        <time>2014-04-06T08:24:07Z</time>
      </trkpt>
      <trkpt lat="45.23393" lon="0.13146">
        <ele>115</ele>
        <time>2014-04-06T08:24:16Z</time>
      </trkpt>
      <trkpt lat="45.2339" lon="0.13145">
        <ele>115</ele>
        <time>2014-04-06T08:24:18Z</time>
      </trkpt>
      <trkpt lat="45.23349" lon="0.13121">
        <ele>116</ele>
        <time>2014-04-06T08:24:45Z</time>
      </trkpt>
      <trkpt lat="45.23329" lon="0.13107">
        <ele>116</ele>
        <time>2014-04-06T08:24:52Z</time>
      </trkpt>
      <trkpt lat="45.23291" lon="0.13065">
        <ele>119</ele>
        <time>2014-04-06T08:25:08Z</time>
      </trkpt>
      <trkpt lat="45.23266" lon="0.13022">
        <ele>120</ele>
        <time>2014-04-06T08:25:23Z</time>
      </trkpt>
      <trkpt lat="45.2325" lon="0.12969">
        <ele>122</ele>
        <time>2014-04-06T08:25:38Z</time>
      </trkpt>
      <trkpt lat="45.23253" lon="0.12927">
        <ele>123</ele>
        <time>2014-04-06T08:25:51Z</time>
      </trkpt>
      <trkpt lat="45.23218" lon="0.12675">
        <ele>117</ele>
        <time>2014-04-06T08:26:45Z</time>
      </trkpt>
      <trkpt lat="45.23193" lon="0.12592">
        <ele>112</ele>
        <time>2014-04-06T08:26:58Z</time>
      </trkpt>
      <trkpt lat="45.23185" lon="0.12574">
        <ele>108</ele>
        <time>2014-04-06T08:27:01Z</time>
      </trkpt>
      <trkpt lat="45.23174" lon="0.12559">
        <ele>108</ele>
        <time>2014-04-06T08:27:04Z</time>
      </trkpt>
      <trkpt lat="45.23156" lon="0.12538">
        <ele>104</ele>
        <time>2014-04-06T08:27:08Z</time>
      </trkpt>
      <trkpt lat="45.23153" lon="0.12526">
        <ele>104</ele>
        <time>2014-04-06T08:27:10Z</time>
      </trkpt>
      <trkpt lat="45.23159" lon="0.12501">
        <ele>104</ele>
        <time>2014-04-06T08:27:14Z</time>
      </trkpt>
      <trkpt lat="45.23163" lon="0.12489">
        <ele>103</ele>
        <time>2014-04-06T08:27:16Z</time>
      </trkpt>
      <trkpt lat="45.23174" lon="0.12472">
        <ele>102</ele>
        <time>2014-04-06T08:27:20Z</time>
      </trkpt>
      <trkpt lat="45.23184" lon="0.12462">
        <ele>102</ele>
        <time>2014-04-06T08:27:23Z</time>
      </trkpt>
      <trkpt lat="45.23188" lon="0.12451">
        <ele>101</ele>
        <time>2014-04-06T08:27:25Z</time>
      </trkpt>
      <trkpt lat="45.23181" lon="0.12437">
        <ele>102</ele>
        <time>2014-04-06T08:27:28Z</time>
      </trkpt>
      <trkpt lat="45.23177" lon="0.12435">
        <ele>102</ele>
        <time>2014-04-06T08:27:29Z</time>
      </trkpt>
      <trkpt lat="45.23127" lon="0.12417">
        <ele>100</ele>
        <time>2014-04-06T08:27:38Z</time>
      </trkpt>
      <trkpt lat="45.22905" lon="0.12349">
        <ele>73</ele>
        <time>2014-04-06T08:28:05Z</time>
      </trkpt>
      <trkpt lat="45.22898" lon="0.12346">
        <ele>73</ele>
        <time>2014-04-06T08:28:06Z</time>
      </trkpt>
      <trkpt lat="45.22892" lon="0.12342">
        <ele>72</ele>
        <time>2014-04-06T08:28:07Z</time>
      </trkpt>
      <trkpt lat="45.22887" lon="0.12336">
        <ele>72</ele>
        <time>2014-04-06T08:28:08Z</time>
      </trkpt>
      <trkpt lat="45.2288" lon="0.12321">
        <ele>71</ele>
        <time>2014-04-06T08:28:10Z</time>
      </trkpt>
      <trkpt lat="45.22865" lon="0.12258">
        <ele>70</ele>
        <time>2014-04-06T08:28:18Z</time>
      </trkpt>
      <trkpt lat="45.22858" lon="0.12125">
        <ele>65</ele>
        <time>2014-04-06T08:28:36Z</time>
      </trkpt>
      <trkpt lat="45.22849" lon="0.12087">
        <ele>63</ele>
        <time>2014-04-06T08:28:40Z</time>
      </trkpt>
      <trkpt lat="45.22851" lon="0.12065">
        <ele>60</ele>
        <time>2014-04-06T08:28:42Z</time>
      </trkpt>
      <trkpt lat="45.22879" lon="0.11904">
        <ele>61</ele>
        <time>2014-04-06T08:29:01Z</time>
      </trkpt>
      <trkpt lat="45.22882" lon="0.11898">
        <ele>61</ele>
        <time>2014-04-06T08:29:02Z</time>
      </trkpt>
      <trkpt lat="45.22894" lon="0.1189">
        <ele>62</ele>
        <time>2014-04-06T08:29:05Z</time>
      </trkpt>
      <trkpt lat="45.22926" lon="0.11887">
        <ele>63</ele>
        <time>2014-04-06T08:29:11Z</time>
      </trkpt>
      <trkpt lat="45.22936" lon="0.11884">
        <ele>64</ele>
        <time>2014-04-06T08:29:13Z</time>
      </trkpt>
      <trkpt lat="45.22943" lon="0.11874">
        <ele>64</ele>
        <time>2014-04-06T08:29:15Z</time>
      </trkpt>
      <trkpt lat="45.22957" lon="0.11738">
        <ele>73</ele>
        <time>2014-04-06T08:29:43Z</time>
      </trkpt>
      <trkpt lat="45.22958" lon="0.11734">
        <ele>73</ele>
        <time>2014-04-06T08:29:44Z</time>
      </trkpt>
      <trkpt lat="45.22966" lon="0.11719">
        <ele>73</ele>
        <time>2014-04-06T08:29:48Z</time>
      </trkpt>
      <trkpt lat="45.22971" lon="0.11714">
        <ele>73</ele>
        <time>2014-04-06T08:29:50Z</time>
      </trkpt>
      <trkpt lat="45.22982" lon="0.117">
        <ele>74</ele>
        <time>2014-04-06T08:29:55Z</time>
      </trkpt>
      <trkpt lat="45.22987" lon="0.11683">
        <ele>74</ele>
        <time>2014-04-06T08:30:00Z</time>
      </trkpt>
      <trkpt lat="45.22991" lon="0.11666">
        <ele>75</ele>
        <time>2014-04-06T08:30:06Z</time>
      </trkpt>
      <trkpt lat="45.23001" lon="0.11601">
        <ele>77</ele>
        <time>2014-04-06T08:30:31Z</time>
      </trkpt>
      <trkpt lat="45.22998" lon="0.11588">
        <ele>78</ele>
        <time>2014-04-06T08:30:35Z</time>
      </trkpt>
      <trkpt lat="45.22996" lon="0.11586">
        <ele>78</ele>
        <time>2014-04-06T08:30:36Z</time>
      </trkpt>
      <trkpt lat="45.22988" lon="0.11578">
        <ele>78</ele>
        <time>2014-04-06T08:30:40Z</time>
      </trkpt>
      <trkpt lat="45.22981" lon="0.11551">
        <ele>78</ele>
        <time>2014-04-06T08:30:47Z</time>
      </trkpt>
      <trkpt lat="45.2297" lon="0.11533">
        <ele>79</ele>
        <time>2014-04-06T08:30:52Z</time>
      </trkpt>
      <trkpt lat="45.22958" lon="0.1152">
        <ele>79</ele>
        <time>2014-04-06T08:30:56Z</time>
      </trkpt>
      <trkpt lat="45.22951" lon="0.11518">
        <ele>79</ele>
        <time>2014-04-06T08:30:58Z</time>
      </trkpt>
      <trkpt lat="45.22898" lon="0.11532">
        <ele>79</ele>
        <time>2014-04-06T08:31:14Z</time>
      </trkpt>
      <trkpt lat="45.22883" lon="0.11534">
        <ele>79</ele>
        <time>2014-04-06T08:31:19Z</time>
      </trkpt>
      <trkpt lat="45.2286" lon="0.11543">
        <ele>79</ele>
        <time>2014-04-06T08:31:26Z</time>
      </trkpt>
      <trkpt lat="45.22814" lon="0.11553">
        <ele>78</ele>
        <time>2014-04-06T08:31:38Z</time>
      </trkpt>
      <trkpt lat="45.22775" lon="0.11557">
        <ele>77</ele>
        <time>2014-04-06T08:31:47Z</time>
      </trkpt>
      <trkpt lat="45.22746" lon="0.11568">
        <ele>75</ele>
        <time>2014-04-06T08:31:53Z</time>
      </trkpt>
      <trkpt lat="45.22736" lon="0.11569">
        <ele>75</ele>
        <time>2014-04-06T08:31:55Z</time>
      </trkpt>
      <trkpt lat="45.22704" lon="0.11566">
        <ele>74</ele>
        <time>2014-04-06T08:32:01Z</time>
      </trkpt>
      <trkpt lat="45.22692" lon="0.11568">
        <ele>74</ele>
        <time>2014-04-06T08:32:03Z</time>
      </trkpt>
      <trkpt lat="45.22687" lon="0.1157">
        <ele>74</ele>
        <time>2014-04-06T08:32:04Z</time>
      </trkpt>
      <trkpt lat="45.22682" lon="0.11571">
        <ele>74</ele>
        <time>2014-04-06T08:32:05Z</time>
      </trkpt>
      <trkpt lat="45.22676" lon="0.1157">
        <ele>74</ele>
        <time>2014-04-06T08:32:06Z</time>
      </trkpt>
      <trkpt lat="45.22669" lon="0.11564">
        <ele>74</ele>
        <time>2014-04-06T08:32:08Z</time>
      </trkpt>
      <trkpt lat="45.22659" lon="0.11525">
        <ele>72</ele>
        <time>2014-04-06T08:32:15Z</time>
      </trkpt>
      <trkpt lat="45.22654" lon="0.11513">
        <ele>72</ele>
        <time>2014-04-06T08:32:17Z</time>
      </trkpt>
      <trkpt lat="45.22647" lon="0.11504">
        <ele>72</ele>
        <time>2014-04-06T08:32:19Z</time>
      </trkpt>
      <trkpt lat="45.22638" lon="0.11493">
        <ele>71</ele>
        <time>2014-04-06T08:32:22Z</time>
      </trkpt>
      <trkpt lat="45.2263" lon="0.1149">
        <ele>71</ele>
        <time>2014-04-06T08:32:25Z</time>
      </trkpt>
      <trkpt lat="45.22627" lon="0.11491">
        <ele>71</ele>
        <time>2014-04-06T08:32:26Z</time>
      </trkpt>
      <trkpt lat="45.22617" lon="0.11501">
        <ele>70</ele>
        <time>2014-04-06T08:32:29Z</time>
      </trkpt>
      <trkpt lat="45.22559" lon="0.11613">
        <ele>67</ele>
        <time>2014-04-06T08:32:45Z</time>
      </trkpt>
      <trkpt lat="45.22554" lon="0.11619">
        <ele>67</ele>
        <time>2014-04-06T08:32:46Z</time>
      </trkpt>
      <trkpt lat="45.22535" lon="0.11636">
        <ele>66</ele>
        <time>2014-04-06T08:32:49Z</time>
      </trkpt>
      <trkpt lat="45.22468" lon="0.11675">
        <ele>65</ele>
        <time>2014-04-06T08:33:00Z</time>
      </trkpt>
      <trkpt lat="45.22444" lon="0.11695">
        <ele>65</ele>
        <time>2014-04-06T08:33:05Z</time>
      </trkpt>
      <trkpt lat="45.224" lon="0.11718">
        <ele>64</ele>
        <time>2014-04-06T08:33:13Z</time>
      </trkpt>
      <trkpt lat="45.22395" lon="0.11721">
        <ele>64</ele>
        <time>2014-04-06T08:33:14Z</time>
      </trkpt>
      <trkpt lat="45.22373" lon="0.11723">
        <ele>64</ele>
        <time>2014-04-06T08:33:18Z</time>
      </trkpt>
      <trkpt lat="45.22339" lon="0.11722">
        <ele>64</ele>
        <time>2014-04-06T08:33:25Z</time>
      </trkpt>
      <trkpt lat="45.22142" lon="0.11671">
        <ele>58</ele>
        <time>2014-04-06T08:33:58Z</time>
      </trkpt>
      <trkpt lat="45.22134" lon="0.11667">
        <ele>57</ele>
        <time>2014-04-06T08:33:59Z</time>
      </trkpt>
      <trkpt lat="45.22085" lon="0.11623">
        <ele>54</ele>
        <time>2014-04-06T08:34:05Z</time>
      </trkpt>
      <trkpt lat="45.22076" lon="0.11617">
        <ele>49</ele>
        <time>2014-04-06T08:34:06Z</time>
      </trkpt>
      <trkpt lat="45.21999" lon="0.11589">
        <ele>44</ele>
        <time>2014-04-06T08:34:13Z</time>
      </trkpt>
      <trkpt lat="45.21977" lon="0.11583">
        <ele>42</ele>
        <time>2014-04-06T08:34:15Z</time>
      </trkpt>
      <trkpt lat="45.21966" lon="0.11583">
        <ele>42</ele>
        <time>2014-04-06T08:34:16Z</time>
      </trkpt>
      <trkpt lat="45.21927" lon="0.11591">
        <ele>41</ele>
        <time>2014-04-06T08:34:20Z</time>
      </trkpt>
      <trkpt lat="45.2192" lon="0.11591">
        <ele>41</ele>
        <time>2014-04-06T08:34:21Z</time>
      </trkpt>
      <trkpt lat="45.21913" lon="0.1159">
        <ele>40</ele>
        <time>2014-04-06T08:34:22Z</time>
      </trkpt>
      <trkpt lat="45.21908" lon="0.11584">
        <ele>40</ele>
        <time>2014-04-06T08:34:23Z</time>
      </trkpt>
      <trkpt lat="45.21905" lon="0.11576">
        <ele>40</ele>
        <time>2014-04-06T08:34:24Z</time>
      </trkpt>
      <trkpt lat="45.21865" lon="0.11396">
        <ele>37</ele>
        <time>2014-04-06T08:34:43Z</time>
      </trkpt>
      <trkpt lat="45.21763" lon="0.1111">
        <ele>34</ele>
        <time>2014-04-06T08:35:17Z</time>
      </trkpt>
      <trkpt lat="45.21766" lon="0.11089">
        <ele>35</ele>
        <time>2014-04-06T08:35:20Z</time>
      </trkpt>
      <trkpt lat="45.21868" lon="0.10989">
        <ele>34</ele>
        <time>2014-04-06T08:35:40Z</time>
      </trkpt>
      <trkpt lat="45.21889" lon="0.10958">
        <ele>34</ele>
        <time>2014-04-06T08:35:45Z</time>
      </trkpt>
      <trkpt lat="45.21997" lon="0.10721">
        <ele>33</ele>
        <time>2014-04-06T08:36:18Z</time>
      </trkpt>
      <trkpt lat="45.22007" lon="0.10691">
        <ele>33</ele>
        <time>2014-04-06T08:36:22Z</time>
      </trkpt>
      <trkpt lat="45.2202" lon="0.10612">
        <ele>33</ele>
        <time>2014-04-06T08:36:32Z</time>
      </trkpt>
      <trkpt lat="45.22035" lon="0.10562">
        <ele>33</ele>
        <time>2014-04-06T08:36:39Z</time>
      </trkpt>
      <trkpt lat="45.22041" lon="0.10552">
        <ele>33</ele>
        <time>2014-04-06T08:36:41Z</time>
      </trkpt>
      <trkpt lat="45.22055" lon="0.10555">
        <ele>33</ele>
        <time>2014-04-06T08:36:44Z</time>
      </trkpt>
      <trkpt lat="45.22066" lon="0.10572">
        <ele>32</ele>
        <time>2014-04-06T08:36:47Z</time>
      </trkpt>
      <trkpt lat="45.22071" lon="0.10576">
        <ele>32</ele>
        <time>2014-04-06T08:36:48Z</time>
      </trkpt>
      <trkpt lat="45.2208" lon="0.10574">
        <ele>32</ele>
        <time>2014-04-06T08:36:50Z</time>
      </trkpt>
      <trkpt lat="45.22105" lon="0.10544">
        <ele>32</ele>
        <time>2014-04-06T08:36:56Z</time>
      </trkpt>
      <trkpt lat="45.22124" lon="0.10525">
        <ele>32</ele>
        <time>2014-04-06T08:37:00Z</time>
      </trkpt>
      <trkpt lat="45.22128" lon="0.10519">
        <ele>31</ele>
        <time>2014-04-06T08:37:01Z</time>
      </trkpt>
      <trkpt lat="45.2213" lon="0.10503">
        <ele>31</ele>
        <time>2014-04-06T08:37:03Z</time>
      </trkpt>
      <trkpt lat="45.22129" lon="0.10478">
        <ele>32</ele>
        <time>2014-04-06T08:37:06Z</time>
      </trkpt>
      <trkpt lat="45.22132" lon="0.10463">
        <ele>32</ele>
        <time>2014-04-06T08:37:08Z</time>
      </trkpt>
      <trkpt lat="45.22145" lon="0.10436">
        <ele>32</ele>
        <time>2014-04-06T08:37:12Z</time>
      </trkpt>
      <trkpt lat="45.22166" lon="0.1042">
        <ele>32</ele>
        <time>2014-04-06T08:37:16Z</time>
      </trkpt>
      <trkpt lat="45.22205" lon="0.10402">
        <ele>33</ele>
        <time>2014-04-06T08:37:23Z</time>
      </trkpt>
      <trkpt lat="45.22258" lon="0.10366">
        <ele>33</ele>
        <time>2014-04-06T08:37:34Z</time>
      </trkpt>
      <trkpt lat="45.22282" lon="0.10341">
        <ele>34</ele>
        <time>2014-04-06T08:37:39Z</time>
      </trkpt>
      <trkpt lat="45.22288" lon="0.10338">
        <ele>34</ele>
        <time>2014-04-06T08:37:40Z</time>
      </trkpt>
      <trkpt lat="45.22311" lon="0.10333">
        <ele>35</ele>
        <time>2014-04-06T08:37:44Z</time>
      </trkpt>
      <trkpt lat="45.22343" lon="0.10332">
        <ele>35</ele>
        <time>2014-04-06T08:37:50Z</time>
      </trkpt>
      <trkpt lat="45.22346" lon="0.10332">
        <ele>35</ele>
        <time>2014-04-06T08:37:51Z</time>
      </trkpt>
      <trkpt lat="45.2239" lon="0.10432">
        <ele>36</ele>
        <time>2014-04-06T08:38:06Z</time>
      </trkpt>
      <trkpt lat="45.2246" lon="0.10545">
        <ele>35</ele>
        <time>2014-04-06T08:38:25Z</time>
      </trkpt>
      <trkpt lat="45.22472" lon="0.10544">
        <ele>35</ele>
        <time>2014-04-06T08:38:28Z</time>
      </trkpt>
      <trkpt lat="45.22491" lon="0.10532">
        <ele>35</ele>
        <time>2014-04-06T08:38:33Z</time>
      </trkpt>
      <trkpt lat="45.22508" lon="0.10515">
        <ele>37</ele>
        <time>2014-04-06T08:38:38Z</time>
      </trkpt>
      <trkpt lat="45.22539" lon="0.10492">
        <ele>37</ele>
        <time>2014-04-06T08:38:47Z</time>
      </trkpt>
      <trkpt lat="45.22575" lon="0.10446">
        <ele>38</ele>
        <time>2014-04-06T08:39:00Z</time>
      </trkpt>
      <trkpt lat="45.22594" lon="0.10435">
        <ele>40</ele>
        <time>2014-04-06T08:39:06Z</time>
      </trkpt>
      <trkpt lat="45.22605" lon="0.10433">
        <ele>41</ele>
        <time>2014-04-06T08:39:10Z</time>
      </trkpt>
      <trkpt lat="45.22623" lon="0.10418">
        <ele>42</ele>
        <time>2014-04-06T08:39:17Z</time>
      </trkpt>
      <trkpt lat="45.22645" lon="0.10409">
        <ele>40</ele>
        <time>2014-04-06T08:39:25Z</time>
      </trkpt>
      <trkpt lat="45.22646" lon="0.10407">
        <ele>40</ele>
        <time>2014-04-06T08:39:26Z</time>
      </trkpt>
      <trkpt lat="45.22653" lon="0.10391">
        <ele>40</ele>
        <time>2014-04-06T08:39:30Z</time>
      </trkpt>
      <trkpt lat="45.22654" lon="0.10385">
        <ele>40</ele>
        <time>2014-04-06T08:39:31Z</time>
      </trkpt>
      <trkpt lat="45.22656" lon="0.10331">
        <ele>40</ele>
        <time>2014-04-06T08:39:39Z</time>
      </trkpt>
      <trkpt lat="45.22662" lon="0.1032">
        <ele>40</ele>
        <time>2014-04-06T08:39:41Z</time>
      </trkpt>
      <trkpt lat="45.22673" lon="0.10319">
        <ele>45</ele>
        <time>2014-04-06T08:39:44Z</time>
      </trkpt>
      <trkpt lat="45.22686" lon="0.10324">
        <ele>46</ele>
        <time>2014-04-06T08:39:48Z</time>
      </trkpt>
      <trkpt lat="45.22813" lon="0.10354">
        <ele>55</ele>
        <time>2014-04-06T08:40:21Z</time>
      </trkpt>
      <trkpt lat="45.22844" lon="0.10364">
        <ele>57</ele>
        <time>2014-04-06T08:40:29Z</time>
      </trkpt>
      <trkpt lat="45.22855" lon="0.10369">
        <ele>57</ele>
        <time>2014-04-06T08:40:32Z</time>
      </trkpt>
      <trkpt lat="45.22939" lon="0.10421">
        <ele>54</ele>
        <time>2014-04-06T08:40:56Z</time>
      </trkpt>
      <trkpt lat="45.22945" lon="0.10426">
        <ele>54</ele>
        <time>2014-04-06T08:40:58Z</time>
      </trkpt>
      <trkpt lat="45.2296" lon="0.10435">
        <ele>55</ele>
        <time>2014-04-06T08:41:03Z</time>
      </trkpt>
      <trkpt lat="45.22968" lon="0.10438">
        <ele>55</ele>
        <time>2014-04-06T08:41:06Z</time>
      </trkpt>
      <trkpt lat="45.2298" lon="0.10437">
        <ele>55</ele>
        <time>2014-04-06T08:41:10Z</time>
      </trkpt>
      <trkpt lat="45.22992" lon="0.10428">
        <ele>57</ele>
        <time>2014-04-06T08:41:16Z</time>
      </trkpt>
      <trkpt lat="45.22997" lon="0.10422">
        <ele>58</ele>
        <time>2014-04-06T08:41:19Z</time>
      </trkpt>
      <trkpt lat="45.23016" lon="0.10393">
        <ele>64</ele>
        <time>2014-04-06T08:41:33Z</time>
      </trkpt>
      <trkpt lat="45.23038" lon="0.10353">
        <ele>68</ele>
        <time>2014-04-06T08:41:54Z</time>
      </trkpt>
      <trkpt lat="45.23048" lon="0.10339">
        <ele>68</ele>
        <time>2014-04-06T08:42:02Z</time>
      </trkpt>
      <trkpt lat="45.23053" lon="0.1033">
        <ele>72</ele>
        <time>2014-04-06T08:42:07Z</time>
      </trkpt>
      <trkpt lat="45.23071" lon="0.10305">
        <ele>73</ele>
        <time>2014-04-06T08:42:23Z</time>
      </trkpt>
      <trkpt lat="45.23072" lon="0.10304">
        <ele>73</ele>
        <time>2014-04-06T08:42:24Z</time>
      </trkpt>
      <trkpt lat="45.23074" lon="0.10301">
        <ele>73</ele>
        <time>2014-04-06T08:42:26Z</time>
      </trkpt>
      <trkpt lat="45.23079" lon="0.10291">
        <ele>73</ele>
        <time>2014-04-06T08:42:32Z</time>
      </trkpt>
      <trkpt lat="45.23082" lon="0.10288">
        <ele>74</ele>
        <time>2014-04-06T08:42:35Z</time>
      </trkpt>
      <trkpt lat="45.23092" lon="0.10272">
        <ele>77</ele>
        <time>2014-04-06T08:42:44Z</time>
      </trkpt>
      <trkpt lat="45.23094" lon="0.1027">
        <ele>77</ele>
        <time>2014-04-06T08:42:46Z</time>
      </trkpt>
      <trkpt lat="45.23109" lon="0.1025">
        <ele>80</ele>
        <time>2014-04-06T08:42:58Z</time>
      </trkpt>
      <trkpt lat="45.23117" lon="0.10241">
        <ele>81</ele>
        <time>2014-04-06T08:43:04Z</time>
      </trkpt>
      <trkpt lat="45.23126" lon="0.10234">
        <ele>82</ele>
        <time>2014-04-06T08:43:10Z</time>
      </trkpt>
      <trkpt lat="45.23131" lon="0.10231">
        <ele>83</ele>
        <time>2014-04-06T08:43:13Z</time>
      </trkpt>
      <trkpt lat="45.23139" lon="0.10231">
        <ele>83</ele>
        <time>2014-04-06T08:43:18Z</time>
      </trkpt>
      <trkpt lat="45.23141" lon="0.10232">
        <ele>83</ele>
        <time>2014-04-06T08:43:19Z</time>
      </trkpt>
      <trkpt lat="45.2315" lon="0.10241">
        <ele>84</ele>
        <time>2014-04-06T08:43:25Z</time>
      </trkpt>
      <trkpt lat="45.23208" lon="0.10342">
        <ele>86</ele>
        <time>2014-04-06T08:43:58Z</time>
      </trkpt>
      <trkpt lat="45.23268" lon="0.10422">
        <ele>90</ele>
        <time>2014-04-06T08:44:22Z</time>
      </trkpt>
      <trkpt lat="45.23289" lon="0.10456">
        <ele>90</ele>
        <time>2014-04-06T08:44:28Z</time>
      </trkpt>
      <trkpt lat="45.23308" lon="0.10508">
        <ele>86</ele>
        <time>2014-04-06T08:44:34Z</time>
      </trkpt>
      <trkpt lat="45.23323" lon="0.10542">
        <ele>85</ele>
        <time>2014-04-06T08:44:38Z</time>
      </trkpt>
      <trkpt lat="45.23334" lon="0.10555">
        <ele>89</ele>
        <time>2014-04-06T08:44:40Z</time>
      </trkpt>
      <trkpt lat="45.23344" lon="0.10564">
        <ele>88</ele>
        <time>2014-04-06T08:44:42Z</time>
      </trkpt>
      <trkpt lat="45.2336" lon="0.10574">
        <ele>89</ele>
        <time>2014-04-06T08:44:45Z</time>
      </trkpt>
      <trkpt lat="45.23381" lon="0.10595">
        <ele>87</ele>
        <time>2014-04-06T08:44:50Z</time>
      </trkpt>
      <trkpt lat="45.23404" lon="0.10624">
        <ele>87</ele>
        <time>2014-04-06T08:44:56Z</time>
      </trkpt>
      <trkpt lat="45.23461" lon="0.10701">
        <ele>87</ele>
        <time>2014-04-06T08:45:11Z</time>
      </trkpt>
      <trkpt lat="45.23487" lon="0.10727">
        <ele>88</ele>
        <time>2014-04-06T08:45:18Z</time>
      </trkpt>
      <trkpt lat="45.23516" lon="0.10747">
        <ele>90</ele>
        <time>2014-04-06T08:45:26Z</time>
      </trkpt>
      <trkpt lat="45.2362" lon="0.10785">
        <ele>88</ele>
        <time>2014-04-06T08:45:55Z</time>
      </trkpt>
      <trkpt lat="45.23655" lon="0.10794">
        <ele>88</ele>
        <time>2014-04-06T08:46:04Z</time>
      </trkpt>
      <trkpt lat="45.23687" lon="0.10798">
        <ele>89</ele>
        <time>2014-04-06T08:46:13Z</time>
      </trkpt>
      <trkpt lat="45.23712" lon="0.10815">
        <ele>89</ele>
        <time>2014-04-06T08:46:20Z</time>
      </trkpt>
      <trkpt lat="45.23728" lon="0.1082">
        <ele>89</ele>
        <time>2014-04-06T08:46:24Z</time>
      </trkpt>
      <trkpt lat="45.23757" lon="0.10834">
        <ele>87</ele>
        <time>2014-04-06T08:46:32Z</time>
      </trkpt>
      <trkpt lat="45.23772" lon="0.10846">
        <ele>87</ele>
        <time>2014-04-06T08:46:36Z</time>
      </trkpt>
      <trkpt lat="45.2378" lon="0.10855">
        <ele>87</ele>
        <time>2014-04-06T08:46:38Z</time>
      </trkpt>
      <trkpt lat="45.23804" lon="0.109">
        <ele>86</ele>
        <time>2014-04-06T08:46:44Z</time>
      </trkpt>
      <trkpt lat="45.23826" lon="0.10931">
        <ele>85</ele>
        <time>2014-04-06T08:46:48Z</time>
      </trkpt>
      <trkpt lat="45.23854" lon="0.10961">
        <ele>86</ele>
        <time>2014-04-06T08:46:53Z</time>
      </trkpt>
      <trkpt lat="45.23859" lon="0.10965">
        <ele>86</ele>
        <time>2014-04-06T08:46:54Z</time>
      </trkpt>
      <trkpt lat="45.23877" lon="0.10978">
        <ele>87</ele>
        <time>2014-04-06T08:46:58Z</time>
      </trkpt>
      <trkpt lat="45.23894" lon="0.10993">
        <ele>87</ele>
        <time>2014-04-06T08:47:03Z</time>
      </trkpt>
      <trkpt lat="45.23914" lon="0.11033">
        <ele>88</ele>
        <time>2014-04-06T08:47:13Z</time>
      </trkpt>
      <trkpt lat="45.23948" lon="0.11075">
        <ele>90</ele>
        <time>2014-04-06T08:47:33Z</time>
      </trkpt>
      <trkpt lat="45.23956" lon="0.11083">
        <ele>91</ele>
        <time>2014-04-06T08:47:38Z</time>
      </trkpt>
      <trkpt lat="45.24005" lon="0.11126">
        <ele>95</ele>
        <time>2014-04-06T08:48:17Z</time>
      </trkpt>
      <trkpt lat="45.24023" lon="0.11152">
        <ele>96</ele>
        <time>2014-04-06T08:48:34Z</time>
      </trkpt>
      <trkpt lat="45.24031" lon="0.1117">
        <ele>100</ele>
        <time>2014-04-06T08:48:42Z</time>
      </trkpt>
      <trkpt lat="45.24032" lon="0.11172">
        <ele>100</ele>
        <time>2014-04-06T08:48:43Z</time>
      </trkpt>
      <trkpt lat="45.24037" lon="0.112">
        <ele>101</ele>
        <time>2014-04-06T08:49:03Z</time>
      </trkpt>
      <trkpt lat="45.24037" lon="0.112">
        <ele>101</ele>
        <time>2014-04-06T08:49:51Z</time>
      </trkpt>
      <trkpt lat="45.24036" lon="0.112">
        <ele>101</ele>
        <time>2014-04-06T08:50:24Z</time>
      </trkpt>
      <trkpt lat="45.24037" lon="0.11199">
        <ele>101</ele>
        <time>2014-04-06T08:51:09Z</time>
      </trkpt>
      <trkpt lat="45.24038" lon="0.11198">
        <ele>101</ele>
        <time>2014-04-06T08:51:21Z</time>
      </trkpt>
      <trkpt lat="45.2404" lon="0.11194">
        <ele>100</ele>
        <time>2014-04-06T08:51:23Z</time>
      </trkpt>
      <trkpt lat="45.24051" lon="0.11182">
        <ele>100</ele>
        <time>2014-04-06T08:51:27Z</time>
      </trkpt>
      <trkpt lat="45.24062" lon="0.11176">
        <ele>99</ele>
        <time>2014-04-06T08:51:29Z</time>
      </trkpt>
      <trkpt lat="45.2407" lon="0.11174">
        <ele>98</ele>
        <time>2014-04-06T08:51:30Z</time>
      </trkpt>
      <trkpt lat="45.24102" lon="0.11175">
        <ele>97</ele>
        <time>2014-04-06T08:51:34Z</time>
      </trkpt>
      <trkpt lat="45.24109" lon="0.11173">
        <ele>97</ele>
        <time>2014-04-06T08:51:35Z</time>
      </trkpt>
      <trkpt lat="45.24116" lon="0.11171">
        <ele>97</ele>
        <time>2014-04-06T08:51:36Z</time>
      </trkpt>
      <trkpt lat="45.24121" lon="0.11166">
        <ele>96</ele>
        <time>2014-04-06T08:51:37Z</time>
      </trkpt>
      <trkpt lat="45.24124" lon="0.11157">
        <ele>96</ele>
        <time>2014-04-06T08:51:38Z</time>
      </trkpt>
      <trkpt lat="45.24127" lon="0.11147">
        <ele>96</ele>
        <time>2014-04-06T08:51:39Z</time>
      </trkpt>
      <trkpt lat="45.24128" lon="0.11136">
        <ele>96</ele>
        <time>2014-04-06T08:51:40Z</time>
      </trkpt>
      <trkpt lat="45.24127" lon="0.11099">
        <ele>96</ele>
        <time>2014-04-06T08:51:44Z</time>
      </trkpt>
      <trkpt lat="45.24124" lon="0.1108">
        <ele>97</ele>
        <time>2014-04-06T08:51:47Z</time>
      </trkpt>
      <trkpt lat="45.24113" lon="0.11043">
        <ele>97</ele>
        <time>2014-04-06T08:51:59Z</time>
      </trkpt>
      <trkpt lat="45.24113" lon="0.11041">
        <ele>97</ele>
        <time>2014-04-06T08:52:00Z</time>
      </trkpt>
      <trkpt lat="45.24112" lon="0.11004">
        <ele>97</ele>
        <time>2014-04-06T08:52:18Z</time>
      </trkpt>
      <trkpt lat="45.24112" lon="0.11002">
        <ele>97</ele>
        <time>2014-04-06T08:52:19Z</time>
      </trkpt>
      <trkpt lat="45.241" lon="0.10789">
        <ele>103</ele>
        <time>2014-04-06T08:53:23Z</time>
      </trkpt>
      <trkpt lat="45.24103" lon="0.10758">
        <ele>103</ele>
        <time>2014-04-06T08:53:30Z</time>
      </trkpt>
      <trkpt lat="45.24118" lon="0.10705">
        <ele>102</ele>
        <time>2014-04-06T08:53:39Z</time>
      </trkpt>
      <trkpt lat="45.2418" lon="0.10222">
        <ele>80</ele>
        <time>2014-04-06T08:54:35Z</time>
      </trkpt>
      <trkpt lat="45.24183" lon="0.10213">
        <ele>80</ele>
        <time>2014-04-06T08:54:36Z</time>
      </trkpt>
      <trkpt lat="45.24186" lon="0.10205">
        <ele>79</ele>
        <time>2014-04-06T08:54:37Z</time>
      </trkpt>
      <trkpt lat="45.24191" lon="0.10197">
        <ele>79</ele>
        <time>2014-04-06T08:54:38Z</time>
      </trkpt>
      <trkpt lat="45.24204" lon="0.10183">
        <ele>78</ele>
        <time>2014-04-06T08:54:40Z</time>
      </trkpt>
      <trkpt lat="45.24245" lon="0.10145">
        <ele>69</ele>
        <time>2014-04-06T08:54:45Z</time>
      </trkpt>
      <trkpt lat="45.24288" lon="0.10113">
        <ele>63</ele>
        <time>2014-04-06T08:54:50Z</time>
      </trkpt>
      <trkpt lat="45.24314" lon="0.10088">
        <ele>61</ele>
        <time>2014-04-06T08:54:54Z</time>
      </trkpt>
      <trkpt lat="45.24319" lon="0.1008">
        <ele>57</ele>
        <time>2014-04-06T08:54:55Z</time>
      </trkpt>
      <trkpt lat="45.24338" lon="0.1001">
        <ele>50</ele>
        <time>2014-04-06T08:55:01Z</time>
      </trkpt>
      <trkpt lat="45.24355" lon="0.0997">
        <ele>49</ele>
        <time>2014-04-06T08:55:05Z</time>
      </trkpt>
      <trkpt lat="45.24358" lon="0.09959">
        <ele>49</ele>
        <time>2014-04-06T08:55:06Z</time>
      </trkpt>
      <trkpt lat="45.24364" lon="0.09916">
        <ele>50</ele>
        <time>2014-04-06T08:55:10Z</time>
      </trkpt>
      <trkpt lat="45.2437" lon="0.09821">
        <ele>54</ele>
        <time>2014-04-06T08:55:24Z</time>
      </trkpt>
      <trkpt lat="45.24379" lon="0.09734">
        <ele>61</ele>
        <time>2014-04-06T08:55:58Z</time>
      </trkpt>
      <trkpt lat="45.24379" lon="0.09723">
        <ele>61</ele>
        <time>2014-04-06T08:56:03Z</time>
      </trkpt>
      <trkpt lat="45.24373" lon="0.09702">
        <ele>62</ele>
        <time>2014-04-06T08:56:15Z</time>
      </trkpt>
      <trkpt lat="45.2437" lon="0.09688">
        <ele>62</ele>
        <time>2014-04-06T08:56:21Z</time>
      </trkpt>
      <trkpt lat="45.2437" lon="0.09686">
        <ele>62</ele>
        <time>2014-04-06T08:56:22Z</time>
      </trkpt>
      <trkpt lat="45.24367" lon="0.09675">
        <ele>62</ele>
        <time>2014-04-06T08:56:27Z</time>
      </trkpt>
      <trkpt lat="45.24367" lon="0.09667">
        <ele>62</ele>
        <time>2014-04-06T08:56:30Z</time>
      </trkpt>
      <trkpt lat="45.24365" lon="0.09656">
        <ele>64</ele>
        <time>2014-04-06T08:56:34Z</time>
      </trkpt>
      <trkpt lat="45.2435" lon="0.0949">
        <ele>73</ele>
        <time>2014-04-06T08:57:33Z</time>
      </trkpt>
      <trkpt lat="45.2435" lon="0.09487">
        <ele>74</ele>
        <time>2014-04-06T08:57:34Z</time>
      </trkpt>
      <trkpt lat="45.24348" lon="0.09457">
        <ele>75</ele>
        <time>2014-04-06T08:57:51Z</time>
      </trkpt>
      <trkpt lat="45.24343" lon="0.0944">
        <ele>76</ele>
        <time>2014-04-06T08:58:03Z</time>
      </trkpt>
      <trkpt lat="45.24342" lon="0.09426">
        <ele>78</ele>
        <time>2014-04-06T08:58:07Z</time>
      </trkpt>
      <trkpt lat="45.24341" lon="0.09421">
        <ele>78</ele>
        <time>2014-04-06T08:58:09Z</time>
      </trkpt>
      <trkpt lat="45.2434" lon="0.09399">
        <ele>79</ele>
        <time>2014-04-06T08:58:16Z</time>
      </trkpt>
      <trkpt lat="45.24332" lon="0.09363">
        <ele>84</ele>
        <time>2014-04-06T08:58:31Z</time>
      </trkpt>
      <trkpt lat="45.24331" lon="0.09357">
        <ele>84</ele>
        <time>2014-04-06T08:58:34Z</time>
      </trkpt>
      <trkpt lat="45.24329" lon="0.09344">
        <ele>84</ele>
        <time>2014-04-06T08:58:39Z</time>
      </trkpt>
      <trkpt lat="45.24327" lon="0.09338">
        <ele>84</ele>
        <time>2014-04-06T08:58:42Z</time>
      </trkpt>
      <trkpt lat="45.24325" lon="0.09334">
        <ele>84</ele>
        <time>2014-04-06T08:58:44Z</time>
      </trkpt>
      <trkpt lat="45.24322" lon="0.09326">
        <ele>85</ele>
        <time>2014-04-06T08:58:48Z</time>
      </trkpt>
      <trkpt lat="45.24315" lon="0.09294">
        <ele>86</ele>
        <time>2014-04-06T08:59:02Z</time>
      </trkpt>
      <trkpt lat="45.24311" lon="0.09281">
        <ele>86</ele>
        <time>2014-04-06T08:59:08Z</time>
      </trkpt>
      <trkpt lat="45.2431" lon="0.09275">
        <ele>86</ele>
        <time>2014-04-06T08:59:10Z</time>
      </trkpt>
      <trkpt lat="45.24305" lon="0.0926">
        <ele>86</ele>
        <time>2014-04-06T08:59:17Z</time>
      </trkpt>
      <trkpt lat="45.24304" lon="0.09258">
        <ele>86</ele>
        <time>2014-04-06T08:59:18Z</time>
      </trkpt>
      <trkpt lat="45.24298" lon="0.09238">
        <ele>87</ele>
        <time>2014-04-06T08:59:25Z</time>
      </trkpt>
      <trkpt lat="45.24297" lon="0.09228">
        <ele>87</ele>
        <time>2014-04-06T08:59:30Z</time>
      </trkpt>
      <trkpt lat="45.24297" lon="0.09224">
        <ele>87</ele>
        <time>2014-04-06T08:59:32Z</time>
      </trkpt>
      <trkpt lat="45.24304" lon="0.09208">
        <ele>87</ele>
        <time>2014-04-06T08:59:40Z</time>
      </trkpt>
      <trkpt lat="45.24307" lon="0.09185">
        <ele>87</ele>
        <time>2014-04-06T08:59:48Z</time>
      </trkpt>
      <trkpt lat="45.24321" lon="0.09125">
        <ele>89</ele>
        <time>2014-04-06T09:00:05Z</time>
      </trkpt>
      <trkpt lat="45.24333" lon="0.09051">
        <ele>95</ele>
        <time>2014-04-06T09:00:24Z</time>
      </trkpt>
      <trkpt lat="45.2437" lon="0.08963">
        <ele>97</ele>
        <time>2014-04-06T09:00:49Z</time>
      </trkpt>
      <trkpt lat="45.24392" lon="0.08878">
        <ele>99</ele>
        <time>2014-04-06T09:01:13Z</time>
      </trkpt>
      <trkpt lat="45.24399" lon="0.08861">
        <ele>99</ele>
        <time>2014-04-06T09:01:18Z</time>
      </trkpt>
      <trkpt lat="45.24412" lon="0.0884">
        <ele>100</ele>
        <time>2014-04-06T09:01:25Z</time>
      </trkpt>
      <trkpt lat="45.24417" lon="0.08835">
        <ele>100</ele>
        <time>2014-04-06T09:01:27Z</time>
      </trkpt>
      <trkpt lat="45.24424" lon="0.08824">
        <ele>99</ele>
        <time>2014-04-06T09:01:31Z</time>
      </trkpt>
      <trkpt lat="45.24441" lon="0.08789">
        <ele>98</ele>
        <time>2014-04-06T09:01:40Z</time>
      </trkpt>
      <trkpt lat="45.24456" lon="0.08692">
        <ele>95</ele>
        <time>2014-04-06T09:01:59Z</time>
      </trkpt>
      <trkpt lat="45.24459" lon="0.08688">
        <ele>95</ele>
        <time>2014-04-06T09:02:00Z</time>
      </trkpt>
      <trkpt lat="45.24637" lon="0.08564">
        <ele>101</ele>
        <time>2014-04-06T09:02:53Z</time>
      </trkpt>
      <trkpt lat="45.2467" lon="0.08534">
        <ele>103</ele>
        <time>2014-04-06T09:03:03Z</time>
      </trkpt>
      <trkpt lat="45.24724" lon="0.0847">
        <ele>106</ele>
        <time>2014-04-06T09:03:23Z</time>
      </trkpt>
      <trkpt lat="45.24728" lon="0.08462">
        <ele>107</ele>
        <time>2014-04-06T09:03:25Z</time>
      </trkpt>
      <trkpt lat="45.24729" lon="0.08457">
        <ele>107</ele>
        <time>2014-04-06T09:03:26Z</time>
      </trkpt>
      <trkpt lat="45.24728" lon="0.08441">
        <ele>107</ele>
        <time>2014-04-06T09:03:29Z</time>
      </trkpt>
      <trkpt lat="45.24721" lon="0.08407">
        <ele>108</ele>
        <time>2014-04-06T09:03:36Z</time>
      </trkpt>
      <trkpt lat="45.24719" lon="0.08388">
        <ele>108</ele>
        <time>2014-04-06T09:03:40Z</time>
      </trkpt>
      <trkpt lat="45.24723" lon="0.08304">
        <ele>108</ele>
        <time>2014-04-06T09:03:54Z</time>
      </trkpt>
      <trkpt lat="45.24711" lon="0.08126">
        <ele>103</ele>
        <time>2014-04-06T09:04:13Z</time>
      </trkpt>
      <trkpt lat="45.24702" lon="0.08114">
        <ele>103</ele>
        <time>2014-04-06T09:04:15Z</time>
      </trkpt>
      <trkpt lat="45.24671" lon="0.08103">
        <ele>102</ele>
        <time>2014-04-06T09:04:20Z</time>
      </trkpt>
      <trkpt lat="45.24648" lon="0.08088">
        <ele>100</ele>
        <time>2014-04-06T09:04:24Z</time>
      </trkpt>
      <trkpt lat="45.24523" lon="0.07961">
        <ele>102</ele>
        <time>2014-04-06T09:04:51Z</time>
      </trkpt>
      <trkpt lat="45.24506" lon="0.07949">
        <ele>102</ele>
        <time>2014-04-06T09:04:55Z</time>
      </trkpt>
      <trkpt lat="45.24475" lon="0.07941">
        <ele>101</ele>
        <time>2014-04-06T09:05:01Z</time>
      </trkpt>
      <trkpt lat="45.24469" lon="0.07941">
        <ele>101</ele>
        <time>2014-04-06T09:05:02Z</time>
      </trkpt>
      <trkpt lat="45.24423" lon="0.07945">
        <ele>100</ele>
        <time>2014-04-06T09:05:09Z</time>
      </trkpt>
      <trkpt lat="45.24323" lon="0.07966">
        <ele>93</ele>
        <time>2014-04-06T09:05:21Z</time>
      </trkpt>
      <trkpt lat="45.24314" lon="0.07969">
        <ele>93</ele>
        <time>2014-04-06T09:05:22Z</time>
      </trkpt>
      <trkpt lat="45.24295" lon="0.07972">
        <ele>93</ele>
        <time>2014-04-06T09:05:24Z</time>
      </trkpt>
      <trkpt lat="45.24286" lon="0.07971">
        <ele>93</ele>
        <time>2014-04-06T09:05:25Z</time>
      </trkpt>
      <trkpt lat="45.24278" lon="0.07967">
        <ele>93</ele>
        <time>2014-04-06T09:05:26Z</time>
      </trkpt>
      <trkpt lat="45.24263" lon="0.07955">
        <ele>93</ele>
        <time>2014-04-06T09:05:28Z</time>
      </trkpt>
      <trkpt lat="45.24149" lon="0.07815">
        <ele>84</ele>
        <time>2014-04-06T09:05:46Z</time>
      </trkpt>
      <trkpt lat="45.24039" lon="0.07643">
        <ele>73</ele>
        <time>2014-04-06T09:06:02Z</time>
      </trkpt>
      <trkpt lat="45.24033" lon="0.07637">
        <ele>72</ele>
        <time>2014-04-06T09:06:03Z</time>
      </trkpt>
      <trkpt lat="45.24028" lon="0.07633">
        <ele>72</ele>
        <time>2014-04-06T09:06:04Z</time>
      </trkpt>
      <trkpt lat="45.24016" lon="0.07636">
        <ele>72</ele>
        <time>2014-04-06T09:06:06Z</time>
      </trkpt>
      <trkpt lat="45.24006" lon="0.07645">
        <ele>72</ele>
        <time>2014-04-06T09:06:08Z</time>
      </trkpt>
      <trkpt lat="45.24001" lon="0.07651">
        <ele>73</ele>
        <time>2014-04-06T09:06:09Z</time>
      </trkpt>
      <trkpt lat="45.23998" lon="0.07657">
        <ele>72</ele>
        <time>2014-04-06T09:06:10Z</time>
      </trkpt>
      <trkpt lat="45.23998" lon="0.07683">
        <ele>72</ele>
        <time>2014-04-06T09:06:13Z</time>
      </trkpt>
      <trkpt lat="45.24" lon="0.07701">
        <ele>72</ele>
        <time>2014-04-06T09:06:15Z</time>
      </trkpt>
      <trkpt lat="45.24002" lon="0.07709">
        <ele>75</ele>
        <time>2014-04-06T09:06:16Z</time>
      </trkpt>
      <trkpt lat="45.24004" lon="0.07725">
        <ele>75</ele>
        <time>2014-04-06T09:06:18Z</time>
      </trkpt>
      <trkpt lat="45.23994" lon="0.07744">
        <ele>74</ele>
        <time>2014-04-06T09:06:21Z</time>
      </trkpt>
      <trkpt lat="45.23841" lon="0.07879">
        <ele>76</ele>
        <time>2014-04-06T09:06:49Z</time>
      </trkpt>
      <trkpt lat="45.23817" lon="0.07892">
        <ele>77</ele>
        <time>2014-04-06T09:06:54Z</time>
      </trkpt>
      <trkpt lat="45.23812" lon="0.07893">
        <ele>78</ele>
        <time>2014-04-06T09:06:55Z</time>
      </trkpt>
      <trkpt lat="45.23669" lon="0.07883">
        <ele>83</ele>
        <time>2014-04-06T09:07:25Z</time>
      </trkpt>
      <trkpt lat="45.23637" lon="0.07872">
        <ele>82</ele>
        <time>2014-04-06T09:07:32Z</time>
      </trkpt>
      <trkpt lat="45.23621" lon="0.07864">
        <ele>82</ele>
        <time>2014-04-06T09:07:35Z</time>
      </trkpt>
      <trkpt lat="45.2355" lon="0.07804">
        <ele>79</ele>
        <time>2014-04-06T09:07:50Z</time>
      </trkpt>
      <trkpt lat="45.23517" lon="0.07786">
        <ele>79</ele>
        <time>2014-04-06T09:07:56Z</time>
      </trkpt>
      <trkpt lat="45.23455" lon="0.0776">
        <ele>76</ele>
        <time>2014-04-06T09:08:08Z</time>
      </trkpt>
      <trkpt lat="45.2345" lon="0.07759">
        <ele>76</ele>
        <time>2014-04-06T09:08:09Z</time>
      </trkpt>
      <trkpt lat="45.23441" lon="0.07761">
        <ele>75</ele>
        <time>2014-04-06T09:08:11Z</time>
      </trkpt>
      <trkpt lat="45.23432" lon="0.07764">
        <ele>75</ele>
        <time>2014-04-06T09:08:13Z</time>
      </trkpt>
      <trkpt lat="45.23383" lon="0.07774">
        <ele>72</ele>
        <time>2014-04-06T09:08:24Z</time>
      </trkpt>
      <trkpt lat="45.23247" lon="0.0782">
        <ele>66</ele>
        <time>2014-04-06T09:08:50Z</time>
      </trkpt>
      <trkpt lat="45.23242" lon="0.07822">
        <ele>66</ele>
        <time>2014-04-06T09:08:51Z</time>
      </trkpt>
      <trkpt lat="45.23228" lon="0.07823">
        <ele>65</ele>
        <time>2014-04-06T09:08:54Z</time>
      </trkpt>
      <trkpt lat="45.23218" lon="0.07821">
        <ele>65</ele>
        <time>2014-04-06T09:08:56Z</time>
      </trkpt>
      <trkpt lat="45.23213" lon="0.07809">
        <ele>65</ele>
        <time>2014-04-06T09:08:58Z</time>
      </trkpt>
      <trkpt lat="45.23192" lon="0.07702">
        <ele>63</ele>
        <time>2014-04-06T09:09:08Z</time>
      </trkpt>
      <trkpt lat="45.23192" lon="0.07676">
        <ele>63</ele>
        <time>2014-04-06T09:09:10Z</time>
      </trkpt>
      <trkpt lat="45.23193" lon="0.07662">
        <ele>63</ele>
        <time>2014-04-06T09:09:11Z</time>
      </trkpt>
      <trkpt lat="45.23202" lon="0.07608">
        <ele>63</ele>
        <time>2014-04-06T09:09:15Z</time>
      </trkpt>
      <trkpt lat="45.23202" lon="0.07595">
        <ele>63</ele>
        <time>2014-04-06T09:09:16Z</time>
      </trkpt>
      <trkpt lat="45.23198" lon="0.07569">
        <ele>63</ele>
        <time>2014-04-06T09:09:18Z</time>
      </trkpt>
      <trkpt lat="45.23172" lon="0.07489">
        <ele>63</ele>
        <time>2014-04-06T09:09:25Z</time>
      </trkpt>
      <trkpt lat="45.23167" lon="0.07481">
        <ele>63</ele>
        <time>2014-04-06T09:09:26Z</time>
      </trkpt>
      <trkpt lat="45.23155" lon="0.0747">
        <ele>58</ele>
        <time>2014-04-06T09:09:28Z</time>
      </trkpt>
      <trkpt lat="45.23125" lon="0.0746">
        <ele>57</ele>
        <time>2014-04-06T09:09:32Z</time>
      </trkpt>
      <trkpt lat="45.23073" lon="0.07473">
        <ele>52</ele>
        <time>2014-04-06T09:09:38Z</time>
      </trkpt>
      <trkpt lat="45.23054" lon="0.07476">
        <ele>51</ele>
        <time>2014-04-06T09:09:40Z</time>
      </trkpt>
      <trkpt lat="45.23036" lon="0.07476">
        <ele>50</ele>
        <time>2014-04-06T09:09:42Z</time>
      </trkpt>
      <trkpt lat="45.23027" lon="0.07476">
        <ele>50</ele>
        <time>2014-04-06T09:09:43Z</time>
      </trkpt>
      <trkpt lat="45.22958" lon="0.07464">
        <ele>48</ele>
        <time>2014-04-06T09:09:51Z</time>
      </trkpt>
      <trkpt lat="45.22909" lon="0.07463">
        <ele>49</ele>
        <time>2014-04-06T09:09:57Z</time>
      </trkpt>
      <trkpt lat="45.22901" lon="0.07461">
        <ele>49</ele>
        <time>2014-04-06T09:09:58Z</time>
      </trkpt>
      <trkpt lat="45.22893" lon="0.07458">
        <ele>49</ele>
        <time>2014-04-06T09:09:59Z</time>
      </trkpt>
      <trkpt lat="45.22843" lon="0.07436">
        <ele>49</ele>
        <time>2014-04-06T09:10:05Z</time>
      </trkpt>
      <trkpt lat="45.22651" lon="0.07389">
        <ele>42</ele>
        <time>2014-04-06T09:10:27Z</time>
      </trkpt>
      <trkpt lat="45.22616" lon="0.07384">
        <ele>41</ele>
        <time>2014-04-06T09:10:31Z</time>
      </trkpt>
      <trkpt lat="45.22607" lon="0.07387">
        <ele>41</ele>
        <time>2014-04-06T09:10:32Z</time>
      </trkpt>
      <trkpt lat="45.22571" lon="0.07404">
        <ele>41</ele>
        <time>2014-04-06T09:10:37Z</time>
      </trkpt>
      <trkpt lat="45.22552" lon="0.07395">
        <ele>40</ele>
        <time>2014-04-06T09:10:40Z</time>
      </trkpt>
      <trkpt lat="45.22508" lon="0.07342">
        <ele>38</ele>
        <time>2014-04-06T09:10:48Z</time>
      </trkpt>
      <trkpt lat="45.22503" lon="0.07334">
        <ele>38</ele>
        <time>2014-04-06T09:10:49Z</time>
      </trkpt>
      <trkpt lat="45.22482" lon="0.07273">
        <ele>35</ele>
        <time>2014-04-06T09:10:55Z</time>
      </trkpt>
      <trkpt lat="45.22469" lon="0.0726">
        <ele>35</ele>
        <time>2014-04-06T09:10:57Z</time>
      </trkpt>
      <trkpt lat="45.22453" lon="0.07254">
        <ele>34</ele>
        <time>2014-04-06T09:10:59Z</time>
      </trkpt>
      <trkpt lat="45.22428" lon="0.07247">
        <ele>33</ele>
        <time>2014-04-06T09:11:02Z</time>
      </trkpt>
      <trkpt lat="45.22404" lon="0.07242">
        <ele>32</ele>
        <time>2014-04-06T09:11:05Z</time>
      </trkpt>
      <trkpt lat="45.22275" lon="0.07245">
        <ele>30</ele>
        <time>2014-04-06T09:11:22Z</time>
      </trkpt>
      <trkpt lat="45.22255" lon="0.07244">
        <ele>31</ele>
        <time>2014-04-06T09:11:25Z</time>
      </trkpt>
      <trkpt lat="45.22247" lon="0.07235">
        <ele>31</ele>
        <time>2014-04-06T09:11:27Z</time>
      </trkpt>
      <trkpt lat="45.22264" lon="0.06731">
        <ele>32</ele>
        <time>2014-04-06T09:12:50Z</time>
      </trkpt>
      <trkpt lat="45.2226" lon="0.06717">
        <ele>32</ele>
        <time>2014-04-06T09:12:52Z</time>
      </trkpt>
      <trkpt lat="45.22248" lon="0.06705">
        <ele>33</ele>
        <time>2014-04-06T09:12:55Z</time>
      </trkpt>
      <trkpt lat="45.22222" lon="0.06689">
        <ele>33</ele>
        <time>2014-04-06T09:13:00Z</time>
      </trkpt>
      <trkpt lat="45.2221" lon="0.06684">
        <ele>33</ele>
        <time>2014-04-06T09:13:02Z</time>
      </trkpt>
      <trkpt lat="45.22177" lon="0.06665">
        <ele>31</ele>
        <time>2014-04-06T09:13:08Z</time>
      </trkpt>
      <trkpt lat="45.22148" lon="0.06629">
        <ele>30</ele>
        <time>2014-04-06T09:13:15Z</time>
      </trkpt>
      <trkpt lat="45.22102" lon="0.06586">
        <ele>30</ele>
        <time>2014-04-06T09:13:26Z</time>
      </trkpt>
      <trkpt lat="45.221" lon="0.0658">
        <ele>31</ele>
        <time>2014-04-06T09:13:27Z</time>
      </trkpt>
      <trkpt lat="45.22103" lon="0.06563">
        <ele>31</ele>
        <time>2014-04-06T09:13:30Z</time>
      </trkpt>
      <trkpt lat="45.22125" lon="0.06536">
        <ele>32</ele>
        <time>2014-04-06T09:13:36Z</time>
      </trkpt>
      <trkpt lat="45.22152" lon="0.06505">
        <ele>31</ele>
        <time>2014-04-06T09:13:43Z</time>
      </trkpt>
      <trkpt lat="45.22206" lon="0.06412">
        <ele>33</ele>
        <time>2014-04-06T09:14:00Z</time>
      </trkpt>
      <trkpt lat="45.22329" lon="0.06118">
        <ele>30</ele>
        <time>2014-04-06T09:14:51Z</time>
      </trkpt>
      <trkpt lat="45.2236" lon="0.06061">
        <ele>29</ele>
        <time>2014-04-06T09:15:02Z</time>
      </trkpt>
      <trkpt lat="45.2238" lon="0.06017">
        <ele>30</ele>
        <time>2014-04-06T09:15:10Z</time>
      </trkpt>
      <trkpt lat="45.22383" lon="0.06012">
        <ele>30</ele>
        <time>2014-04-06T09:15:11Z</time>
      </trkpt>
      <trkpt lat="45.22391" lon="0.06007">
        <ele>30</ele>
        <time>2014-04-06T09:15:13Z</time>
      </trkpt>
      <trkpt lat="45.22403" lon="0.06015">
        <ele>30</ele>
        <time>2014-04-06T09:15:16Z</time>
      </trkpt>
      <trkpt lat="45.22591" lon="0.06163">
        <ele>28</ele>
        <time>2014-04-06T09:15:58Z</time>
      </trkpt>
      <trkpt lat="45.22744" lon="0.06232">
        <ele>30</ele>
        <time>2014-04-06T09:16:31Z</time>
      </trkpt>
      <trkpt lat="45.22749" lon="0.06233">
        <ele>30</ele>
        <time>2014-04-06T09:16:32Z</time>
      </trkpt>
      <trkpt lat="45.22762" lon="0.06228">
        <ele>31</ele>
        <time>2014-04-06T09:16:35Z</time>
      </trkpt>
      <trkpt lat="45.22779" lon="0.06205">
        <ele>31</ele>
        <time>2014-04-06T09:16:40Z</time>
      </trkpt>
      <trkpt lat="45.22883" lon="0.05996">
        <ele>32</ele>
        <time>2014-04-06T09:17:16Z</time>
      </trkpt>
      <trkpt lat="45.22904" lon="0.05968">
        <ele>32</ele>
        <time>2014-04-06T09:17:22Z</time>
      </trkpt>
      <trkpt lat="45.22912" lon="0.05961">
        <ele>32</ele>
        <time>2014-04-06T09:17:24Z</time>
      </trkpt>
      <trkpt lat="45.23008" lon="0.05901">
        <ele>36</ele>
        <time>2014-04-06T09:17:51Z</time>
      </trkpt>
      <trkpt lat="45.23026" lon="0.05894">
        <ele>37</ele>
        <time>2014-04-06T09:17:56Z</time>
      </trkpt>
      <trkpt lat="45.23044" lon="0.0589">
        <ele>38</ele>
        <time>2014-04-06T09:18:01Z</time>
      </trkpt>
      <trkpt lat="45.23117" lon="0.05891">
        <ele>43</ele>
        <time>2014-04-06T09:18:25Z</time>
      </trkpt>
      <trkpt lat="45.23156" lon="0.05896">
        <ele>44</ele>
        <time>2014-04-06T09:18:39Z</time>
      </trkpt>
      <trkpt lat="45.23163" lon="0.05897">
        <ele>45</ele>
        <time>2014-04-06T09:18:41Z</time>
      </trkpt>
      <trkpt lat="45.2321" lon="0.05899">
        <ele>47</ele>
        <time>2014-04-06T09:18:56Z</time>
      </trkpt>
      <trkpt lat="45.23268" lon="0.05908">
        <ele>49</ele>
        <time>2014-04-06T09:19:13Z</time>
      </trkpt>
      <trkpt lat="45.23359" lon="0.05956">
        <ele>52</ele>
        <time>2014-04-06T09:19:40Z</time>
      </trkpt>
      <trkpt lat="45.23493" lon="0.05999">
        <ele>58</ele>
        <time>2014-04-06T09:20:23Z</time>
      </trkpt>
      <trkpt lat="45.23628" lon="0.06016">
        <ele>67</ele>
        <time>2014-04-06T09:21:06Z</time>
      </trkpt>
      <trkpt lat="45.23643" lon="0.06015">
        <ele>68</ele>
        <time>2014-04-06T09:21:12Z</time>
      </trkpt>
      <trkpt lat="45.23653" lon="0.06013">
        <ele>68</ele>
        <time>2014-04-06T09:21:17Z</time>
      </trkpt>
      <trkpt lat="45.23669" lon="0.06007">
        <ele>72</ele>
        <time>2014-04-06T09:21:26Z</time>
      </trkpt>
      <trkpt lat="45.23671" lon="0.06006">
        <ele>72</ele>
        <time>2014-04-06T09:21:27Z</time>
      </trkpt>
      <trkpt lat="45.23678" lon="0.06002">
        <ele>72</ele>
        <time>2014-04-06T09:21:32Z</time>
      </trkpt>
      <trkpt lat="45.23681" lon="0.05998">
        <ele>73</ele>
        <time>2014-04-06T09:21:34Z</time>
      </trkpt>
      <trkpt lat="45.23684" lon="0.05995">
        <ele>73</ele>
        <time>2014-04-06T09:21:37Z</time>
      </trkpt>
      <trkpt lat="45.23728" lon="0.05929">
        <ele>77</ele>
        <time>2014-04-06T09:22:06Z</time>
      </trkpt>
      <trkpt lat="45.23745" lon="0.05911">
        <ele>78</ele>
        <time>2014-04-06T09:22:15Z</time>
      </trkpt>
      <trkpt lat="45.2378" lon="0.05882">
        <ele>83</ele>
        <time>2014-04-06T09:22:34Z</time>
      </trkpt>
      <trkpt lat="45.23782" lon="0.05881">
        <ele>83</ele>
        <time>2014-04-06T09:22:35Z</time>
      </trkpt>
      <trkpt lat="45.23795" lon="0.05869">
        <ele>84</ele>
        <time>2014-04-06T09:22:43Z</time>
      </trkpt>
      <trkpt lat="45.23798" lon="0.05867">
        <ele>84</ele>
        <time>2014-04-06T09:22:45Z</time>
      </trkpt>
      <trkpt lat="45.2381" lon="0.05863">
        <ele>85</ele>
        <time>2014-04-06T09:22:51Z</time>
      </trkpt>
      <trkpt lat="45.23821" lon="0.05865">
        <ele>86</ele>
        <time>2014-04-06T09:22:56Z</time>
      </trkpt>
      <trkpt lat="45.23831" lon="0.05865">
        <ele>86</ele>
        <time>2014-04-06T09:23:01Z</time>
      </trkpt>
      <trkpt lat="45.23882" lon="0.05876">
        <ele>94</ele>
        <time>2014-04-06T09:23:22Z</time>
      </trkpt>
      <trkpt lat="45.23893" lon="0.05875">
        <ele>94</ele>
        <time>2014-04-06T09:23:26Z</time>
      </trkpt>
      <trkpt lat="45.2391" lon="0.0587">
        <ele>95</ele>
        <time>2014-04-06T09:23:33Z</time>
      </trkpt>
      <trkpt lat="45.23921" lon="0.05863">
        <ele>98</ele>
        <time>2014-04-06T09:23:38Z</time>
      </trkpt>
      <trkpt lat="45.23922" lon="0.05861">
        <ele>98</ele>
        <time>2014-04-06T09:23:39Z</time>
      </trkpt>
      <trkpt lat="45.23923" lon="0.05857">
        <ele>98</ele>
        <time>2014-04-06T09:23:40Z</time>
      </trkpt>
      <trkpt lat="45.23921" lon="0.0585">
        <ele>98</ele>
        <time>2014-04-06T09:23:42Z</time>
      </trkpt>
      <trkpt lat="45.2391" lon="0.05834">
        <ele>95</ele>
        <time>2014-04-06T09:23:47Z</time>
      </trkpt>
      <trkpt lat="45.23849" lon="0.05805">
        <ele>90</ele>
        <time>2014-04-06T09:24:07Z</time>
      </trkpt>
      <trkpt lat="45.23832" lon="0.05795">
        <ele>84</ele>
        <time>2014-04-06T09:24:10Z</time>
      </trkpt>
      <trkpt lat="45.2383" lon="0.05777">
        <ele>84</ele>
        <time>2014-04-06T09:24:13Z</time>
      </trkpt>
      <trkpt lat="45.23839" lon="0.05752">
        <ele>87</ele>
        <time>2014-04-06T09:24:18Z</time>
      </trkpt>
      <trkpt lat="45.2384" lon="0.05742">
        <ele>85</ele>
        <time>2014-04-06T09:24:20Z</time>
      </trkpt>
      <trkpt lat="45.23838" lon="0.05736">
        <ele>85</ele>
        <time>2014-04-06T09:24:21Z</time>
      </trkpt>
      <trkpt lat="45.23826" lon="0.05725">
        <ele>82</ele>
        <time>2014-04-06T09:24:24Z</time>
      </trkpt>
      <trkpt lat="45.23752" lon="0.05682">
        <ele>78</ele>
        <time>2014-04-06T09:24:35Z</time>
      </trkpt>
      <trkpt lat="45.23748" lon="0.05677">
        <ele>76</ele>
        <time>2014-04-06T09:24:36Z</time>
      </trkpt>
      <trkpt lat="45.23746" lon="0.05665">
        <ele>76</ele>
        <time>2014-04-06T09:24:38Z</time>
      </trkpt>
      <trkpt lat="45.23749" lon="0.05653">
        <ele>75</ele>
        <time>2014-04-06T09:24:40Z</time>
      </trkpt>
      <trkpt lat="45.23747" lon="0.05641">
        <ele>74</ele>
        <time>2014-04-06T09:24:42Z</time>
      </trkpt>
      <trkpt lat="45.23733" lon="0.0563">
        <ele>73</ele>
        <time>2014-04-06T09:24:45Z</time>
      </trkpt>
      <trkpt lat="45.23702" lon="0.05622">
        <ele>73</ele>
        <time>2014-04-06T09:24:50Z</time>
      </trkpt>
      <trkpt lat="45.23596" lon="0.05604">
        <ele>71</ele>
        <time>2014-04-06T09:25:08Z</time>
      </trkpt>
      <trkpt lat="45.23587" lon="0.05611">
        <ele>71</ele>
        <time>2014-04-06T09:25:10Z</time>
      </trkpt>
      <trkpt lat="45.23583" lon="0.05632">
        <ele>70</ele>
        <time>2014-04-06T09:25:13Z</time>
      </trkpt>
      <trkpt lat="45.2358" lon="0.0564">
        <ele>70</ele>
        <time>2014-04-06T09:25:14Z</time>
      </trkpt>
      <trkpt lat="45.23572" lon="0.05652">
        <ele>71</ele>
        <time>2014-04-06T09:25:16Z</time>
      </trkpt>
      <trkpt lat="45.23567" lon="0.05655">
        <ele>71</ele>
        <time>2014-04-06T09:25:17Z</time>
      </trkpt>
      <trkpt lat="45.23555" lon="0.0566">
        <ele>70</ele>
        <time>2014-04-06T09:25:19Z</time>
      </trkpt>
      <trkpt lat="45.23548" lon="0.0566">
        <ele>70</ele>
        <time>2014-04-06T09:25:20Z</time>
      </trkpt>
      <trkpt lat="45.2353" lon="0.05655">
        <ele>70</ele>
        <time>2014-04-06T09:25:23Z</time>
      </trkpt>
      <trkpt lat="45.23519" lon="0.05648">
        <ele>69</ele>
        <time>2014-04-06T09:25:25Z</time>
      </trkpt>
      <trkpt lat="45.23496" lon="0.05638">
        <ele>65</ele>
        <time>2014-04-06T09:25:29Z</time>
      </trkpt>
      <trkpt lat="45.23447" lon="0.05624">
        <ele>62</ele>
        <time>2014-04-06T09:25:35Z</time>
      </trkpt>
      <trkpt lat="45.23437" lon="0.05623">
        <ele>61</ele>
        <time>2014-04-06T09:25:36Z</time>
      </trkpt>
      <trkpt lat="45.23388" lon="0.05626">
        <ele>55</ele>
        <time>2014-04-06T09:25:41Z</time>
      </trkpt>
      <trkpt lat="45.23372" lon="0.0562">
        <ele>54</ele>
        <time>2014-04-06T09:25:43Z</time>
      </trkpt>
      <trkpt lat="45.23359" lon="0.05609">
        <ele>54</ele>
        <time>2014-04-06T09:25:45Z</time>
      </trkpt>
      <trkpt lat="45.23352" lon="0.05606">
        <ele>53</ele>
        <time>2014-04-06T09:25:46Z</time>
      </trkpt>
      <trkpt lat="45.23346" lon="0.05604">
        <ele>53</ele>
        <time>2014-04-06T09:25:47Z</time>
      </trkpt>
      <trkpt lat="45.23332" lon="0.05604">
        <ele>50</ele>
        <time>2014-04-06T09:25:49Z</time>
      </trkpt>
      <trkpt lat="45.23249" lon="0.05626">
        <ele>45</ele>
        <time>2014-04-06T09:26:02Z</time>
      </trkpt>
      <trkpt lat="45.23239" lon="0.0563">
        <ele>45</ele>
        <time>2014-04-06T09:26:04Z</time>
      </trkpt>
      <trkpt lat="45.23228" lon="0.05636">
        <ele>45</ele>
        <time>2014-04-06T09:26:06Z</time>
      </trkpt>
      <trkpt lat="45.23207" lon="0.05652">
        <ele>44</ele>
        <time>2014-04-06T09:26:10Z</time>
      </trkpt>
      <trkpt lat="45.23185" lon="0.05673">
        <ele>43</ele>
        <time>2014-04-06T09:26:15Z</time>
      </trkpt>
      <trkpt lat="45.23164" lon="0.05695">
        <ele>41</ele>
        <time>2014-04-06T09:26:20Z</time>
      </trkpt>
      <trkpt lat="45.23161" lon="0.05698">
        <ele>41</ele>
        <time>2014-04-06T09:26:21Z</time>
      </trkpt>
      <trkpt lat="45.23152" lon="0.05697">
        <ele>41</ele>
        <time>2014-04-06T09:26:24Z</time>
      </trkpt>
      <trkpt lat="45.23152" lon="0.05684">
        <ele>41</ele>
        <time>2014-04-06T09:26:27Z</time>
      </trkpt>
      <trkpt lat="45.23208" lon="0.05436">
        <ele>51</ele>
        <time>2014-04-06T09:27:16Z</time>
      </trkpt>
      <trkpt lat="45.2321" lon="0.05412">
        <ele>54</ele>
        <time>2014-04-06T09:27:22Z</time>
      </trkpt>
      <trkpt lat="45.2321" lon="0.054">
        <ele>54</ele>
        <time>2014-04-06T09:27:25Z</time>
      </trkpt>
      <trkpt lat="45.23206" lon="0.05377">
        <ele>55</ele>
        <time>2014-04-06T09:27:31Z</time>
      </trkpt>
      <trkpt lat="45.23192" lon="0.05328">
        <ele>59</ele>
        <time>2014-04-06T09:27:45Z</time>
      </trkpt>
      <trkpt lat="45.23191" lon="0.05318">
        <ele>60</ele>
        <time>2014-04-06T09:27:48Z</time>
      </trkpt>
      <trkpt lat="45.23191" lon="0.05311">
        <ele>60</ele>
        <time>2014-04-06T09:27:50Z</time>
      </trkpt>
      <trkpt lat="45.23195" lon="0.05298">
        <ele>61</ele>
        <time>2014-04-06T09:27:54Z</time>
      </trkpt>
      <trkpt lat="45.23199" lon="0.05293">
        <ele>61</ele>
        <time>2014-04-06T09:27:56Z</time>
      </trkpt>
      <trkpt lat="45.23225" lon="0.05268">
        <ele>63</ele>
        <time>2014-04-06T09:28:09Z</time>
      </trkpt>
      <trkpt lat="45.23231" lon="0.05256">
        <ele>64</ele>
        <time>2014-04-06T09:28:13Z</time>
      </trkpt>
      <trkpt lat="45.23234" lon="0.05244">
        <ele>68</ele>
        <time>2014-04-06T09:28:17Z</time>
      </trkpt>
      <trkpt lat="45.23236" lon="0.05234">
        <ele>69</ele>
        <time>2014-04-06T09:28:20Z</time>
      </trkpt>
      <trkpt lat="45.23236" lon="0.05209">
        <ele>70</ele>
        <time>2014-04-06T09:28:27Z</time>
      </trkpt>
      <trkpt lat="45.23234" lon="0.05188">
        <ele>71</ele>
        <time>2014-04-06T09:28:33Z</time>
      </trkpt>
      <trkpt lat="45.23229" lon="0.05175">
        <ele>72</ele>
        <time>2014-04-06T09:28:37Z</time>
      </trkpt>
      <trkpt lat="45.23195" lon="0.05118">
        <ele>74</ele>
        <time>2014-04-06T09:28:52Z</time>
      </trkpt>
      <trkpt lat="45.23189" lon="0.05101">
        <ele>75</ele>
        <time>2014-04-06T09:28:56Z</time>
      </trkpt>
      <trkpt lat="45.23186" lon="0.05086">
        <ele>75</ele>
        <time>2014-04-06T09:28:59Z</time>
      </trkpt>
      <trkpt lat="45.23181" lon="0.05068">
        <ele>77</ele>
        <time>2014-04-06T09:29:03Z</time>
      </trkpt>
      <trkpt lat="45.23157" lon="0.05005">
        <ele>78</ele>
        <time>2014-04-06T09:29:18Z</time>
      </trkpt>
      <trkpt lat="45.23147" lon="0.04971">
        <ele>77</ele>
        <time>2014-04-06T09:29:26Z</time>
      </trkpt>
      <trkpt lat="45.23128" lon="0.04927">
        <ele>77</ele>
        <time>2014-04-06T09:29:35Z</time>
      </trkpt>
      <trkpt lat="45.23119" lon="0.04922">
        <ele>77</ele>
        <time>2014-04-06T09:29:37Z</time>
      </trkpt>
      <trkpt lat="45.23111" lon="0.04922">
        <ele>77</ele>
        <time>2014-04-06T09:29:39Z</time>
      </trkpt>
      <trkpt lat="45.2311" lon="0.04921">
        <ele>77</ele>
        <time>2014-04-06T09:29:40Z</time>
      </trkpt>
      <trkpt lat="45.23108" lon="0.04921">
        <ele>77</ele>
        <time>2014-04-06T09:29:41Z</time>
      </trkpt>
      <trkpt lat="45.23102" lon="0.04924">
        <ele>77</ele>
        <time>2014-04-06T09:29:44Z</time>
      </trkpt>
      <trkpt lat="45.23099" lon="0.04924">
        <ele>76</ele>
        <time>2014-04-06T09:29:46Z</time>
      </trkpt>
      <trkpt lat="45.23097" lon="0.04919">
        <ele>76</ele>
        <time>2014-04-06T09:29:48Z</time>
      </trkpt>
      <trkpt lat="45.23101" lon="0.04911">
        <ele>76</ele>
        <time>2014-04-06T09:29:52Z</time>
      </trkpt>
      <trkpt lat="45.23102" lon="0.04909">
        <ele>76</ele>
        <time>2014-04-06T09:29:56Z</time>
      </trkpt>
    </trkseg>
  </trk>
</gpx>